<?xml version="1.0" encoding="UTF-8" standalone="no" ?>
<gpx xmlns="http://www.topografix.com/GPX/1/1" xmlns:xsi="http://www.w3.org/2001/XMLSchema-instance" xsi:schemaLocation="http://www.topografix.com/GPX/1/1 http://www.topografix.com/GPX/1/1/gpx.xsd" version="1.1" creator="VisuGPX - https://www.visugpx.com">
  <metadata>
    <name>LES ARCS LES MENHIRS DES TERRIERS</name>
    <desc><![CDATA[Randonnée dans la forêt des terriers aux arcs. Visite d'un four à poix rénové, d'un dolmen et du site megalithique des terriers avec ses menhirs.]]></desc>
  </metadata>
  <trk>
    <name><![CDATA[Tracé actuel: 12 AVR 2016 10:30]]></name>
    <trkseg>
      <trkpt lat="43.42811" lon="6.51144">
        <ele>22.73</ele>
        <time>2016-04-12T08:30:08Z</time>
      </trkpt>
      <trkpt lat="43.4281" lon="6.51144">
        <ele>22.73</ele>
        <time>2016-04-12T08:30:09Z</time>
      </trkpt>
      <trkpt lat="43.42808" lon="6.51142">
        <ele>22.73</ele>
        <time>2016-04-12T08:30:23Z</time>
      </trkpt>
      <trkpt lat="43.42819" lon="6.51144">
        <ele>22.73</ele>
        <time>2016-04-12T08:30:30Z</time>
      </trkpt>
      <trkpt lat="43.42833" lon="6.51151">
        <ele>22.73</ele>
        <time>2016-04-12T08:30:39Z</time>
      </trkpt>
      <trkpt lat="43.42845" lon="6.51156">
        <ele>22.73</ele>
        <time>2016-04-12T08:30:54Z</time>
      </trkpt>
      <trkpt lat="43.42868" lon="6.51169">
        <ele>22.73</ele>
        <time>2016-04-12T08:31:17Z</time>
      </trkpt>
      <trkpt lat="43.4288" lon="6.51171">
        <ele>23.21</ele>
        <time>2016-04-12T08:31:32Z</time>
      </trkpt>
      <trkpt lat="43.42934" lon="6.51175">
        <ele>22.73</ele>
        <time>2016-04-12T08:31:53Z</time>
      </trkpt>
      <trkpt lat="43.42958" lon="6.51185">
        <ele>18.4</ele>
        <time>2016-04-12T08:32:09Z</time>
      </trkpt>
      <trkpt lat="43.42958" lon="6.51186">
        <ele>14.56</ele>
        <time>2016-04-12T08:32:12Z</time>
      </trkpt>
      <trkpt lat="43.42958" lon="6.51186">
        <ele>10.71</ele>
        <time>2016-04-12T08:32:15Z</time>
      </trkpt>
      <trkpt lat="43.42957" lon="6.51186">
        <ele>7.35</ele>
        <time>2016-04-12T08:32:18Z</time>
      </trkpt>
      <trkpt lat="43.42958" lon="6.51187">
        <ele>4.46</ele>
        <time>2016-04-12T08:32:21Z</time>
      </trkpt>
      <trkpt lat="43.42956" lon="6.51188">
        <ele>0.62</ele>
        <time>2016-04-12T08:32:25Z</time>
      </trkpt>
      <trkpt lat="43.42952" lon="6.51192">
        <ele>-2.75</ele>
        <time>2016-04-12T08:32:30Z</time>
      </trkpt>
      <trkpt lat="43.42952" lon="6.51197">
        <ele>-6.11</ele>
        <time>2016-04-12T08:32:36Z</time>
      </trkpt>
      <trkpt lat="43.42951" lon="6.51197">
        <ele>-8.03</ele>
        <time>2016-04-12T08:32:40Z</time>
      </trkpt>
      <trkpt lat="43.42949" lon="6.51203">
        <ele>-9.96</ele>
        <time>2016-04-12T08:32:46Z</time>
      </trkpt>
      <trkpt lat="43.42942" lon="6.51215">
        <ele>-13.32</ele>
        <time>2016-04-12T08:33:00Z</time>
      </trkpt>
      <trkpt lat="43.4293" lon="6.5123">
        <ele>-13.32</ele>
        <time>2016-04-12T08:33:17Z</time>
      </trkpt>
      <trkpt lat="43.42929" lon="6.51241">
        <ele>-13.32</ele>
        <time>2016-04-12T08:33:25Z</time>
      </trkpt>
      <trkpt lat="43.42927" lon="6.51245">
        <ele>-13.32</ele>
        <time>2016-04-12T08:33:28Z</time>
      </trkpt>
      <trkpt lat="43.42926" lon="6.51249">
        <ele>-13.32</ele>
        <time>2016-04-12T08:33:32Z</time>
      </trkpt>
      <trkpt lat="43.42929" lon="6.51253">
        <ele>-13.32</ele>
        <time>2016-04-12T08:33:36Z</time>
      </trkpt>
      <trkpt lat="43.42929" lon="6.51255">
        <ele>-13.32</ele>
        <time>2016-04-12T08:33:38Z</time>
      </trkpt>
      <trkpt lat="43.42929" lon="6.51258">
        <ele>-13.32</ele>
        <time>2016-04-12T08:33:40Z</time>
      </trkpt>
      <trkpt lat="43.42928" lon="6.51259">
        <ele>-12.84</ele>
        <time>2016-04-12T08:33:42Z</time>
      </trkpt>
      <trkpt lat="43.42927" lon="6.51266">
        <ele>-11.88</ele>
        <time>2016-04-12T08:33:48Z</time>
      </trkpt>
      <trkpt lat="43.42928" lon="6.5127">
        <ele>-12.84</ele>
        <time>2016-04-12T08:33:51Z</time>
      </trkpt>
      <trkpt lat="43.42925" lon="6.51287">
        <ele>-12.84</ele>
        <time>2016-04-12T08:34:04Z</time>
      </trkpt>
      <trkpt lat="43.42923" lon="6.51289">
        <ele>-13.32</ele>
        <time>2016-04-12T08:34:11Z</time>
      </trkpt>
      <trkpt lat="43.42918" lon="6.51299">
        <ele>-13.32</ele>
        <time>2016-04-12T08:34:20Z</time>
      </trkpt>
      <trkpt lat="43.42915" lon="6.51317">
        <ele>-12.84</ele>
        <time>2016-04-12T08:34:33Z</time>
      </trkpt>
      <trkpt lat="43.42908" lon="6.51331">
        <ele>-12.84</ele>
        <time>2016-04-12T08:34:47Z</time>
      </trkpt>
      <trkpt lat="43.42906" lon="6.51335">
        <ele>-12.84</ele>
        <time>2016-04-12T08:34:50Z</time>
      </trkpt>
      <trkpt lat="43.42899" lon="6.51358">
        <ele>-13.32</ele>
        <time>2016-04-12T08:35:07Z</time>
      </trkpt>
      <trkpt lat="43.42899" lon="6.51359">
        <ele>-13.32</ele>
        <time>2016-04-12T08:35:08Z</time>
      </trkpt>
      <trkpt lat="43.42902" lon="6.51366">
        <ele>-13.32</ele>
        <time>2016-04-12T08:35:13Z</time>
      </trkpt>
      <trkpt lat="43.42903" lon="6.51384">
        <ele>-12.84</ele>
        <time>2016-04-12T08:35:27Z</time>
      </trkpt>
      <trkpt lat="43.429" lon="6.51402">
        <ele>-12.84</ele>
        <time>2016-04-12T08:35:41Z</time>
      </trkpt>
      <trkpt lat="43.42896" lon="6.51422">
        <ele>-12.36</ele>
        <time>2016-04-12T08:35:57Z</time>
      </trkpt>
      <trkpt lat="43.42896" lon="6.51433">
        <ele>-12.36</ele>
        <time>2016-04-12T08:36:04Z</time>
      </trkpt>
      <trkpt lat="43.429" lon="6.51452">
        <ele>-12.84</ele>
        <time>2016-04-12T08:36:18Z</time>
      </trkpt>
      <trkpt lat="43.42907" lon="6.51473">
        <ele>-13.32</ele>
        <time>2016-04-12T08:36:34Z</time>
      </trkpt>
      <trkpt lat="43.4291" lon="6.51491">
        <ele>-13.32</ele>
        <time>2016-04-12T08:36:48Z</time>
      </trkpt>
      <trkpt lat="43.42909" lon="6.51518">
        <ele>-13.8</ele>
        <time>2016-04-12T08:37:07Z</time>
      </trkpt>
      <trkpt lat="43.42903" lon="6.51532">
        <ele>-14.28</ele>
        <time>2016-04-12T08:37:19Z</time>
      </trkpt>
      <trkpt lat="43.42898" lon="6.5154">
        <ele>-14.28</ele>
        <time>2016-04-12T08:37:27Z</time>
      </trkpt>
      <trkpt lat="43.42886" lon="6.51557">
        <ele>-14.76</ele>
        <time>2016-04-12T08:37:45Z</time>
      </trkpt>
      <trkpt lat="43.42883" lon="6.51568">
        <ele>-14.76</ele>
        <time>2016-04-12T08:37:54Z</time>
      </trkpt>
      <trkpt lat="43.42875" lon="6.51589">
        <ele>-14.76</ele>
        <time>2016-04-12T08:38:11Z</time>
      </trkpt>
      <trkpt lat="43.42865" lon="6.51607">
        <ele>-14.76</ele>
        <time>2016-04-12T08:38:28Z</time>
      </trkpt>
      <trkpt lat="43.42857" lon="6.51614">
        <ele>-14.28</ele>
        <time>2016-04-12T08:38:43Z</time>
      </trkpt>
      <trkpt lat="43.42856" lon="6.5162">
        <ele>-14.28</ele>
        <time>2016-04-12T08:38:50Z</time>
      </trkpt>
      <trkpt lat="43.42855" lon="6.51625">
        <ele>-14.28</ele>
        <time>2016-04-12T08:38:53Z</time>
      </trkpt>
      <trkpt lat="43.42855" lon="6.51634">
        <ele>-14.28</ele>
        <time>2016-04-12T08:38:58Z</time>
      </trkpt>
      <trkpt lat="43.42858" lon="6.5166">
        <ele>-13.8</ele>
        <time>2016-04-12T08:39:13Z</time>
      </trkpt>
      <trkpt lat="43.42864" lon="6.51678">
        <ele>-14.28</ele>
        <time>2016-04-12T08:39:26Z</time>
      </trkpt>
      <trkpt lat="43.42865" lon="6.5168">
        <ele>-14.28</ele>
        <time>2016-04-12T08:39:28Z</time>
      </trkpt>
      <trkpt lat="43.42869" lon="6.51694">
        <ele>-14.28</ele>
        <time>2016-04-12T08:39:38Z</time>
      </trkpt>
      <trkpt lat="43.42872" lon="6.51703">
        <ele>-14.28</ele>
        <time>2016-04-12T08:39:44Z</time>
      </trkpt>
      <trkpt lat="43.42875" lon="6.5171">
        <ele>-12.84</ele>
        <time>2016-04-12T08:39:49Z</time>
      </trkpt>
      <trkpt lat="43.42877" lon="6.51723">
        <ele>-13.8</ele>
        <time>2016-04-12T08:39:57Z</time>
      </trkpt>
      <trkpt lat="43.42886" lon="6.5173">
        <ele>-13.8</ele>
        <time>2016-04-12T08:40:06Z</time>
      </trkpt>
      <trkpt lat="43.42889" lon="6.51745">
        <ele>-13.8</ele>
        <time>2016-04-12T08:40:17Z</time>
      </trkpt>
      <trkpt lat="43.42885" lon="6.51769">
        <ele>-13.8</ele>
        <time>2016-04-12T08:40:31Z</time>
      </trkpt>
      <trkpt lat="43.42885" lon="6.51772">
        <ele>-13.32</ele>
        <time>2016-04-12T08:40:33Z</time>
      </trkpt>
      <trkpt lat="43.42883" lon="6.51777">
        <ele>-13.32</ele>
        <time>2016-04-12T08:40:36Z</time>
      </trkpt>
      <trkpt lat="43.42879" lon="6.51794">
        <ele>-12.84</ele>
        <time>2016-04-12T08:40:48Z</time>
      </trkpt>
      <trkpt lat="43.42879" lon="6.51795">
        <ele>-12.84</ele>
        <time>2016-04-12T08:40:52Z</time>
      </trkpt>
      <trkpt lat="43.4288" lon="6.51804">
        <ele>-12.36</ele>
        <time>2016-04-12T08:41:00Z</time>
      </trkpt>
      <trkpt lat="43.42879" lon="6.51808">
        <ele>-11.88</ele>
        <time>2016-04-12T08:41:03Z</time>
      </trkpt>
      <trkpt lat="43.42876" lon="6.51823">
        <ele>-11.4</ele>
        <time>2016-04-12T08:41:11Z</time>
      </trkpt>
      <trkpt lat="43.42875" lon="6.51827">
        <ele>-11.4</ele>
        <time>2016-04-12T08:41:13Z</time>
      </trkpt>
      <trkpt lat="43.42876" lon="6.51839">
        <ele>-11.4</ele>
        <time>2016-04-12T08:41:20Z</time>
      </trkpt>
      <trkpt lat="43.4288" lon="6.51846">
        <ele>-11.4</ele>
        <time>2016-04-12T08:41:26Z</time>
      </trkpt>
      <trkpt lat="43.42882" lon="6.51851">
        <ele>-11.88</ele>
        <time>2016-04-12T08:41:29Z</time>
      </trkpt>
      <trkpt lat="43.42882" lon="6.51862">
        <ele>-11.4</ele>
        <time>2016-04-12T08:41:37Z</time>
      </trkpt>
      <trkpt lat="43.4288" lon="6.51888">
        <ele>-11.88</ele>
        <time>2016-04-12T08:41:53Z</time>
      </trkpt>
      <trkpt lat="43.42877" lon="6.51904">
        <ele>-12.36</ele>
        <time>2016-04-12T08:42:05Z</time>
      </trkpt>
      <trkpt lat="43.42876" lon="6.51907">
        <ele>-12.84</ele>
        <time>2016-04-12T08:42:07Z</time>
      </trkpt>
      <trkpt lat="43.42877" lon="6.51911">
        <ele>-12.84</ele>
        <time>2016-04-12T08:42:10Z</time>
      </trkpt>
      <trkpt lat="43.42879" lon="6.51919">
        <ele>-12.84</ele>
        <time>2016-04-12T08:42:15Z</time>
      </trkpt>
      <trkpt lat="43.42883" lon="6.51923">
        <ele>-12.84</ele>
        <time>2016-04-12T08:42:19Z</time>
      </trkpt>
      <trkpt lat="43.42892" lon="6.51944">
        <ele>-13.8</ele>
        <time>2016-04-12T08:42:34Z</time>
      </trkpt>
      <trkpt lat="43.42893" lon="6.51947">
        <ele>-14.28</ele>
        <time>2016-04-12T08:42:37Z</time>
      </trkpt>
      <trkpt lat="43.42893" lon="6.5195">
        <ele>-14.28</ele>
        <time>2016-04-12T08:42:39Z</time>
      </trkpt>
      <trkpt lat="43.429" lon="6.51963">
        <ele>-14.76</ele>
        <time>2016-04-12T08:42:49Z</time>
      </trkpt>
      <trkpt lat="43.42902" lon="6.51969">
        <ele>-15.24</ele>
        <time>2016-04-12T08:42:54Z</time>
      </trkpt>
      <trkpt lat="43.42905" lon="6.51981">
        <ele>-15.72</ele>
        <time>2016-04-12T08:43:03Z</time>
      </trkpt>
      <trkpt lat="43.42906" lon="6.51987">
        <ele>-16.21</ele>
        <time>2016-04-12T08:43:08Z</time>
      </trkpt>
      <trkpt lat="43.42906" lon="6.51997">
        <ele>-16.69</ele>
        <time>2016-04-12T08:43:15Z</time>
      </trkpt>
      <trkpt lat="43.42908" lon="6.52017">
        <ele>-16.69</ele>
        <time>2016-04-12T08:43:30Z</time>
      </trkpt>
      <trkpt lat="43.42908" lon="6.52034">
        <ele>-17.17</ele>
        <time>2016-04-12T08:43:43Z</time>
      </trkpt>
      <trkpt lat="43.42908" lon="6.52046">
        <ele>-17.17</ele>
        <time>2016-04-12T08:43:53Z</time>
      </trkpt>
      <trkpt lat="43.42921" lon="6.52072">
        <ele>-17.17</ele>
        <time>2016-04-12T08:44:11Z</time>
      </trkpt>
      <trkpt lat="43.42924" lon="6.52091">
        <ele>-16.69</ele>
        <time>2016-04-12T08:44:23Z</time>
      </trkpt>
      <trkpt lat="43.42929" lon="6.52106">
        <ele>-16.69</ele>
        <time>2016-04-12T08:44:36Z</time>
      </trkpt>
      <trkpt lat="43.42933" lon="6.52121">
        <ele>-16.21</ele>
        <time>2016-04-12T08:44:50Z</time>
      </trkpt>
      <trkpt lat="43.42936" lon="6.52144">
        <ele>-16.21</ele>
        <time>2016-04-12T08:45:04Z</time>
      </trkpt>
      <trkpt lat="43.42941" lon="6.52169">
        <ele>-16.21</ele>
        <time>2016-04-12T08:45:21Z</time>
      </trkpt>
      <trkpt lat="43.42945" lon="6.52188">
        <ele>-16.21</ele>
        <time>2016-04-12T08:45:37Z</time>
      </trkpt>
      <trkpt lat="43.42945" lon="6.52207">
        <ele>-15.72</ele>
        <time>2016-04-12T08:45:51Z</time>
      </trkpt>
      <trkpt lat="43.42948" lon="6.5223">
        <ele>-15.72</ele>
        <time>2016-04-12T08:46:06Z</time>
      </trkpt>
      <trkpt lat="43.42948" lon="6.52234">
        <ele>-15.72</ele>
        <time>2016-04-12T08:46:09Z</time>
      </trkpt>
      <trkpt lat="43.42949" lon="6.52243">
        <ele>-15.24</ele>
        <time>2016-04-12T08:46:15Z</time>
      </trkpt>
      <trkpt lat="43.42943" lon="6.52262">
        <ele>-15.24</ele>
        <time>2016-04-12T08:46:31Z</time>
      </trkpt>
      <trkpt lat="43.42934" lon="6.5228">
        <ele>-14.76</ele>
        <time>2016-04-12T08:46:46Z</time>
      </trkpt>
      <trkpt lat="43.42929" lon="6.5229">
        <ele>-14.76</ele>
        <time>2016-04-12T08:46:55Z</time>
      </trkpt>
      <trkpt lat="43.42924" lon="6.52295">
        <ele>-14.76</ele>
        <time>2016-04-12T08:47:01Z</time>
      </trkpt>
      <trkpt lat="43.42919" lon="6.52301">
        <ele>-14.76</ele>
        <time>2016-04-12T08:47:06Z</time>
      </trkpt>
      <trkpt lat="43.42915" lon="6.5231">
        <ele>-14.76</ele>
        <time>2016-04-12T08:47:12Z</time>
      </trkpt>
      <trkpt lat="43.42909" lon="6.52317">
        <ele>-14.76</ele>
        <time>2016-04-12T08:47:18Z</time>
      </trkpt>
      <trkpt lat="43.42897" lon="6.52329">
        <ele>-14.76</ele>
        <time>2016-04-12T08:47:36Z</time>
      </trkpt>
      <trkpt lat="43.42888" lon="6.52326">
        <ele>-15.24</ele>
        <time>2016-04-12T08:47:49Z</time>
      </trkpt>
      <trkpt lat="43.42883" lon="6.52324">
        <ele>-15.24</ele>
        <time>2016-04-12T08:47:56Z</time>
      </trkpt>
      <trkpt lat="43.42879" lon="6.52322">
        <ele>-15.24</ele>
        <time>2016-04-12T08:48:02Z</time>
      </trkpt>
      <trkpt lat="43.42872" lon="6.52326">
        <ele>-15.24</ele>
        <time>2016-04-12T08:48:16Z</time>
      </trkpt>
      <trkpt lat="43.42862" lon="6.52336">
        <ele>-15.24</ele>
        <time>2016-04-12T08:48:32Z</time>
      </trkpt>
      <trkpt lat="43.42851" lon="6.52346">
        <ele>-14.76</ele>
        <time>2016-04-12T08:48:48Z</time>
      </trkpt>
      <trkpt lat="43.42842" lon="6.52356">
        <ele>-15.24</ele>
        <time>2016-04-12T08:49:04Z</time>
      </trkpt>
      <trkpt lat="43.42831" lon="6.52363">
        <ele>-11.4</ele>
        <time>2016-04-12T08:49:15Z</time>
      </trkpt>
      <trkpt lat="43.42824" lon="6.52367">
        <ele>-14.28</ele>
        <time>2016-04-12T08:49:21Z</time>
      </trkpt>
      <trkpt lat="43.42814" lon="6.52373">
        <ele>-13.8</ele>
        <time>2016-04-12T08:49:32Z</time>
      </trkpt>
      <trkpt lat="43.42808" lon="6.52378">
        <ele>-13.8</ele>
        <time>2016-04-12T08:49:41Z</time>
      </trkpt>
      <trkpt lat="43.42799" lon="6.52393">
        <ele>-13.32</ele>
        <time>2016-04-12T08:49:55Z</time>
      </trkpt>
      <trkpt lat="43.42791" lon="6.5241">
        <ele>-12.84</ele>
        <time>2016-04-12T08:50:09Z</time>
      </trkpt>
      <trkpt lat="43.42782" lon="6.5242">
        <ele>-12.36</ele>
        <time>2016-04-12T08:50:22Z</time>
      </trkpt>
      <trkpt lat="43.42772" lon="6.52424">
        <ele>-11.88</ele>
        <time>2016-04-12T08:50:34Z</time>
      </trkpt>
      <trkpt lat="43.4276" lon="6.52425">
        <ele>-11.4</ele>
        <time>2016-04-12T08:50:48Z</time>
      </trkpt>
      <trkpt lat="43.42751" lon="6.5243">
        <ele>-10.92</ele>
        <time>2016-04-12T08:50:58Z</time>
      </trkpt>
      <trkpt lat="43.42735" lon="6.52433">
        <ele>-10.44</ele>
        <time>2016-04-12T08:51:14Z</time>
      </trkpt>
      <trkpt lat="43.42725" lon="6.52431">
        <ele>-9.96</ele>
        <time>2016-04-12T08:51:27Z</time>
      </trkpt>
      <trkpt lat="43.42716" lon="6.52432">
        <ele>-9.48</ele>
        <time>2016-04-12T08:51:36Z</time>
      </trkpt>
      <trkpt lat="43.42702" lon="6.52438">
        <ele>-9</ele>
        <time>2016-04-12T08:51:49Z</time>
      </trkpt>
      <trkpt lat="43.42689" lon="6.52445">
        <ele>-8.03</ele>
        <time>2016-04-12T08:52:01Z</time>
      </trkpt>
      <trkpt lat="43.42682" lon="6.52452">
        <ele>-8.51</ele>
        <time>2016-04-12T08:52:13Z</time>
      </trkpt>
      <trkpt lat="43.42682" lon="6.52452">
        <ele>-8.51</ele>
        <time>2016-04-12T08:52:17Z</time>
      </trkpt>
      <trkpt lat="43.4268" lon="6.52455">
        <ele>-8.03</ele>
        <time>2016-04-12T08:52:21Z</time>
      </trkpt>
      <trkpt lat="43.42681" lon="6.52461">
        <ele>-8.03</ele>
        <time>2016-04-12T08:52:26Z</time>
      </trkpt>
      <trkpt lat="43.42685" lon="6.52463">
        <ele>-7.55</ele>
        <time>2016-04-12T08:52:42Z</time>
      </trkpt>
      <trkpt lat="43.42684" lon="6.52461">
        <ele>-6.59</ele>
        <time>2016-04-12T08:53:17Z</time>
      </trkpt>
      <trkpt lat="43.42683" lon="6.52463">
        <ele>-6.11</ele>
        <time>2016-04-12T08:53:33Z</time>
      </trkpt>
      <trkpt lat="43.42682" lon="6.52462">
        <ele>-5.63</ele>
        <time>2016-04-12T08:53:54Z</time>
      </trkpt>
      <trkpt lat="43.42681" lon="6.52462">
        <ele>-5.15</ele>
        <time>2016-04-12T08:54:17Z</time>
      </trkpt>
      <trkpt lat="43.42681" lon="6.52462">
        <ele>-5.15</ele>
        <time>2016-04-12T08:54:27Z</time>
      </trkpt>
      <trkpt lat="43.42683" lon="6.52465">
        <ele>-4.19</ele>
        <time>2016-04-12T08:54:40Z</time>
      </trkpt>
      <trkpt lat="43.42682" lon="6.52464">
        <ele>-4.67</ele>
        <time>2016-04-12T08:55:04Z</time>
      </trkpt>
      <trkpt lat="43.42682" lon="6.52464">
        <ele>-4.19</ele>
        <time>2016-04-12T08:55:32Z</time>
      </trkpt>
      <trkpt lat="43.42681" lon="6.52464">
        <ele>-4.19</ele>
        <time>2016-04-12T08:55:54Z</time>
      </trkpt>
      <trkpt lat="43.42681" lon="6.52464">
        <ele>-3.71</ele>
        <time>2016-04-12T08:56:12Z</time>
      </trkpt>
      <trkpt lat="43.4268" lon="6.52474">
        <ele>-3.23</ele>
        <time>2016-04-12T08:56:22Z</time>
      </trkpt>
      <trkpt lat="43.4268" lon="6.52477">
        <ele>-3.23</ele>
        <time>2016-04-12T08:56:24Z</time>
      </trkpt>
      <trkpt lat="43.42676" lon="6.52493">
        <ele>-2.27</ele>
        <time>2016-04-12T08:56:37Z</time>
      </trkpt>
      <trkpt lat="43.42672" lon="6.52499">
        <ele>-1.79</ele>
        <time>2016-04-12T08:56:43Z</time>
      </trkpt>
      <trkpt lat="43.42664" lon="6.52514">
        <ele>-0.82</ele>
        <time>2016-04-12T08:56:57Z</time>
      </trkpt>
      <trkpt lat="43.42651" lon="6.5253">
        <ele>0.62</ele>
        <time>2016-04-12T08:57:14Z</time>
      </trkpt>
      <trkpt lat="43.4264" lon="6.52542">
        <ele>1.58</ele>
        <time>2016-04-12T08:57:29Z</time>
      </trkpt>
      <trkpt lat="43.42627" lon="6.52548">
        <ele>2.06</ele>
        <time>2016-04-12T08:57:41Z</time>
      </trkpt>
      <trkpt lat="43.42617" lon="6.52555">
        <ele>3.02</ele>
        <time>2016-04-12T08:57:52Z</time>
      </trkpt>
      <trkpt lat="43.42607" lon="6.5256">
        <ele>3.5</ele>
        <time>2016-04-12T08:58:04Z</time>
      </trkpt>
      <trkpt lat="43.42593" lon="6.52556">
        <ele>3.98</ele>
        <time>2016-04-12T08:58:20Z</time>
      </trkpt>
      <trkpt lat="43.42576" lon="6.52549">
        <ele>3.98</ele>
        <time>2016-04-12T08:58:36Z</time>
      </trkpt>
      <trkpt lat="43.42567" lon="6.52544">
        <ele>3.98</ele>
        <time>2016-04-12T08:58:48Z</time>
      </trkpt>
      <trkpt lat="43.42566" lon="6.52544">
        <ele>4.46</ele>
        <time>2016-04-12T08:58:49Z</time>
      </trkpt>
      <trkpt lat="43.42561" lon="6.52542">
        <ele>3.98</ele>
        <time>2016-04-12T08:58:53Z</time>
      </trkpt>
      <trkpt lat="43.4255" lon="6.5254">
        <ele>4.94</ele>
        <time>2016-04-12T08:59:09Z</time>
      </trkpt>
      <trkpt lat="43.4255" lon="6.5254">
        <ele>4.94</ele>
        <time>2016-04-12T08:59:11Z</time>
      </trkpt>
      <trkpt lat="43.42541" lon="6.52533">
        <ele>5.91</ele>
        <time>2016-04-12T08:59:23Z</time>
      </trkpt>
      <trkpt lat="43.4254" lon="6.52533">
        <ele>5.91</ele>
        <time>2016-04-12T08:59:25Z</time>
      </trkpt>
      <trkpt lat="43.42522" lon="6.52534">
        <ele>6.39</ele>
        <time>2016-04-12T08:59:40Z</time>
      </trkpt>
      <trkpt lat="43.42514" lon="6.52535">
        <ele>6.39</ele>
        <time>2016-04-12T08:59:49Z</time>
      </trkpt>
      <trkpt lat="43.42509" lon="6.52535">
        <ele>6.39</ele>
        <time>2016-04-12T08:59:53Z</time>
      </trkpt>
      <trkpt lat="43.42501" lon="6.52537">
        <ele>6.87</ele>
        <time>2016-04-12T08:59:59Z</time>
      </trkpt>
      <trkpt lat="43.42498" lon="6.52539">
        <ele>6.87</ele>
        <time>2016-04-12T09:00:03Z</time>
      </trkpt>
      <trkpt lat="43.42492" lon="6.52544">
        <ele>7.35</ele>
        <time>2016-04-12T09:00:09Z</time>
      </trkpt>
      <trkpt lat="43.42486" lon="6.52547">
        <ele>7.35</ele>
        <time>2016-04-12T09:00:14Z</time>
      </trkpt>
      <trkpt lat="43.42477" lon="6.52553">
        <ele>7.83</ele>
        <time>2016-04-12T09:00:27Z</time>
      </trkpt>
      <trkpt lat="43.42468" lon="6.52558">
        <ele>8.31</ele>
        <time>2016-04-12T09:00:37Z</time>
      </trkpt>
      <trkpt lat="43.42459" lon="6.52565">
        <ele>8.79</ele>
        <time>2016-04-12T09:00:49Z</time>
      </trkpt>
      <trkpt lat="43.42458" lon="6.52565">
        <ele>9.27</ele>
        <time>2016-04-12T09:01:05Z</time>
      </trkpt>
      <trkpt lat="43.42458" lon="6.52567">
        <ele>9.75</ele>
        <time>2016-04-12T09:01:26Z</time>
      </trkpt>
      <trkpt lat="43.42447" lon="6.52569">
        <ele>10.71</ele>
        <time>2016-04-12T09:01:44Z</time>
      </trkpt>
      <trkpt lat="43.42445" lon="6.52569">
        <ele>10.71</ele>
        <time>2016-04-12T09:01:46Z</time>
      </trkpt>
      <trkpt lat="43.42437" lon="6.52568">
        <ele>11.67</ele>
        <time>2016-04-12T09:01:59Z</time>
      </trkpt>
      <trkpt lat="43.42429" lon="6.52561">
        <ele>13.12</ele>
        <time>2016-04-12T09:02:14Z</time>
      </trkpt>
      <trkpt lat="43.42425" lon="6.52559">
        <ele>14.08</ele>
        <time>2016-04-12T09:02:26Z</time>
      </trkpt>
      <trkpt lat="43.42416" lon="6.52553">
        <ele>15.04</ele>
        <time>2016-04-12T09:02:38Z</time>
      </trkpt>
      <trkpt lat="43.42404" lon="6.52545">
        <ele>16</ele>
        <time>2016-04-12T09:02:52Z</time>
      </trkpt>
      <trkpt lat="43.42389" lon="6.52533">
        <ele>16.48</ele>
        <time>2016-04-12T09:03:07Z</time>
      </trkpt>
      <trkpt lat="43.42388" lon="6.52531">
        <ele>16.48</ele>
        <time>2016-04-12T09:03:09Z</time>
      </trkpt>
      <trkpt lat="43.42386" lon="6.52526">
        <ele>16.48</ele>
        <time>2016-04-12T09:03:13Z</time>
      </trkpt>
      <trkpt lat="43.42386" lon="6.52523">
        <ele>16.48</ele>
        <time>2016-04-12T09:03:15Z</time>
      </trkpt>
      <trkpt lat="43.42381" lon="6.52517">
        <ele>17.44</ele>
        <time>2016-04-12T09:03:28Z</time>
      </trkpt>
      <trkpt lat="43.4238" lon="6.52515">
        <ele>17.44</ele>
        <time>2016-04-12T09:03:42Z</time>
      </trkpt>
      <trkpt lat="43.42378" lon="6.52505">
        <ele>17.44</ele>
        <time>2016-04-12T09:03:56Z</time>
      </trkpt>
      <trkpt lat="43.42378" lon="6.52507">
        <ele>17.44</ele>
        <time>2016-04-12T09:04:08Z</time>
      </trkpt>
      <trkpt lat="43.42378" lon="6.52495">
        <ele>17.92</ele>
        <time>2016-04-12T09:04:20Z</time>
      </trkpt>
      <trkpt lat="43.42378" lon="6.52486">
        <ele>17.92</ele>
        <time>2016-04-12T09:04:29Z</time>
      </trkpt>
      <trkpt lat="43.42378" lon="6.5248">
        <ele>18.4</ele>
        <time>2016-04-12T09:04:33Z</time>
      </trkpt>
      <trkpt lat="43.42378" lon="6.52466">
        <ele>19.36</ele>
        <time>2016-04-12T09:04:45Z</time>
      </trkpt>
      <trkpt lat="43.42376" lon="6.5245">
        <ele>20.32</ele>
        <time>2016-04-12T09:04:58Z</time>
      </trkpt>
      <trkpt lat="43.42376" lon="6.52448">
        <ele>20.32</ele>
        <time>2016-04-12T09:04:59Z</time>
      </trkpt>
      <trkpt lat="43.42375" lon="6.52441">
        <ele>20.81</ele>
        <time>2016-04-12T09:05:06Z</time>
      </trkpt>
      <trkpt lat="43.42372" lon="6.52435">
        <ele>20.81</ele>
        <time>2016-04-12T09:05:12Z</time>
      </trkpt>
      <trkpt lat="43.42366" lon="6.52421">
        <ele>21.29</ele>
        <time>2016-04-12T09:05:25Z</time>
      </trkpt>
      <trkpt lat="43.42363" lon="6.52419">
        <ele>21.29</ele>
        <time>2016-04-12T09:05:29Z</time>
      </trkpt>
      <trkpt lat="43.42355" lon="6.52409">
        <ele>21.77</ele>
        <time>2016-04-12T09:05:41Z</time>
      </trkpt>
      <trkpt lat="43.42351" lon="6.52406">
        <ele>21.77</ele>
        <time>2016-04-12T09:05:46Z</time>
      </trkpt>
      <trkpt lat="43.42342" lon="6.52395">
        <ele>22.73</ele>
        <time>2016-04-12T09:06:00Z</time>
      </trkpt>
      <trkpt lat="43.42339" lon="6.52392">
        <ele>22.73</ele>
        <time>2016-04-12T09:06:03Z</time>
      </trkpt>
      <trkpt lat="43.42333" lon="6.52387">
        <ele>23.69</ele>
        <time>2016-04-12T09:06:12Z</time>
      </trkpt>
      <trkpt lat="43.42321" lon="6.52377">
        <ele>25.13</ele>
        <time>2016-04-12T09:06:27Z</time>
      </trkpt>
      <trkpt lat="43.42317" lon="6.52376">
        <ele>25.13</ele>
        <time>2016-04-12T09:06:31Z</time>
      </trkpt>
      <trkpt lat="43.42308" lon="6.52369">
        <ele>25.61</ele>
        <time>2016-04-12T09:06:43Z</time>
      </trkpt>
      <trkpt lat="43.42296" lon="6.52365">
        <ele>26.09</ele>
        <time>2016-04-12T09:06:55Z</time>
      </trkpt>
      <trkpt lat="43.42283" lon="6.52361">
        <ele>26.57</ele>
        <time>2016-04-12T09:07:11Z</time>
      </trkpt>
      <trkpt lat="43.42272" lon="6.52358">
        <ele>27.53</ele>
        <time>2016-04-12T09:07:25Z</time>
      </trkpt>
      <trkpt lat="43.42272" lon="6.52359">
        <ele>28.02</ele>
        <time>2016-04-12T09:07:35Z</time>
      </trkpt>
      <trkpt lat="43.42272" lon="6.5236">
        <ele>28.02</ele>
        <time>2016-04-12T09:07:55Z</time>
      </trkpt>
      <trkpt lat="43.42268" lon="6.52355">
        <ele>28.5</ele>
        <time>2016-04-12T09:08:18Z</time>
      </trkpt>
      <trkpt lat="43.42264" lon="6.52355">
        <ele>28.98</ele>
        <time>2016-04-12T09:08:28Z</time>
      </trkpt>
      <trkpt lat="43.42259" lon="6.52351">
        <ele>28.98</ele>
        <time>2016-04-12T09:08:39Z</time>
      </trkpt>
      <trkpt lat="43.4225" lon="6.52344">
        <ele>29.94</ele>
        <time>2016-04-12T09:08:53Z</time>
      </trkpt>
      <trkpt lat="43.42242" lon="6.52338">
        <ele>30.42</ele>
        <time>2016-04-12T09:09:05Z</time>
      </trkpt>
      <trkpt lat="43.42232" lon="6.52333">
        <ele>30.42</ele>
        <time>2016-04-12T09:09:16Z</time>
      </trkpt>
      <trkpt lat="43.42221" lon="6.52327">
        <ele>31.38</ele>
        <time>2016-04-12T09:09:28Z</time>
      </trkpt>
      <trkpt lat="43.42216" lon="6.52326">
        <ele>31.86</ele>
        <time>2016-04-12T09:09:32Z</time>
      </trkpt>
      <trkpt lat="43.42203" lon="6.52327">
        <ele>32.34</ele>
        <time>2016-04-12T09:09:45Z</time>
      </trkpt>
      <trkpt lat="43.42194" lon="6.52332">
        <ele>32.82</ele>
        <time>2016-04-12T09:09:53Z</time>
      </trkpt>
      <trkpt lat="43.42188" lon="6.52335">
        <ele>32.82</ele>
        <time>2016-04-12T09:10:00Z</time>
      </trkpt>
      <trkpt lat="43.42184" lon="6.52338">
        <ele>33.78</ele>
        <time>2016-04-12T09:10:05Z</time>
      </trkpt>
      <trkpt lat="43.42179" lon="6.52339">
        <ele>34.26</ele>
        <time>2016-04-12T09:10:10Z</time>
      </trkpt>
      <trkpt lat="43.42174" lon="6.5234">
        <ele>34.74</ele>
        <time>2016-04-12T09:10:17Z</time>
      </trkpt>
      <trkpt lat="43.42162" lon="6.52329">
        <ele>35.71</ele>
        <time>2016-04-12T09:10:33Z</time>
      </trkpt>
      <trkpt lat="43.42159" lon="6.52328">
        <ele>35.71</ele>
        <time>2016-04-12T09:10:40Z</time>
      </trkpt>
      <trkpt lat="43.42158" lon="6.52322">
        <ele>36.19</ele>
        <time>2016-04-12T09:10:44Z</time>
      </trkpt>
      <trkpt lat="43.42152" lon="6.52315">
        <ele>36.19</ele>
        <time>2016-04-12T09:10:52Z</time>
      </trkpt>
      <trkpt lat="43.42144" lon="6.52308">
        <ele>36.67</ele>
        <time>2016-04-12T09:11:01Z</time>
      </trkpt>
      <trkpt lat="43.42141" lon="6.52304">
        <ele>37.15</ele>
        <time>2016-04-12T09:11:05Z</time>
      </trkpt>
      <trkpt lat="43.42134" lon="6.52281">
        <ele>38.11</ele>
        <time>2016-04-12T09:11:22Z</time>
      </trkpt>
      <trkpt lat="43.42131" lon="6.52263">
        <ele>40.03</ele>
        <time>2016-04-12T09:11:37Z</time>
      </trkpt>
      <trkpt lat="43.42127" lon="6.5225">
        <ele>43.88</ele>
        <time>2016-04-12T09:11:47Z</time>
      </trkpt>
      <trkpt lat="43.42126" lon="6.52249">
        <ele>40.51</ele>
        <time>2016-04-12T09:11:48Z</time>
      </trkpt>
      <trkpt lat="43.42124" lon="6.52245">
        <ele>40.51</ele>
        <time>2016-04-12T09:11:52Z</time>
      </trkpt>
      <trkpt lat="43.4212" lon="6.52238">
        <ele>40.03</ele>
        <time>2016-04-12T09:12:02Z</time>
      </trkpt>
      <trkpt lat="43.42117" lon="6.52233">
        <ele>39.55</ele>
        <time>2016-04-12T09:12:14Z</time>
      </trkpt>
      <trkpt lat="43.42115" lon="6.52227">
        <ele>40.51</ele>
        <time>2016-04-12T09:12:30Z</time>
      </trkpt>
      <trkpt lat="43.42113" lon="6.52226">
        <ele>41.47</ele>
        <time>2016-04-12T09:12:34Z</time>
      </trkpt>
      <trkpt lat="43.42108" lon="6.52227">
        <ele>43.4</ele>
        <time>2016-04-12T09:12:48Z</time>
      </trkpt>
      <trkpt lat="43.42106" lon="6.52227">
        <ele>44.36</ele>
        <time>2016-04-12T09:12:54Z</time>
      </trkpt>
      <trkpt lat="43.42096" lon="6.52225">
        <ele>45.8</ele>
        <time>2016-04-12T09:13:06Z</time>
      </trkpt>
      <trkpt lat="43.4209" lon="6.52218">
        <ele>47.24</ele>
        <time>2016-04-12T09:13:17Z</time>
      </trkpt>
      <trkpt lat="43.42078" lon="6.52212">
        <ele>48.68</ele>
        <time>2016-04-12T09:13:31Z</time>
      </trkpt>
      <trkpt lat="43.42069" lon="6.52212">
        <ele>49.16</ele>
        <time>2016-04-12T09:13:44Z</time>
      </trkpt>
      <trkpt lat="43.42069" lon="6.5221">
        <ele>49.16</ele>
        <time>2016-04-12T09:13:48Z</time>
      </trkpt>
      <trkpt lat="43.42065" lon="6.52207">
        <ele>49.16</ele>
        <time>2016-04-12T09:13:53Z</time>
      </trkpt>
      <trkpt lat="43.42057" lon="6.52199">
        <ele>49.16</ele>
        <time>2016-04-12T09:14:05Z</time>
      </trkpt>
      <trkpt lat="43.42051" lon="6.52193">
        <ele>48.68</ele>
        <time>2016-04-12T09:14:13Z</time>
      </trkpt>
      <trkpt lat="43.42042" lon="6.52185">
        <ele>48.2</ele>
        <time>2016-04-12T09:14:25Z</time>
      </trkpt>
      <trkpt lat="43.42039" lon="6.5218">
        <ele>47.72</ele>
        <time>2016-04-12T09:14:31Z</time>
      </trkpt>
      <trkpt lat="43.42033" lon="6.52173">
        <ele>47.72</ele>
        <time>2016-04-12T09:14:40Z</time>
      </trkpt>
      <trkpt lat="43.42024" lon="6.52166">
        <ele>47.72</ele>
        <time>2016-04-12T09:14:52Z</time>
      </trkpt>
      <trkpt lat="43.42023" lon="6.52165">
        <ele>47.72</ele>
        <time>2016-04-12T09:14:54Z</time>
      </trkpt>
      <trkpt lat="43.42015" lon="6.52156">
        <ele>48.2</ele>
        <time>2016-04-12T09:15:09Z</time>
      </trkpt>
      <trkpt lat="43.42009" lon="6.52148">
        <ele>49.16</ele>
        <time>2016-04-12T09:15:20Z</time>
      </trkpt>
      <trkpt lat="43.41996" lon="6.52149">
        <ele>49.16</ele>
        <time>2016-04-12T09:15:32Z</time>
      </trkpt>
      <trkpt lat="43.41993" lon="6.5215">
        <ele>49.65</ele>
        <time>2016-04-12T09:15:35Z</time>
      </trkpt>
      <trkpt lat="43.41989" lon="6.52152">
        <ele>50.13</ele>
        <time>2016-04-12T09:15:39Z</time>
      </trkpt>
      <trkpt lat="43.41987" lon="6.52154">
        <ele>50.13</ele>
        <time>2016-04-12T09:15:42Z</time>
      </trkpt>
      <trkpt lat="43.41975" lon="6.52164">
        <ele>51.57</ele>
        <time>2016-04-12T09:15:57Z</time>
      </trkpt>
      <trkpt lat="43.4197" lon="6.52167">
        <ele>52.05</ele>
        <time>2016-04-12T09:16:03Z</time>
      </trkpt>
      <trkpt lat="43.41959" lon="6.52178">
        <ele>53.49</ele>
        <time>2016-04-12T09:16:18Z</time>
      </trkpt>
      <trkpt lat="43.41956" lon="6.52181">
        <ele>53.49</ele>
        <time>2016-04-12T09:16:22Z</time>
      </trkpt>
      <trkpt lat="43.41952" lon="6.52183">
        <ele>53.49</ele>
        <time>2016-04-12T09:16:26Z</time>
      </trkpt>
      <trkpt lat="43.41942" lon="6.52189">
        <ele>54.45</ele>
        <time>2016-04-12T09:16:40Z</time>
      </trkpt>
      <trkpt lat="43.4193" lon="6.52189">
        <ele>54.93</ele>
        <time>2016-04-12T09:16:55Z</time>
      </trkpt>
      <trkpt lat="43.41923" lon="6.52185">
        <ele>55.41</ele>
        <time>2016-04-12T09:17:04Z</time>
      </trkpt>
      <trkpt lat="43.41915" lon="6.52177">
        <ele>56.37</ele>
        <time>2016-04-12T09:17:15Z</time>
      </trkpt>
      <trkpt lat="43.41905" lon="6.52169">
        <ele>57.82</ele>
        <time>2016-04-12T09:17:28Z</time>
      </trkpt>
      <trkpt lat="43.41892" lon="6.52165">
        <ele>59.26</ele>
        <time>2016-04-12T09:17:41Z</time>
      </trkpt>
      <trkpt lat="43.41879" lon="6.52164">
        <ele>59.74</ele>
        <time>2016-04-12T09:17:56Z</time>
      </trkpt>
      <trkpt lat="43.41868" lon="6.52168">
        <ele>60.7</ele>
        <time>2016-04-12T09:18:09Z</time>
      </trkpt>
      <trkpt lat="43.41867" lon="6.52168">
        <ele>60.7</ele>
        <time>2016-04-12T09:18:10Z</time>
      </trkpt>
      <trkpt lat="43.41856" lon="6.52169">
        <ele>61.66</ele>
        <time>2016-04-12T09:18:22Z</time>
      </trkpt>
      <trkpt lat="43.41843" lon="6.52171">
        <ele>62.62</ele>
        <time>2016-04-12T09:18:35Z</time>
      </trkpt>
      <trkpt lat="43.4184" lon="6.52171">
        <ele>62.62</ele>
        <time>2016-04-12T09:18:39Z</time>
      </trkpt>
      <trkpt lat="43.41832" lon="6.5217">
        <ele>63.58</ele>
        <time>2016-04-12T09:18:48Z</time>
      </trkpt>
      <trkpt lat="43.41823" lon="6.5217">
        <ele>64.55</ele>
        <time>2016-04-12T09:19:00Z</time>
      </trkpt>
      <trkpt lat="43.41815" lon="6.52171">
        <ele>65.51</ele>
        <time>2016-04-12T09:19:09Z</time>
      </trkpt>
      <trkpt lat="43.41812" lon="6.5217">
        <ele>65.99</ele>
        <time>2016-04-12T09:19:12Z</time>
      </trkpt>
      <trkpt lat="43.418" lon="6.52167">
        <ele>67.43</ele>
        <time>2016-04-12T09:19:23Z</time>
      </trkpt>
      <trkpt lat="43.41796" lon="6.52166">
        <ele>67.43</ele>
        <time>2016-04-12T09:19:28Z</time>
      </trkpt>
      <trkpt lat="43.41789" lon="6.52164">
        <ele>67.91</ele>
        <time>2016-04-12T09:19:41Z</time>
      </trkpt>
      <trkpt lat="43.41791" lon="6.52163">
        <ele>67.91</ele>
        <time>2016-04-12T09:19:50Z</time>
      </trkpt>
      <trkpt lat="43.41793" lon="6.52164">
        <ele>67.43</ele>
        <time>2016-04-12T09:19:52Z</time>
      </trkpt>
      <trkpt lat="43.41794" lon="6.52166">
        <ele>67.43</ele>
        <time>2016-04-12T09:20:04Z</time>
      </trkpt>
      <trkpt lat="43.41794" lon="6.52166">
        <ele>67.43</ele>
        <time>2016-04-12T09:20:05Z</time>
      </trkpt>
      <trkpt lat="43.41794" lon="6.52164">
        <ele>67.91</ele>
        <time>2016-04-12T09:20:15Z</time>
      </trkpt>
      <trkpt lat="43.41794" lon="6.52165">
        <ele>67.43</ele>
        <time>2016-04-12T09:20:17Z</time>
      </trkpt>
      <trkpt lat="43.41791" lon="6.52164">
        <ele>67.91</ele>
        <time>2016-04-12T09:20:27Z</time>
      </trkpt>
      <trkpt lat="43.4179" lon="6.52165">
        <ele>67.91</ele>
        <time>2016-04-12T09:20:39Z</time>
      </trkpt>
      <trkpt lat="43.4179" lon="6.52165">
        <ele>67.43</ele>
        <time>2016-04-12T09:20:58Z</time>
      </trkpt>
      <trkpt lat="43.4179" lon="6.52166">
        <ele>64.55</ele>
        <time>2016-04-12T09:21:01Z</time>
      </trkpt>
      <trkpt lat="43.4179" lon="6.52166">
        <ele>71.27</ele>
        <time>2016-04-12T09:21:02Z</time>
      </trkpt>
      <trkpt lat="43.4179" lon="6.52166">
        <ele>68.39</ele>
        <time>2016-04-12T09:21:04Z</time>
      </trkpt>
      <trkpt lat="43.4179" lon="6.52166">
        <ele>68.39</ele>
        <time>2016-04-12T09:21:05Z</time>
      </trkpt>
      <trkpt lat="43.41788" lon="6.52166">
        <ele>68.39</ele>
        <time>2016-04-12T09:21:28Z</time>
      </trkpt>
      <trkpt lat="43.41788" lon="6.52166">
        <ele>68.39</ele>
        <time>2016-04-12T09:21:52Z</time>
      </trkpt>
      <trkpt lat="43.41789" lon="6.52165">
        <ele>68.39</ele>
        <time>2016-04-12T09:22:18Z</time>
      </trkpt>
      <trkpt lat="43.41788" lon="6.52167">
        <ele>68.39</ele>
        <time>2016-04-12T09:22:41Z</time>
      </trkpt>
      <trkpt lat="43.41788" lon="6.52167">
        <ele>68.87</ele>
        <time>2016-04-12T09:22:59Z</time>
      </trkpt>
      <trkpt lat="43.41788" lon="6.52167">
        <ele>68.87</ele>
        <time>2016-04-12T09:23:27Z</time>
      </trkpt>
      <trkpt lat="43.41786" lon="6.52166">
        <ele>68.87</ele>
        <time>2016-04-12T09:23:35Z</time>
      </trkpt>
      <trkpt lat="43.41784" lon="6.52164">
        <ele>68.87</ele>
        <time>2016-04-12T09:23:38Z</time>
      </trkpt>
      <trkpt lat="43.41769" lon="6.5216">
        <ele>69.35</ele>
        <time>2016-04-12T09:23:52Z</time>
      </trkpt>
      <trkpt lat="43.41761" lon="6.52158">
        <ele>69.35</ele>
        <time>2016-04-12T09:24:05Z</time>
      </trkpt>
      <trkpt lat="43.41755" lon="6.52159">
        <ele>69.35</ele>
        <time>2016-04-12T09:24:15Z</time>
      </trkpt>
      <trkpt lat="43.4175" lon="6.52159">
        <ele>69.35</ele>
        <time>2016-04-12T09:24:27Z</time>
      </trkpt>
      <trkpt lat="43.41744" lon="6.5216">
        <ele>69.83</ele>
        <time>2016-04-12T09:24:39Z</time>
      </trkpt>
      <trkpt lat="43.41742" lon="6.5216">
        <ele>69.83</ele>
        <time>2016-04-12T09:24:52Z</time>
      </trkpt>
      <trkpt lat="43.41728" lon="6.52161">
        <ele>69.83</ele>
        <time>2016-04-12T09:25:06Z</time>
      </trkpt>
      <trkpt lat="43.4172" lon="6.52164">
        <ele>70.31</ele>
        <time>2016-04-12T09:25:15Z</time>
      </trkpt>
      <trkpt lat="43.41717" lon="6.52167">
        <ele>70.31</ele>
        <time>2016-04-12T09:25:18Z</time>
      </trkpt>
      <trkpt lat="43.41707" lon="6.52173">
        <ele>71.27</ele>
        <time>2016-04-12T09:25:31Z</time>
      </trkpt>
      <trkpt lat="43.41697" lon="6.52176">
        <ele>72.24</ele>
        <time>2016-04-12T09:25:42Z</time>
      </trkpt>
      <trkpt lat="43.41694" lon="6.52177">
        <ele>72.72</ele>
        <time>2016-04-12T09:25:46Z</time>
      </trkpt>
      <trkpt lat="43.41684" lon="6.5218">
        <ele>73.68</ele>
        <time>2016-04-12T09:25:58Z</time>
      </trkpt>
      <trkpt lat="43.41682" lon="6.52179">
        <ele>74.16</ele>
        <time>2016-04-12T09:26:00Z</time>
      </trkpt>
      <trkpt lat="43.41673" lon="6.52176">
        <ele>76.08</ele>
        <time>2016-04-12T09:26:12Z</time>
      </trkpt>
      <trkpt lat="43.41672" lon="6.52175">
        <ele>76.08</ele>
        <time>2016-04-12T09:26:18Z</time>
      </trkpt>
      <trkpt lat="43.41669" lon="6.5217">
        <ele>76.56</ele>
        <time>2016-04-12T09:26:22Z</time>
      </trkpt>
      <trkpt lat="43.41666" lon="6.52154">
        <ele>78</ele>
        <time>2016-04-12T09:26:33Z</time>
      </trkpt>
      <trkpt lat="43.41665" lon="6.52149">
        <ele>78.48</ele>
        <time>2016-04-12T09:26:37Z</time>
      </trkpt>
      <trkpt lat="43.41661" lon="6.52134">
        <ele>79.93</ele>
        <time>2016-04-12T09:26:49Z</time>
      </trkpt>
      <trkpt lat="43.41661" lon="6.52125">
        <ele>80.89</ele>
        <time>2016-04-12T09:27:00Z</time>
      </trkpt>
      <trkpt lat="43.41661" lon="6.52114">
        <ele>81.85</ele>
        <time>2016-04-12T09:27:11Z</time>
      </trkpt>
      <trkpt lat="43.41661" lon="6.52114">
        <ele>81.85</ele>
        <time>2016-04-12T09:27:13Z</time>
      </trkpt>
      <trkpt lat="43.41661" lon="6.52111">
        <ele>81.85</ele>
        <time>2016-04-12T09:27:15Z</time>
      </trkpt>
      <trkpt lat="43.41665" lon="6.521">
        <ele>83.29</ele>
        <time>2016-04-12T09:27:28Z</time>
      </trkpt>
      <trkpt lat="43.41669" lon="6.52088">
        <ele>83.77</ele>
        <time>2016-04-12T09:27:39Z</time>
      </trkpt>
      <trkpt lat="43.41672" lon="6.52081">
        <ele>83.77</ele>
        <time>2016-04-12T09:27:46Z</time>
      </trkpt>
      <trkpt lat="43.41676" lon="6.52077">
        <ele>84.73</ele>
        <time>2016-04-12T09:28:01Z</time>
      </trkpt>
      <trkpt lat="43.41678" lon="6.52083">
        <ele>85.69</ele>
        <time>2016-04-12T09:28:15Z</time>
      </trkpt>
      <trkpt lat="43.41676" lon="6.52086">
        <ele>85.69</ele>
        <time>2016-04-12T09:28:19Z</time>
      </trkpt>
      <trkpt lat="43.41676" lon="6.52088">
        <ele>86.18</ele>
        <time>2016-04-12T09:28:21Z</time>
      </trkpt>
      <trkpt lat="43.41674" lon="6.52106">
        <ele>87.62</ele>
        <time>2016-04-12T09:28:33Z</time>
      </trkpt>
      <trkpt lat="43.41675" lon="6.52108">
        <ele>88.1</ele>
        <time>2016-04-12T09:28:34Z</time>
      </trkpt>
      <trkpt lat="43.41688" lon="6.52128">
        <ele>88.58</ele>
        <time>2016-04-12T09:28:48Z</time>
      </trkpt>
      <trkpt lat="43.41702" lon="6.52133">
        <ele>90.02</ele>
        <time>2016-04-12T09:29:03Z</time>
      </trkpt>
      <trkpt lat="43.41706" lon="6.5213">
        <ele>90.5</ele>
        <time>2016-04-12T09:29:15Z</time>
      </trkpt>
      <trkpt lat="43.41715" lon="6.52115">
        <ele>90.98</ele>
        <time>2016-04-12T09:29:28Z</time>
      </trkpt>
      <trkpt lat="43.41719" lon="6.52102">
        <ele>91.94</ele>
        <time>2016-04-12T09:29:40Z</time>
      </trkpt>
      <trkpt lat="43.41719" lon="6.52093">
        <ele>92.42</ele>
        <time>2016-04-12T09:29:45Z</time>
      </trkpt>
      <trkpt lat="43.41723" lon="6.52076">
        <ele>93.87</ele>
        <time>2016-04-12T09:29:58Z</time>
      </trkpt>
      <trkpt lat="43.41724" lon="6.52073">
        <ele>94.35</ele>
        <time>2016-04-12T09:30:01Z</time>
      </trkpt>
      <trkpt lat="43.41725" lon="6.52071">
        <ele>94.35</ele>
        <time>2016-04-12T09:30:03Z</time>
      </trkpt>
      <trkpt lat="43.41726" lon="6.52068">
        <ele>94.35</ele>
        <time>2016-04-12T09:30:05Z</time>
      </trkpt>
      <trkpt lat="43.41727" lon="6.52064">
        <ele>94.35</ele>
        <time>2016-04-12T09:30:08Z</time>
      </trkpt>
      <trkpt lat="43.41731" lon="6.5205">
        <ele>95.79</ele>
        <time>2016-04-12T09:30:19Z</time>
      </trkpt>
      <trkpt lat="43.41736" lon="6.52038">
        <ele>97.23</ele>
        <time>2016-04-12T09:30:30Z</time>
      </trkpt>
      <trkpt lat="43.41746" lon="6.52027">
        <ele>98.19</ele>
        <time>2016-04-12T09:30:43Z</time>
      </trkpt>
      <trkpt lat="43.41747" lon="6.52026">
        <ele>98.19</ele>
        <time>2016-04-12T09:30:44Z</time>
      </trkpt>
      <trkpt lat="43.41754" lon="6.52019">
        <ele>98.67</ele>
        <time>2016-04-12T09:30:52Z</time>
      </trkpt>
      <trkpt lat="43.41765" lon="6.52019">
        <ele>98.67</ele>
        <time>2016-04-12T09:31:04Z</time>
      </trkpt>
      <trkpt lat="43.41768" lon="6.52021">
        <ele>98.67</ele>
        <time>2016-04-12T09:31:18Z</time>
      </trkpt>
      <trkpt lat="43.41768" lon="6.5202">
        <ele>98.67</ele>
        <time>2016-04-12T09:31:41Z</time>
      </trkpt>
      <trkpt lat="43.41768" lon="6.52019">
        <ele>99.15</ele>
        <time>2016-04-12T09:32:09Z</time>
      </trkpt>
      <trkpt lat="43.41768" lon="6.52019">
        <ele>99.15</ele>
        <time>2016-04-12T09:32:39Z</time>
      </trkpt>
      <trkpt lat="43.41768" lon="6.52019">
        <ele>99.63</ele>
        <time>2016-04-12T09:33:09Z</time>
      </trkpt>
      <trkpt lat="43.4177" lon="6.52024">
        <ele>100.11</ele>
        <time>2016-04-12T09:33:27Z</time>
      </trkpt>
      <trkpt lat="43.41772" lon="6.5203">
        <ele>100.6</ele>
        <time>2016-04-12T09:33:32Z</time>
      </trkpt>
      <trkpt lat="43.41774" lon="6.52032">
        <ele>101.08</ele>
        <time>2016-04-12T09:33:34Z</time>
      </trkpt>
      <trkpt lat="43.41778" lon="6.52044">
        <ele>102.04</ele>
        <time>2016-04-12T09:33:44Z</time>
      </trkpt>
      <trkpt lat="43.41784" lon="6.52058">
        <ele>103.48</ele>
        <time>2016-04-12T09:33:56Z</time>
      </trkpt>
      <trkpt lat="43.41788" lon="6.5206">
        <ele>103.48</ele>
        <time>2016-04-12T09:33:59Z</time>
      </trkpt>
      <trkpt lat="43.41796" lon="6.5206">
        <ele>103.96</ele>
        <time>2016-04-12T09:34:07Z</time>
      </trkpt>
      <trkpt lat="43.41808" lon="6.52052">
        <ele>104.92</ele>
        <time>2016-04-12T09:34:22Z</time>
      </trkpt>
      <trkpt lat="43.41819" lon="6.52045">
        <ele>105.88</ele>
        <time>2016-04-12T09:34:35Z</time>
      </trkpt>
      <trkpt lat="43.41823" lon="6.52043">
        <ele>106.36</ele>
        <time>2016-04-12T09:34:39Z</time>
      </trkpt>
      <trkpt lat="43.4183" lon="6.52034">
        <ele>107.81</ele>
        <time>2016-04-12T09:34:51Z</time>
      </trkpt>
      <trkpt lat="43.41837" lon="6.52025">
        <ele>108.29</ele>
        <time>2016-04-12T09:34:58Z</time>
      </trkpt>
      <trkpt lat="43.41839" lon="6.52022">
        <ele>108.29</ele>
        <time>2016-04-12T09:35:01Z</time>
      </trkpt>
      <trkpt lat="43.41843" lon="6.52009">
        <ele>109.25</ele>
        <time>2016-04-12T09:35:12Z</time>
      </trkpt>
      <trkpt lat="43.41846" lon="6.52002">
        <ele>109.73</ele>
        <time>2016-04-12T09:35:18Z</time>
      </trkpt>
      <trkpt lat="43.41849" lon="6.51988">
        <ele>110.69</ele>
        <time>2016-04-12T09:35:27Z</time>
      </trkpt>
      <trkpt lat="43.41848" lon="6.51979">
        <ele>111.17</ele>
        <time>2016-04-12T09:35:33Z</time>
      </trkpt>
      <trkpt lat="43.41846" lon="6.5197">
        <ele>112.13</ele>
        <time>2016-04-12T09:35:41Z</time>
      </trkpt>
      <trkpt lat="43.41845" lon="6.51964">
        <ele>112.61</ele>
        <time>2016-04-12T09:35:45Z</time>
      </trkpt>
      <trkpt lat="43.4184" lon="6.51948">
        <ele>114.53</ele>
        <time>2016-04-12T09:35:57Z</time>
      </trkpt>
      <trkpt lat="43.41839" lon="6.51943">
        <ele>115.01</ele>
        <time>2016-04-12T09:36:02Z</time>
      </trkpt>
      <trkpt lat="43.41826" lon="6.51937">
        <ele>115.5</ele>
        <time>2016-04-12T09:36:15Z</time>
      </trkpt>
      <trkpt lat="43.41823" lon="6.51935">
        <ele>118.86</ele>
        <time>2016-04-12T09:36:19Z</time>
      </trkpt>
      <trkpt lat="43.41822" lon="6.51935">
        <ele>114.53</ele>
        <time>2016-04-12T09:36:20Z</time>
      </trkpt>
      <trkpt lat="43.41818" lon="6.51932">
        <ele>115.01</ele>
        <time>2016-04-12T09:36:24Z</time>
      </trkpt>
      <trkpt lat="43.41814" lon="6.5193">
        <ele>115.01</ele>
        <time>2016-04-12T09:36:27Z</time>
      </trkpt>
      <trkpt lat="43.41811" lon="6.51929">
        <ele>115.01</ele>
        <time>2016-04-12T09:36:30Z</time>
      </trkpt>
      <trkpt lat="43.41809" lon="6.51925">
        <ele>115.01</ele>
        <time>2016-04-12T09:36:34Z</time>
      </trkpt>
      <trkpt lat="43.41802" lon="6.51924">
        <ele>115.01</ele>
        <time>2016-04-12T09:36:40Z</time>
      </trkpt>
      <trkpt lat="43.41796" lon="6.51926">
        <ele>115.98</ele>
        <time>2016-04-12T09:36:55Z</time>
      </trkpt>
      <trkpt lat="43.41791" lon="6.51928">
        <ele>115.98</ele>
        <time>2016-04-12T09:37:02Z</time>
      </trkpt>
      <trkpt lat="43.41787" lon="6.51929">
        <ele>116.46</ele>
        <time>2016-04-12T09:37:13Z</time>
      </trkpt>
      <trkpt lat="43.41784" lon="6.5193">
        <ele>116.94</ele>
        <time>2016-04-12T09:37:16Z</time>
      </trkpt>
      <trkpt lat="43.41766" lon="6.51929">
        <ele>118.86</ele>
        <time>2016-04-12T09:37:31Z</time>
      </trkpt>
      <trkpt lat="43.41751" lon="6.51927">
        <ele>121.26</ele>
        <time>2016-04-12T09:37:45Z</time>
      </trkpt>
      <trkpt lat="43.4174" lon="6.51928">
        <ele>123.19</ele>
        <time>2016-04-12T09:37:59Z</time>
      </trkpt>
      <trkpt lat="43.41737" lon="6.51928">
        <ele>123.67</ele>
        <time>2016-04-12T09:38:03Z</time>
      </trkpt>
      <trkpt lat="43.41734" lon="6.51928">
        <ele>123.67</ele>
        <time>2016-04-12T09:38:05Z</time>
      </trkpt>
      <trkpt lat="43.41726" lon="6.51927">
        <ele>125.59</ele>
        <time>2016-04-12T09:38:11Z</time>
      </trkpt>
      <trkpt lat="43.41716" lon="6.51924">
        <ele>125.11</ele>
        <time>2016-04-12T09:38:22Z</time>
      </trkpt>
      <trkpt lat="43.41708" lon="6.51916">
        <ele>125.11</ele>
        <time>2016-04-12T09:38:35Z</time>
      </trkpt>
      <trkpt lat="43.41699" lon="6.51908">
        <ele>125.59</ele>
        <time>2016-04-12T09:38:48Z</time>
      </trkpt>
      <trkpt lat="43.41696" lon="6.51906">
        <ele>125.59</ele>
        <time>2016-04-12T09:38:51Z</time>
      </trkpt>
      <trkpt lat="43.41687" lon="6.51902">
        <ele>126.55</ele>
        <time>2016-04-12T09:38:59Z</time>
      </trkpt>
      <trkpt lat="43.41673" lon="6.51896">
        <ele>128.47</ele>
        <time>2016-04-12T09:39:13Z</time>
      </trkpt>
      <trkpt lat="43.41666" lon="6.51884">
        <ele>129.43</ele>
        <time>2016-04-12T09:39:28Z</time>
      </trkpt>
      <trkpt lat="43.41666" lon="6.51881">
        <ele>129.92</ele>
        <time>2016-04-12T09:39:30Z</time>
      </trkpt>
      <trkpt lat="43.41665" lon="6.51873">
        <ele>130.4</ele>
        <time>2016-04-12T09:39:37Z</time>
      </trkpt>
      <trkpt lat="43.41663" lon="6.51867">
        <ele>130.88</ele>
        <time>2016-04-12T09:39:41Z</time>
      </trkpt>
      <trkpt lat="43.41659" lon="6.51847">
        <ele>132.8</ele>
        <time>2016-04-12T09:39:58Z</time>
      </trkpt>
      <trkpt lat="43.41659" lon="6.51831">
        <ele>135.2</ele>
        <time>2016-04-12T09:40:11Z</time>
      </trkpt>
      <trkpt lat="43.41659" lon="6.51814">
        <ele>135.68</ele>
        <time>2016-04-12T09:40:24Z</time>
      </trkpt>
      <trkpt lat="43.41659" lon="6.51806">
        <ele>136.64</ele>
        <time>2016-04-12T09:40:31Z</time>
      </trkpt>
      <trkpt lat="43.41661" lon="6.51787">
        <ele>138.09</ele>
        <time>2016-04-12T09:40:44Z</time>
      </trkpt>
      <trkpt lat="43.41662" lon="6.51778">
        <ele>138.57</ele>
        <time>2016-04-12T09:40:49Z</time>
      </trkpt>
      <trkpt lat="43.41658" lon="6.51761">
        <ele>140.01</ele>
        <time>2016-04-12T09:41:01Z</time>
      </trkpt>
      <trkpt lat="43.41657" lon="6.51754">
        <ele>140.97</ele>
        <time>2016-04-12T09:41:07Z</time>
      </trkpt>
      <trkpt lat="43.41657" lon="6.5175">
        <ele>141.45</ele>
        <time>2016-04-12T09:41:10Z</time>
      </trkpt>
      <trkpt lat="43.41652" lon="6.51742">
        <ele>144.34</ele>
        <time>2016-04-12T09:41:28Z</time>
      </trkpt>
      <trkpt lat="43.41652" lon="6.51742">
        <ele>142.41</ele>
        <time>2016-04-12T09:41:29Z</time>
      </trkpt>
      <trkpt lat="43.41651" lon="6.5174">
        <ele>141.93</ele>
        <time>2016-04-12T09:41:49Z</time>
      </trkpt>
      <trkpt lat="43.41651" lon="6.51739">
        <ele>142.41</ele>
        <time>2016-04-12T09:42:18Z</time>
      </trkpt>
      <trkpt lat="43.41648" lon="6.51741">
        <ele>142.41</ele>
        <time>2016-04-12T09:42:44Z</time>
      </trkpt>
      <trkpt lat="43.41646" lon="6.51741">
        <ele>142.41</ele>
        <time>2016-04-12T09:43:04Z</time>
      </trkpt>
      <trkpt lat="43.41648" lon="6.51745">
        <ele>142.41</ele>
        <time>2016-04-12T09:43:34Z</time>
      </trkpt>
      <trkpt lat="43.41648" lon="6.5175">
        <ele>142.41</ele>
        <time>2016-04-12T09:43:48Z</time>
      </trkpt>
      <trkpt lat="43.41649" lon="6.51749">
        <ele>142.41</ele>
        <time>2016-04-12T09:44:09Z</time>
      </trkpt>
      <trkpt lat="43.4165" lon="6.5175">
        <ele>142.89</ele>
        <time>2016-04-12T09:44:25Z</time>
      </trkpt>
      <trkpt lat="43.4165" lon="6.5175">
        <ele>142.89</ele>
        <time>2016-04-12T09:44:42Z</time>
      </trkpt>
      <trkpt lat="43.41651" lon="6.51744">
        <ele>143.37</ele>
        <time>2016-04-12T09:44:58Z</time>
      </trkpt>
      <trkpt lat="43.41657" lon="6.51732">
        <ele>145.78</ele>
        <time>2016-04-12T09:45:12Z</time>
      </trkpt>
      <trkpt lat="43.41658" lon="6.51724">
        <ele>147.22</ele>
        <time>2016-04-12T09:45:24Z</time>
      </trkpt>
      <trkpt lat="43.41659" lon="6.51724">
        <ele>146.74</ele>
        <time>2016-04-12T09:45:48Z</time>
      </trkpt>
      <trkpt lat="43.41657" lon="6.51722">
        <ele>147.22</ele>
        <time>2016-04-12T09:46:06Z</time>
      </trkpt>
      <trkpt lat="43.41655" lon="6.51719">
        <ele>147.22</ele>
        <time>2016-04-12T09:46:20Z</time>
      </trkpt>
      <trkpt lat="43.41655" lon="6.51722">
        <ele>147.22</ele>
        <time>2016-04-12T09:46:46Z</time>
      </trkpt>
      <trkpt lat="43.41655" lon="6.51721">
        <ele>147.22</ele>
        <time>2016-04-12T09:47:01Z</time>
      </trkpt>
      <trkpt lat="43.41655" lon="6.51717">
        <ele>147.7</ele>
        <time>2016-04-12T09:47:19Z</time>
      </trkpt>
      <trkpt lat="43.41653" lon="6.51714">
        <ele>147.22</ele>
        <time>2016-04-12T09:47:22Z</time>
      </trkpt>
      <trkpt lat="43.41649" lon="6.51706">
        <ele>147.22</ele>
        <time>2016-04-12T09:47:31Z</time>
      </trkpt>
      <trkpt lat="43.41645" lon="6.51703">
        <ele>147.22</ele>
        <time>2016-04-12T09:47:35Z</time>
      </trkpt>
      <trkpt lat="43.4163" lon="6.51696">
        <ele>147.22</ele>
        <time>2016-04-12T09:47:48Z</time>
      </trkpt>
      <trkpt lat="43.41626" lon="6.51697">
        <ele>147.22</ele>
        <time>2016-04-12T09:47:51Z</time>
      </trkpt>
      <trkpt lat="43.41622" lon="6.51699">
        <ele>146.74</ele>
        <time>2016-04-12T09:47:54Z</time>
      </trkpt>
      <trkpt lat="43.4161" lon="6.51715">
        <ele>146.74</ele>
        <time>2016-04-12T09:48:09Z</time>
      </trkpt>
      <trkpt lat="43.41607" lon="6.51725">
        <ele>148.66</ele>
        <time>2016-04-12T09:48:15Z</time>
      </trkpt>
      <trkpt lat="43.41604" lon="6.5173">
        <ele>146.74</ele>
        <time>2016-04-12T09:48:19Z</time>
      </trkpt>
      <trkpt lat="43.416" lon="6.51734">
        <ele>147.22</ele>
        <time>2016-04-12T09:48:23Z</time>
      </trkpt>
      <trkpt lat="43.41586" lon="6.51747">
        <ele>146.74</ele>
        <time>2016-04-12T09:48:38Z</time>
      </trkpt>
      <trkpt lat="43.41569" lon="6.51747">
        <ele>147.22</ele>
        <time>2016-04-12T09:48:53Z</time>
      </trkpt>
      <trkpt lat="43.41554" lon="6.51739">
        <ele>146.26</ele>
        <time>2016-04-12T09:49:08Z</time>
      </trkpt>
      <trkpt lat="43.4154" lon="6.51731">
        <ele>146.74</ele>
        <time>2016-04-12T09:49:21Z</time>
      </trkpt>
      <trkpt lat="43.41528" lon="6.5172">
        <ele>146.74</ele>
        <time>2016-04-12T09:49:35Z</time>
      </trkpt>
      <trkpt lat="43.41521" lon="6.51713">
        <ele>146.74</ele>
        <time>2016-04-12T09:49:42Z</time>
      </trkpt>
      <trkpt lat="43.41512" lon="6.5171">
        <ele>146.26</ele>
        <time>2016-04-12T09:49:48Z</time>
      </trkpt>
      <trkpt lat="43.41497" lon="6.51706">
        <ele>146.26</ele>
        <time>2016-04-12T09:50:02Z</time>
      </trkpt>
      <trkpt lat="43.41486" lon="6.51699">
        <ele>146.74</ele>
        <time>2016-04-12T09:50:16Z</time>
      </trkpt>
      <trkpt lat="43.41486" lon="6.51699">
        <ele>146.74</ele>
        <time>2016-04-12T09:50:17Z</time>
      </trkpt>
      <trkpt lat="43.4148" lon="6.51695">
        <ele>146.74</ele>
        <time>2016-04-12T09:50:23Z</time>
      </trkpt>
      <trkpt lat="43.41465" lon="6.51689">
        <ele>146.74</ele>
        <time>2016-04-12T09:50:35Z</time>
      </trkpt>
      <trkpt lat="43.41462" lon="6.51691">
        <ele>146.74</ele>
        <time>2016-04-12T09:50:38Z</time>
      </trkpt>
      <trkpt lat="43.41451" lon="6.51711">
        <ele>146.74</ele>
        <time>2016-04-12T09:50:51Z</time>
      </trkpt>
      <trkpt lat="43.41445" lon="6.5172">
        <ele>146.74</ele>
        <time>2016-04-12T09:51:00Z</time>
      </trkpt>
      <trkpt lat="43.41441" lon="6.51723">
        <ele>146.74</ele>
        <time>2016-04-12T09:51:04Z</time>
      </trkpt>
      <trkpt lat="43.41431" lon="6.51732">
        <ele>146.74</ele>
        <time>2016-04-12T09:51:15Z</time>
      </trkpt>
      <trkpt lat="43.41425" lon="6.51742">
        <ele>146.74</ele>
        <time>2016-04-12T09:51:22Z</time>
      </trkpt>
      <trkpt lat="43.41416" lon="6.51755">
        <ele>147.22</ele>
        <time>2016-04-12T09:51:34Z</time>
      </trkpt>
      <trkpt lat="43.41405" lon="6.51766">
        <ele>146.74</ele>
        <time>2016-04-12T09:51:47Z</time>
      </trkpt>
      <trkpt lat="43.41397" lon="6.51767">
        <ele>146.74</ele>
        <time>2016-04-12T09:51:55Z</time>
      </trkpt>
      <trkpt lat="43.41394" lon="6.51766">
        <ele>146.74</ele>
        <time>2016-04-12T09:51:59Z</time>
      </trkpt>
      <trkpt lat="43.41392" lon="6.51765">
        <ele>146.26</ele>
        <time>2016-04-12T09:52:02Z</time>
      </trkpt>
      <trkpt lat="43.41384" lon="6.51757">
        <ele>146.74</ele>
        <time>2016-04-12T09:52:15Z</time>
      </trkpt>
      <trkpt lat="43.41372" lon="6.51745">
        <ele>147.22</ele>
        <time>2016-04-12T09:52:28Z</time>
      </trkpt>
      <trkpt lat="43.4136" lon="6.51734">
        <ele>147.7</ele>
        <time>2016-04-12T09:52:41Z</time>
      </trkpt>
      <trkpt lat="43.41354" lon="6.5173">
        <ele>147.7</ele>
        <time>2016-04-12T09:52:45Z</time>
      </trkpt>
      <trkpt lat="43.4135" lon="6.51726">
        <ele>148.66</ele>
        <time>2016-04-12T09:52:49Z</time>
      </trkpt>
      <trkpt lat="43.41341" lon="6.51722">
        <ele>149.14</ele>
        <time>2016-04-12T09:52:57Z</time>
      </trkpt>
      <trkpt lat="43.4133" lon="6.51721">
        <ele>150.58</ele>
        <time>2016-04-12T09:53:06Z</time>
      </trkpt>
      <trkpt lat="43.41315" lon="6.51726">
        <ele>152.03</ele>
        <time>2016-04-12T09:53:20Z</time>
      </trkpt>
      <trkpt lat="43.41299" lon="6.51726">
        <ele>153.47</ele>
        <time>2016-04-12T09:53:35Z</time>
      </trkpt>
      <trkpt lat="43.41295" lon="6.51726">
        <ele>153.95</ele>
        <time>2016-04-12T09:53:40Z</time>
      </trkpt>
      <trkpt lat="43.4129" lon="6.51723">
        <ele>154.43</ele>
        <time>2016-04-12T09:53:46Z</time>
      </trkpt>
      <trkpt lat="43.4128" lon="6.51717">
        <ele>154.91</ele>
        <time>2016-04-12T09:53:58Z</time>
      </trkpt>
      <trkpt lat="43.41276" lon="6.51713">
        <ele>155.39</ele>
        <time>2016-04-12T09:54:03Z</time>
      </trkpt>
      <trkpt lat="43.4127" lon="6.51708">
        <ele>155.87</ele>
        <time>2016-04-12T09:54:10Z</time>
      </trkpt>
      <trkpt lat="43.41256" lon="6.51699">
        <ele>157.31</ele>
        <time>2016-04-12T09:54:25Z</time>
      </trkpt>
      <trkpt lat="43.41244" lon="6.51692">
        <ele>158.75</ele>
        <time>2016-04-12T09:54:38Z</time>
      </trkpt>
      <trkpt lat="43.41231" lon="6.51682">
        <ele>160.2</ele>
        <time>2016-04-12T09:54:53Z</time>
      </trkpt>
      <trkpt lat="43.41227" lon="6.51676">
        <ele>160.68</ele>
        <time>2016-04-12T09:55:01Z</time>
      </trkpt>
      <trkpt lat="43.41221" lon="6.51667">
        <ele>161.16</ele>
        <time>2016-04-12T09:55:10Z</time>
      </trkpt>
      <trkpt lat="43.41218" lon="6.51657">
        <ele>161.64</ele>
        <time>2016-04-12T09:55:19Z</time>
      </trkpt>
      <trkpt lat="43.41214" lon="6.51639">
        <ele>163.08</ele>
        <time>2016-04-12T09:55:33Z</time>
      </trkpt>
      <trkpt lat="43.41213" lon="6.51634">
        <ele>163.56</ele>
        <time>2016-04-12T09:55:37Z</time>
      </trkpt>
      <trkpt lat="43.41213" lon="6.51614">
        <ele>165</ele>
        <time>2016-04-12T09:55:53Z</time>
      </trkpt>
      <trkpt lat="43.41212" lon="6.51595">
        <ele>166.45</ele>
        <time>2016-04-12T09:56:06Z</time>
      </trkpt>
      <trkpt lat="43.41213" lon="6.51588">
        <ele>166.93</ele>
        <time>2016-04-12T09:56:11Z</time>
      </trkpt>
      <trkpt lat="43.41213" lon="6.51585">
        <ele>167.89</ele>
        <time>2016-04-12T09:56:13Z</time>
      </trkpt>
      <trkpt lat="43.41215" lon="6.51574">
        <ele>166.93</ele>
        <time>2016-04-12T09:56:21Z</time>
      </trkpt>
      <trkpt lat="43.41216" lon="6.51567">
        <ele>167.89</ele>
        <time>2016-04-12T09:56:30Z</time>
      </trkpt>
      <trkpt lat="43.41218" lon="6.51575">
        <ele>170.29</ele>
        <time>2016-04-12T09:56:44Z</time>
      </trkpt>
      <trkpt lat="43.41221" lon="6.51577">
        <ele>170.29</ele>
        <time>2016-04-12T09:57:14Z</time>
      </trkpt>
      <trkpt lat="43.4122" lon="6.51577">
        <ele>170.29</ele>
        <time>2016-04-12T09:57:41Z</time>
      </trkpt>
      <trkpt lat="43.41219" lon="6.51577">
        <ele>170.77</ele>
        <time>2016-04-12T09:58:01Z</time>
      </trkpt>
      <trkpt lat="43.41219" lon="6.51575">
        <ele>170.77</ele>
        <time>2016-04-12T09:58:16Z</time>
      </trkpt>
      <trkpt lat="43.41218" lon="6.51576">
        <ele>170.77</ele>
        <time>2016-04-12T09:58:45Z</time>
      </trkpt>
      <trkpt lat="43.41217" lon="6.51576">
        <ele>170.77</ele>
        <time>2016-04-12T09:59:08Z</time>
      </trkpt>
      <trkpt lat="43.41217" lon="6.51576">
        <ele>170.77</ele>
        <time>2016-04-12T09:59:29Z</time>
      </trkpt>
      <trkpt lat="43.41217" lon="6.51575">
        <ele>170.77</ele>
        <time>2016-04-12T09:59:53Z</time>
      </trkpt>
      <trkpt lat="43.41217" lon="6.51576">
        <ele>171.25</ele>
        <time>2016-04-12T10:00:15Z</time>
      </trkpt>
      <trkpt lat="43.41218" lon="6.51575">
        <ele>171.25</ele>
        <time>2016-04-12T10:00:35Z</time>
      </trkpt>
      <trkpt lat="43.41217" lon="6.51575">
        <ele>171.25</ele>
        <time>2016-04-12T10:00:58Z</time>
      </trkpt>
      <trkpt lat="43.41218" lon="6.51575">
        <ele>171.25</ele>
        <time>2016-04-12T10:01:22Z</time>
      </trkpt>
      <trkpt lat="43.41217" lon="6.51575">
        <ele>171.73</ele>
        <time>2016-04-12T10:01:48Z</time>
      </trkpt>
      <trkpt lat="43.41219" lon="6.51575">
        <ele>171.73</ele>
        <time>2016-04-12T10:02:09Z</time>
      </trkpt>
      <trkpt lat="43.4122" lon="6.51577">
        <ele>171.73</ele>
        <time>2016-04-12T10:02:25Z</time>
      </trkpt>
      <trkpt lat="43.41232" lon="6.51584">
        <ele>173.66</ele>
        <time>2016-04-12T10:02:39Z</time>
      </trkpt>
      <trkpt lat="43.41235" lon="6.51585">
        <ele>174.14</ele>
        <time>2016-04-12T10:02:42Z</time>
      </trkpt>
      <trkpt lat="43.41243" lon="6.51583">
        <ele>175.58</ele>
        <time>2016-04-12T10:02:52Z</time>
      </trkpt>
      <trkpt lat="43.41255" lon="6.51567">
        <ele>177.5</ele>
        <time>2016-04-12T10:03:06Z</time>
      </trkpt>
      <trkpt lat="43.41258" lon="6.51556">
        <ele>178.46</ele>
        <time>2016-04-12T10:03:14Z</time>
      </trkpt>
      <trkpt lat="43.4126" lon="6.51548">
        <ele>178.94</ele>
        <time>2016-04-12T10:03:20Z</time>
      </trkpt>
      <trkpt lat="43.4126" lon="6.5154">
        <ele>179.9</ele>
        <time>2016-04-12T10:03:26Z</time>
      </trkpt>
      <trkpt lat="43.41261" lon="6.51526">
        <ele>180.38</ele>
        <time>2016-04-12T10:03:35Z</time>
      </trkpt>
      <trkpt lat="43.41254" lon="6.51508">
        <ele>180.38</ele>
        <time>2016-04-12T10:03:48Z</time>
      </trkpt>
      <trkpt lat="43.41248" lon="6.51505">
        <ele>180.87</ele>
        <time>2016-04-12T10:03:52Z</time>
      </trkpt>
      <trkpt lat="43.41246" lon="6.51503">
        <ele>181.35</ele>
        <time>2016-04-12T10:03:55Z</time>
      </trkpt>
      <trkpt lat="43.41239" lon="6.515">
        <ele>181.83</ele>
        <time>2016-04-12T10:04:00Z</time>
      </trkpt>
      <trkpt lat="43.41225" lon="6.51492">
        <ele>182.79</ele>
        <time>2016-04-12T10:04:13Z</time>
      </trkpt>
      <trkpt lat="43.41213" lon="6.51482">
        <ele>184.23</ele>
        <time>2016-04-12T10:04:27Z</time>
      </trkpt>
      <trkpt lat="43.41207" lon="6.51476">
        <ele>186.15</ele>
        <time>2016-04-12T10:04:40Z</time>
      </trkpt>
      <trkpt lat="43.41201" lon="6.51476">
        <ele>186.15</ele>
        <time>2016-04-12T10:04:47Z</time>
      </trkpt>
      <trkpt lat="43.41198" lon="6.51473">
        <ele>186.63</ele>
        <time>2016-04-12T10:04:55Z</time>
      </trkpt>
      <trkpt lat="43.41189" lon="6.51463">
        <ele>187.59</ele>
        <time>2016-04-12T10:05:07Z</time>
      </trkpt>
      <trkpt lat="43.41188" lon="6.51459">
        <ele>188.56</ele>
        <time>2016-04-12T10:05:09Z</time>
      </trkpt>
      <trkpt lat="43.4118" lon="6.51445">
        <ele>190</ele>
        <time>2016-04-12T10:05:14Z</time>
      </trkpt>
      <trkpt lat="43.41175" lon="6.51444">
        <ele>190.48</ele>
        <time>2016-04-12T10:05:29Z</time>
      </trkpt>
      <trkpt lat="43.41167" lon="6.5143">
        <ele>191.92</ele>
        <time>2016-04-12T10:05:42Z</time>
      </trkpt>
      <trkpt lat="43.41155" lon="6.51416">
        <ele>192.88</ele>
        <time>2016-04-12T10:05:55Z</time>
      </trkpt>
      <trkpt lat="43.41148" lon="6.51408">
        <ele>194.32</ele>
        <time>2016-04-12T10:06:04Z</time>
      </trkpt>
      <trkpt lat="43.41141" lon="6.51396">
        <ele>195.77</ele>
        <time>2016-04-12T10:06:15Z</time>
      </trkpt>
      <trkpt lat="43.41139" lon="6.51384">
        <ele>197.21</ele>
        <time>2016-04-12T10:06:25Z</time>
      </trkpt>
      <trkpt lat="43.41136" lon="6.51363">
        <ele>200.57</ele>
        <time>2016-04-12T10:06:42Z</time>
      </trkpt>
      <trkpt lat="43.41133" lon="6.51356">
        <ele>202.01</ele>
        <time>2016-04-12T10:06:48Z</time>
      </trkpt>
      <trkpt lat="43.41135" lon="6.51349">
        <ele>203.94</ele>
        <time>2016-04-12T10:07:00Z</time>
      </trkpt>
      <trkpt lat="43.41145" lon="6.51359">
        <ele>205.86</ele>
        <time>2016-04-12T10:07:15Z</time>
      </trkpt>
      <trkpt lat="43.4115" lon="6.51368">
        <ele>207.3</ele>
        <time>2016-04-12T10:07:28Z</time>
      </trkpt>
      <trkpt lat="43.41156" lon="6.51362">
        <ele>207.3</ele>
        <time>2016-04-12T10:08:00Z</time>
      </trkpt>
      <trkpt lat="43.41154" lon="6.5136">
        <ele>207.3</ele>
        <time>2016-04-12T10:08:24Z</time>
      </trkpt>
      <trkpt lat="43.41154" lon="6.5136">
        <ele>210.19</ele>
        <time>2016-04-12T10:08:37Z</time>
      </trkpt>
      <trkpt lat="43.41154" lon="6.51361">
        <ele>208.26</ele>
        <time>2016-04-12T10:08:38Z</time>
      </trkpt>
      <trkpt lat="43.41154" lon="6.51361">
        <ele>207.3</ele>
        <time>2016-04-12T10:09:02Z</time>
      </trkpt>
      <trkpt lat="43.41152" lon="6.51362">
        <ele>207.3</ele>
        <time>2016-04-12T10:09:26Z</time>
      </trkpt>
      <trkpt lat="43.41153" lon="6.51363">
        <ele>207.78</ele>
        <time>2016-04-12T10:09:46Z</time>
      </trkpt>
      <trkpt lat="43.41153" lon="6.51363">
        <ele>208.26</ele>
        <time>2016-04-12T10:10:13Z</time>
      </trkpt>
      <trkpt lat="43.41154" lon="6.51362">
        <ele>207.78</ele>
        <time>2016-04-12T10:10:37Z</time>
      </trkpt>
      <trkpt lat="43.41153" lon="6.51363">
        <ele>207.78</ele>
        <time>2016-04-12T10:10:56Z</time>
      </trkpt>
      <trkpt lat="43.41154" lon="6.51364">
        <ele>207.78</ele>
        <time>2016-04-12T10:11:02Z</time>
      </trkpt>
      <trkpt lat="43.41157" lon="6.51365">
        <ele>207.78</ele>
        <time>2016-04-12T10:11:05Z</time>
      </trkpt>
      <trkpt lat="43.41161" lon="6.51364">
        <ele>208.26</ele>
        <time>2016-04-12T10:11:10Z</time>
      </trkpt>
      <trkpt lat="43.41171" lon="6.51366">
        <ele>209.7</ele>
        <time>2016-04-12T10:11:23Z</time>
      </trkpt>
      <trkpt lat="43.41179" lon="6.51371">
        <ele>211.63</ele>
        <time>2016-04-12T10:11:37Z</time>
      </trkpt>
      <trkpt lat="43.4118" lon="6.51374">
        <ele>212.11</ele>
        <time>2016-04-12T10:11:43Z</time>
      </trkpt>
      <trkpt lat="43.41193" lon="6.51376">
        <ele>213.07</ele>
        <time>2016-04-12T10:11:55Z</time>
      </trkpt>
      <trkpt lat="43.41202" lon="6.51377">
        <ele>214.03</ele>
        <time>2016-04-12T10:12:06Z</time>
      </trkpt>
      <trkpt lat="43.41217" lon="6.5138">
        <ele>215.95</ele>
        <time>2016-04-12T10:12:21Z</time>
      </trkpt>
      <trkpt lat="43.41225" lon="6.51381">
        <ele>216.91</ele>
        <time>2016-04-12T10:12:29Z</time>
      </trkpt>
      <trkpt lat="43.4124" lon="6.51384">
        <ele>218.36</ele>
        <time>2016-04-12T10:12:45Z</time>
      </trkpt>
      <trkpt lat="43.41242" lon="6.51383">
        <ele>218.84</ele>
        <time>2016-04-12T10:12:47Z</time>
      </trkpt>
      <trkpt lat="43.41247" lon="6.51382">
        <ele>219.32</ele>
        <time>2016-04-12T10:12:51Z</time>
      </trkpt>
      <trkpt lat="43.41253" lon="6.51382">
        <ele>219.8</ele>
        <time>2016-04-12T10:12:57Z</time>
      </trkpt>
      <trkpt lat="43.41269" lon="6.51382">
        <ele>222.2</ele>
        <time>2016-04-12T10:13:11Z</time>
      </trkpt>
      <trkpt lat="43.41283" lon="6.51381">
        <ele>224.61</ele>
        <time>2016-04-12T10:13:25Z</time>
      </trkpt>
      <trkpt lat="43.41286" lon="6.5138">
        <ele>225.09</ele>
        <time>2016-04-12T10:13:29Z</time>
      </trkpt>
      <trkpt lat="43.41296" lon="6.51383">
        <ele>225.57</ele>
        <time>2016-04-12T10:13:39Z</time>
      </trkpt>
      <trkpt lat="43.41303" lon="6.51389">
        <ele>226.05</ele>
        <time>2016-04-12T10:13:47Z</time>
      </trkpt>
      <trkpt lat="43.41309" lon="6.51392">
        <ele>227.01</ele>
        <time>2016-04-12T10:13:53Z</time>
      </trkpt>
      <trkpt lat="43.41315" lon="6.51396">
        <ele>227.49</ele>
        <time>2016-04-12T10:13:58Z</time>
      </trkpt>
      <trkpt lat="43.41324" lon="6.51401">
        <ele>228.45</ele>
        <time>2016-04-12T10:14:06Z</time>
      </trkpt>
      <trkpt lat="43.41326" lon="6.51403">
        <ele>228.93</ele>
        <time>2016-04-12T10:14:09Z</time>
      </trkpt>
      <trkpt lat="43.41341" lon="6.51406">
        <ele>230.85</ele>
        <time>2016-04-12T10:14:23Z</time>
      </trkpt>
      <trkpt lat="43.41342" lon="6.51406">
        <ele>231.33</ele>
        <time>2016-04-12T10:14:25Z</time>
      </trkpt>
      <trkpt lat="43.41348" lon="6.51407">
        <ele>231.81</ele>
        <time>2016-04-12T10:14:39Z</time>
      </trkpt>
      <trkpt lat="43.41351" lon="6.51404">
        <ele>231.33</ele>
        <time>2016-04-12T10:14:54Z</time>
      </trkpt>
      <trkpt lat="43.41352" lon="6.51402">
        <ele>231.33</ele>
        <time>2016-04-12T10:15:22Z</time>
      </trkpt>
      <trkpt lat="43.41352" lon="6.51403">
        <ele>231.33</ele>
        <time>2016-04-12T10:15:47Z</time>
      </trkpt>
      <trkpt lat="43.41359" lon="6.51406">
        <ele>231.81</ele>
        <time>2016-04-12T10:16:02Z</time>
      </trkpt>
      <trkpt lat="43.41366" lon="6.51405">
        <ele>232.78</ele>
        <time>2016-04-12T10:16:10Z</time>
      </trkpt>
      <trkpt lat="43.41376" lon="6.51402">
        <ele>233.74</ele>
        <time>2016-04-12T10:16:19Z</time>
      </trkpt>
      <trkpt lat="43.41384" lon="6.51398">
        <ele>235.66</ele>
        <time>2016-04-12T10:16:31Z</time>
      </trkpt>
      <trkpt lat="43.41386" lon="6.51397">
        <ele>236.14</ele>
        <time>2016-04-12T10:16:33Z</time>
      </trkpt>
      <trkpt lat="43.41402" lon="6.51395">
        <ele>237.58</ele>
        <time>2016-04-12T10:16:50Z</time>
      </trkpt>
      <trkpt lat="43.41407" lon="6.51393">
        <ele>238.54</ele>
        <time>2016-04-12T10:17:03Z</time>
      </trkpt>
      <trkpt lat="43.41409" lon="6.51392">
        <ele>238.06</ele>
        <time>2016-04-12T10:17:25Z</time>
      </trkpt>
      <trkpt lat="43.41411" lon="6.51391">
        <ele>238.54</ele>
        <time>2016-04-12T10:17:54Z</time>
      </trkpt>
      <trkpt lat="43.41411" lon="6.51391">
        <ele>238.06</ele>
        <time>2016-04-12T10:18:17Z</time>
      </trkpt>
      <trkpt lat="43.41411" lon="6.51391">
        <ele>238.54</ele>
        <time>2016-04-12T10:18:43Z</time>
      </trkpt>
      <trkpt lat="43.41411" lon="6.51391">
        <ele>238.06</ele>
        <time>2016-04-12T10:19:13Z</time>
      </trkpt>
      <trkpt lat="43.41411" lon="6.5139">
        <ele>238.06</ele>
        <time>2016-04-12T10:19:42Z</time>
      </trkpt>
      <trkpt lat="43.41412" lon="6.5139">
        <ele>238.06</ele>
        <time>2016-04-12T10:19:58Z</time>
      </trkpt>
      <trkpt lat="43.41412" lon="6.5139">
        <ele>238.06</ele>
        <time>2016-04-12T10:20:21Z</time>
      </trkpt>
      <trkpt lat="43.41412" lon="6.5139">
        <ele>238.54</ele>
        <time>2016-04-12T10:20:39Z</time>
      </trkpt>
      <trkpt lat="43.41414" lon="6.5139">
        <ele>238.54</ele>
        <time>2016-04-12T10:20:43Z</time>
      </trkpt>
      <trkpt lat="43.41416" lon="6.51389">
        <ele>238.54</ele>
        <time>2016-04-12T10:20:46Z</time>
      </trkpt>
      <trkpt lat="43.41418" lon="6.51387">
        <ele>239.02</ele>
        <time>2016-04-12T10:20:48Z</time>
      </trkpt>
      <trkpt lat="43.4142" lon="6.51386">
        <ele>239.02</ele>
        <time>2016-04-12T10:20:50Z</time>
      </trkpt>
      <trkpt lat="43.41429" lon="6.51379">
        <ele>240.47</ele>
        <time>2016-04-12T10:21:04Z</time>
      </trkpt>
      <trkpt lat="43.41429" lon="6.51379">
        <ele>240.95</ele>
        <time>2016-04-12T10:21:05Z</time>
      </trkpt>
      <trkpt lat="43.41431" lon="6.5138">
        <ele>240.95</ele>
        <time>2016-04-12T10:21:07Z</time>
      </trkpt>
      <trkpt lat="43.41437" lon="6.51377">
        <ele>241.91</ele>
        <time>2016-04-12T10:21:13Z</time>
      </trkpt>
      <trkpt lat="43.41452" lon="6.51376">
        <ele>242.39</ele>
        <time>2016-04-12T10:21:26Z</time>
      </trkpt>
      <trkpt lat="43.41461" lon="6.51376">
        <ele>243.35</ele>
        <time>2016-04-12T10:21:34Z</time>
      </trkpt>
      <trkpt lat="43.41478" lon="6.51374">
        <ele>245.27</ele>
        <time>2016-04-12T10:21:49Z</time>
      </trkpt>
      <trkpt lat="43.41492" lon="6.51372">
        <ele>247.2</ele>
        <time>2016-04-12T10:22:03Z</time>
      </trkpt>
      <trkpt lat="43.41504" lon="6.51368">
        <ele>250.56</ele>
        <time>2016-04-12T10:22:16Z</time>
      </trkpt>
      <trkpt lat="43.41518" lon="6.51366">
        <ele>251.04</ele>
        <time>2016-04-12T10:22:28Z</time>
      </trkpt>
      <trkpt lat="43.41536" lon="6.51366">
        <ele>253.44</ele>
        <time>2016-04-12T10:22:44Z</time>
      </trkpt>
      <trkpt lat="43.41552" lon="6.51364">
        <ele>255.37</ele>
        <time>2016-04-12T10:22:58Z</time>
      </trkpt>
      <trkpt lat="43.41563" lon="6.51361">
        <ele>255.85</ele>
        <time>2016-04-12T10:23:08Z</time>
      </trkpt>
      <trkpt lat="43.41578" lon="6.51363">
        <ele>257.29</ele>
        <time>2016-04-12T10:23:21Z</time>
      </trkpt>
      <trkpt lat="43.41586" lon="6.51364">
        <ele>257.77</ele>
        <time>2016-04-12T10:23:35Z</time>
      </trkpt>
      <trkpt lat="43.41587" lon="6.51362">
        <ele>258.25</ele>
        <time>2016-04-12T10:23:59Z</time>
      </trkpt>
      <trkpt lat="43.41587" lon="6.51361">
        <ele>258.73</ele>
        <time>2016-04-12T10:24:25Z</time>
      </trkpt>
      <trkpt lat="43.41586" lon="6.51361">
        <ele>258.25</ele>
        <time>2016-04-12T10:24:43Z</time>
      </trkpt>
      <trkpt lat="43.41592" lon="6.51362">
        <ele>258.25</ele>
        <time>2016-04-12T10:24:56Z</time>
      </trkpt>
      <trkpt lat="43.41593" lon="6.51363">
        <ele>258.25</ele>
        <time>2016-04-12T10:24:58Z</time>
      </trkpt>
      <trkpt lat="43.41598" lon="6.51361">
        <ele>258.25</ele>
        <time>2016-04-12T10:25:02Z</time>
      </trkpt>
      <trkpt lat="43.41611" lon="6.5136">
        <ele>258.25</ele>
        <time>2016-04-12T10:25:17Z</time>
      </trkpt>
      <trkpt lat="43.41613" lon="6.51359">
        <ele>257.77</ele>
        <time>2016-04-12T10:25:30Z</time>
      </trkpt>
      <trkpt lat="43.41613" lon="6.5136">
        <ele>258.25</ele>
        <time>2016-04-12T10:25:39Z</time>
      </trkpt>
      <trkpt lat="43.41615" lon="6.51357">
        <ele>257.77</ele>
        <time>2016-04-12T10:25:54Z</time>
      </trkpt>
      <trkpt lat="43.41624" lon="6.51341">
        <ele>257.77</ele>
        <time>2016-04-12T10:26:11Z</time>
      </trkpt>
      <trkpt lat="43.41623" lon="6.51335">
        <ele>257.77</ele>
        <time>2016-04-12T10:26:15Z</time>
      </trkpt>
      <trkpt lat="43.41621" lon="6.51329">
        <ele>258.25</ele>
        <time>2016-04-12T10:26:20Z</time>
      </trkpt>
      <trkpt lat="43.41615" lon="6.51314">
        <ele>260.17</ele>
        <time>2016-04-12T10:26:34Z</time>
      </trkpt>
      <trkpt lat="43.41614" lon="6.51313">
        <ele>260.65</ele>
        <time>2016-04-12T10:26:35Z</time>
      </trkpt>
      <trkpt lat="43.41609" lon="6.51304">
        <ele>262.1</ele>
        <time>2016-04-12T10:26:44Z</time>
      </trkpt>
      <trkpt lat="43.41607" lon="6.51297">
        <ele>263.06</ele>
        <time>2016-04-12T10:26:51Z</time>
      </trkpt>
      <trkpt lat="43.41605" lon="6.51291">
        <ele>264.5</ele>
        <time>2016-04-12T10:26:57Z</time>
      </trkpt>
      <trkpt lat="43.41598" lon="6.51282">
        <ele>265.94</ele>
        <time>2016-04-12T10:27:10Z</time>
      </trkpt>
      <trkpt lat="43.41592" lon="6.51277">
        <ele>267.86</ele>
        <time>2016-04-12T10:27:20Z</time>
      </trkpt>
      <trkpt lat="43.41581" lon="6.5127">
        <ele>270.75</ele>
        <time>2016-04-12T10:27:35Z</time>
      </trkpt>
      <trkpt lat="43.41574" lon="6.51264">
        <ele>272.19</ele>
        <time>2016-04-12T10:27:45Z</time>
      </trkpt>
      <trkpt lat="43.41564" lon="6.51259">
        <ele>274.11</ele>
        <time>2016-04-12T10:28:00Z</time>
      </trkpt>
      <trkpt lat="43.41554" lon="6.51261">
        <ele>276.52</ele>
        <time>2016-04-12T10:28:14Z</time>
      </trkpt>
      <trkpt lat="43.41549" lon="6.5126">
        <ele>277.48</ele>
        <time>2016-04-12T10:28:20Z</time>
      </trkpt>
      <trkpt lat="43.4154" lon="6.51262">
        <ele>278.92</ele>
        <time>2016-04-12T10:28:35Z</time>
      </trkpt>
      <trkpt lat="43.4154" lon="6.51264">
        <ele>278.44</ele>
        <time>2016-04-12T10:29:03Z</time>
      </trkpt>
      <trkpt lat="43.4154" lon="6.51263">
        <ele>278.92</ele>
        <time>2016-04-12T10:29:31Z</time>
      </trkpt>
      <trkpt lat="43.41539" lon="6.51263">
        <ele>279.4</ele>
        <time>2016-04-12T10:29:55Z</time>
      </trkpt>
      <trkpt lat="43.41539" lon="6.51263">
        <ele>278.44</ele>
        <time>2016-04-12T10:30:15Z</time>
      </trkpt>
      <trkpt lat="43.41539" lon="6.51263">
        <ele>278.44</ele>
        <time>2016-04-12T10:30:45Z</time>
      </trkpt>
      <trkpt lat="43.4154" lon="6.51264">
        <ele>278.92</ele>
        <time>2016-04-12T10:31:13Z</time>
      </trkpt>
      <trkpt lat="43.41536" lon="6.51265">
        <ele>279.4</ele>
        <time>2016-04-12T10:31:38Z</time>
      </trkpt>
      <trkpt lat="43.41526" lon="6.51265">
        <ele>279.88</ele>
        <time>2016-04-12T10:31:50Z</time>
      </trkpt>
      <trkpt lat="43.41515" lon="6.5126">
        <ele>281.8</ele>
        <time>2016-04-12T10:32:03Z</time>
      </trkpt>
      <trkpt lat="43.41506" lon="6.51253">
        <ele>285.17</ele>
        <time>2016-04-12T10:32:17Z</time>
      </trkpt>
      <trkpt lat="43.41503" lon="6.51252">
        <ele>285.17</ele>
        <time>2016-04-12T10:32:21Z</time>
      </trkpt>
      <trkpt lat="43.41493" lon="6.51247">
        <ele>287.57</ele>
        <time>2016-04-12T10:32:35Z</time>
      </trkpt>
      <trkpt lat="43.4149" lon="6.51244">
        <ele>288.53</ele>
        <time>2016-04-12T10:32:40Z</time>
      </trkpt>
      <trkpt lat="43.41482" lon="6.51235">
        <ele>291.42</ele>
        <time>2016-04-12T10:32:55Z</time>
      </trkpt>
      <trkpt lat="43.41474" lon="6.51225">
        <ele>293.82</ele>
        <time>2016-04-12T10:33:09Z</time>
      </trkpt>
      <trkpt lat="43.41466" lon="6.51223">
        <ele>295.74</ele>
        <time>2016-04-12T10:33:21Z</time>
      </trkpt>
      <trkpt lat="43.41461" lon="6.5122">
        <ele>296.7</ele>
        <time>2016-04-12T10:33:28Z</time>
      </trkpt>
      <trkpt lat="43.41455" lon="6.5121">
        <ele>299.59</ele>
        <time>2016-04-12T10:33:43Z</time>
      </trkpt>
      <trkpt lat="43.41456" lon="6.51208">
        <ele>299.59</ele>
        <time>2016-04-12T10:33:54Z</time>
      </trkpt>
      <trkpt lat="43.41456" lon="6.51208">
        <ele>299.59</ele>
        <time>2016-04-12T10:34:13Z</time>
      </trkpt>
      <trkpt lat="43.41455" lon="6.51208">
        <ele>299.59</ele>
        <time>2016-04-12T10:34:34Z</time>
      </trkpt>
      <trkpt lat="43.41455" lon="6.51208">
        <ele>300.07</ele>
        <time>2016-04-12T10:34:57Z</time>
      </trkpt>
      <trkpt lat="43.41455" lon="6.51209">
        <ele>300.07</ele>
        <time>2016-04-12T10:35:16Z</time>
      </trkpt>
      <trkpt lat="43.41456" lon="6.51209">
        <ele>300.07</ele>
        <time>2016-04-12T10:35:45Z</time>
      </trkpt>
      <trkpt lat="43.41456" lon="6.51209">
        <ele>299.59</ele>
        <time>2016-04-12T10:36:08Z</time>
      </trkpt>
      <trkpt lat="43.41456" lon="6.5121">
        <ele>299.59</ele>
        <time>2016-04-12T10:36:29Z</time>
      </trkpt>
      <trkpt lat="43.41456" lon="6.5121">
        <ele>300.55</ele>
        <time>2016-04-12T10:36:50Z</time>
      </trkpt>
      <trkpt lat="43.41456" lon="6.5121">
        <ele>300.55</ele>
        <time>2016-04-12T10:37:16Z</time>
      </trkpt>
      <trkpt lat="43.41455" lon="6.51209">
        <ele>300.55</ele>
        <time>2016-04-12T10:37:36Z</time>
      </trkpt>
      <trkpt lat="43.41454" lon="6.5121">
        <ele>300.55</ele>
        <time>2016-04-12T10:37:52Z</time>
      </trkpt>
      <trkpt lat="43.41453" lon="6.5121">
        <ele>300.55</ele>
        <time>2016-04-12T10:37:55Z</time>
      </trkpt>
      <trkpt lat="43.4145" lon="6.51209">
        <ele>301.51</ele>
        <time>2016-04-12T10:38:01Z</time>
      </trkpt>
      <trkpt lat="43.41443" lon="6.51206">
        <ele>301.99</ele>
        <time>2016-04-12T10:38:11Z</time>
      </trkpt>
      <trkpt lat="43.41433" lon="6.51198">
        <ele>303.91</ele>
        <time>2016-04-12T10:38:25Z</time>
      </trkpt>
      <trkpt lat="43.41428" lon="6.51194">
        <ele>304.39</ele>
        <time>2016-04-12T10:38:32Z</time>
      </trkpt>
      <trkpt lat="43.41425" lon="6.51191">
        <ele>304.88</ele>
        <time>2016-04-12T10:38:36Z</time>
      </trkpt>
      <trkpt lat="43.41418" lon="6.51186">
        <ele>305.84</ele>
        <time>2016-04-12T10:38:45Z</time>
      </trkpt>
      <trkpt lat="43.41416" lon="6.51185">
        <ele>305.84</ele>
        <time>2016-04-12T10:38:47Z</time>
      </trkpt>
      <trkpt lat="43.41405" lon="6.51174">
        <ele>306.8</ele>
        <time>2016-04-12T10:39:00Z</time>
      </trkpt>
      <trkpt lat="43.41396" lon="6.51168">
        <ele>308.72</ele>
        <time>2016-04-12T10:39:12Z</time>
      </trkpt>
      <trkpt lat="43.41389" lon="6.51164">
        <ele>310.16</ele>
        <time>2016-04-12T10:39:20Z</time>
      </trkpt>
      <trkpt lat="43.41387" lon="6.51163">
        <ele>310.64</ele>
        <time>2016-04-12T10:39:22Z</time>
      </trkpt>
      <trkpt lat="43.41383" lon="6.51163">
        <ele>311.12</ele>
        <time>2016-04-12T10:39:29Z</time>
      </trkpt>
      <trkpt lat="43.4138" lon="6.51161">
        <ele>312.09</ele>
        <time>2016-04-12T10:39:33Z</time>
      </trkpt>
      <trkpt lat="43.41368" lon="6.51151">
        <ele>313.05</ele>
        <time>2016-04-12T10:39:47Z</time>
      </trkpt>
      <trkpt lat="43.41356" lon="6.51143">
        <ele>314.49</ele>
        <time>2016-04-12T10:40:01Z</time>
      </trkpt>
      <trkpt lat="43.4134" lon="6.51141">
        <ele>315.93</ele>
        <time>2016-04-12T10:40:16Z</time>
      </trkpt>
      <trkpt lat="43.41337" lon="6.51141">
        <ele>316.89</ele>
        <time>2016-04-12T10:40:21Z</time>
      </trkpt>
      <trkpt lat="43.41323" lon="6.51141">
        <ele>318.33</ele>
        <time>2016-04-12T10:40:34Z</time>
      </trkpt>
      <trkpt lat="43.41318" lon="6.51137">
        <ele>319.3</ele>
        <time>2016-04-12T10:40:40Z</time>
      </trkpt>
      <trkpt lat="43.41316" lon="6.51134">
        <ele>319.3</ele>
        <time>2016-04-12T10:40:44Z</time>
      </trkpt>
      <trkpt lat="43.41314" lon="6.5113">
        <ele>320.74</ele>
        <time>2016-04-12T10:40:48Z</time>
      </trkpt>
      <trkpt lat="43.4131" lon="6.51117">
        <ele>322.18</ele>
        <time>2016-04-12T10:41:00Z</time>
      </trkpt>
      <trkpt lat="43.41305" lon="6.511">
        <ele>324.58</ele>
        <time>2016-04-12T10:41:16Z</time>
      </trkpt>
      <trkpt lat="43.41294" lon="6.51086">
        <ele>326.5</ele>
        <time>2016-04-12T10:41:30Z</time>
      </trkpt>
      <trkpt lat="43.41282" lon="6.51073">
        <ele>327.95</ele>
        <time>2016-04-12T10:41:44Z</time>
      </trkpt>
      <trkpt lat="43.41268" lon="6.51062">
        <ele>328.91</ele>
        <time>2016-04-12T10:41:58Z</time>
      </trkpt>
      <trkpt lat="43.41256" lon="6.5105">
        <ele>328.91</ele>
        <time>2016-04-12T10:42:12Z</time>
      </trkpt>
      <trkpt lat="43.41245" lon="6.51036">
        <ele>329.87</ele>
        <time>2016-04-12T10:42:28Z</time>
      </trkpt>
      <trkpt lat="43.4124" lon="6.51034">
        <ele>329.87</ele>
        <time>2016-04-12T10:42:41Z</time>
      </trkpt>
      <trkpt lat="43.4124" lon="6.51034">
        <ele>329.87</ele>
        <time>2016-04-12T10:42:52Z</time>
      </trkpt>
      <trkpt lat="43.4124" lon="6.51034">
        <ele>330.35</ele>
        <time>2016-04-12T10:43:17Z</time>
      </trkpt>
      <trkpt lat="43.41237" lon="6.51036">
        <ele>330.35</ele>
        <time>2016-04-12T10:43:32Z</time>
      </trkpt>
      <trkpt lat="43.41236" lon="6.51039">
        <ele>330.35</ele>
        <time>2016-04-12T10:43:47Z</time>
      </trkpt>
      <trkpt lat="43.41236" lon="6.51039">
        <ele>329.87</ele>
        <time>2016-04-12T10:44:11Z</time>
      </trkpt>
      <trkpt lat="43.41236" lon="6.51039">
        <ele>330.83</ele>
        <time>2016-04-12T10:44:22Z</time>
      </trkpt>
      <trkpt lat="43.41233" lon="6.51035">
        <ele>330.83</ele>
        <time>2016-04-12T10:44:26Z</time>
      </trkpt>
      <trkpt lat="43.41223" lon="6.51032">
        <ele>330.83</ele>
        <time>2016-04-12T10:44:40Z</time>
      </trkpt>
      <trkpt lat="43.41209" lon="6.51024">
        <ele>329.87</ele>
        <time>2016-04-12T10:44:55Z</time>
      </trkpt>
      <trkpt lat="43.41201" lon="6.51012">
        <ele>330.35</ele>
        <time>2016-04-12T10:45:09Z</time>
      </trkpt>
      <trkpt lat="43.41198" lon="6.5101">
        <ele>330.35</ele>
        <time>2016-04-12T10:45:19Z</time>
      </trkpt>
      <trkpt lat="43.41197" lon="6.5101">
        <ele>331.31</ele>
        <time>2016-04-12T10:45:31Z</time>
      </trkpt>
      <trkpt lat="43.41196" lon="6.51011">
        <ele>331.31</ele>
        <time>2016-04-12T10:45:37Z</time>
      </trkpt>
      <trkpt lat="43.41196" lon="6.51015">
        <ele>330.83</ele>
        <time>2016-04-12T10:45:40Z</time>
      </trkpt>
      <trkpt lat="43.41195" lon="6.51021">
        <ele>330.83</ele>
        <time>2016-04-12T10:45:53Z</time>
      </trkpt>
      <trkpt lat="43.41195" lon="6.51021">
        <ele>330.83</ele>
        <time>2016-04-12T10:46:06Z</time>
      </trkpt>
      <trkpt lat="43.41192" lon="6.51021">
        <ele>330.35</ele>
        <time>2016-04-12T10:46:20Z</time>
      </trkpt>
      <trkpt lat="43.41191" lon="6.51021">
        <ele>330.35</ele>
        <time>2016-04-12T10:46:40Z</time>
      </trkpt>
      <trkpt lat="43.4119" lon="6.51021">
        <ele>330.35</ele>
        <time>2016-04-12T10:47:03Z</time>
      </trkpt>
      <trkpt lat="43.41191" lon="6.51018">
        <ele>330.35</ele>
        <time>2016-04-12T10:47:07Z</time>
      </trkpt>
      <trkpt lat="43.41195" lon="6.51009">
        <ele>331.31</ele>
        <time>2016-04-12T10:47:20Z</time>
      </trkpt>
      <trkpt lat="43.41194" lon="6.51006">
        <ele>330.35</ele>
        <time>2016-04-12T10:47:35Z</time>
      </trkpt>
      <trkpt lat="43.41193" lon="6.51003">
        <ele>330.35</ele>
        <time>2016-04-12T10:48:15Z</time>
      </trkpt>
      <trkpt lat="43.41192" lon="6.51002">
        <ele>330.83</ele>
        <time>2016-04-12T10:48:48Z</time>
      </trkpt>
      <trkpt lat="43.41191" lon="6.51001">
        <ele>330.83</ele>
        <time>2016-04-12T10:49:23Z</time>
      </trkpt>
      <trkpt lat="43.4119" lon="6.51">
        <ele>330.83</ele>
        <time>2016-04-12T10:49:59Z</time>
      </trkpt>
      <trkpt lat="43.4119" lon="6.51001">
        <ele>331.31</ele>
        <time>2016-04-12T10:50:36Z</time>
      </trkpt>
      <trkpt lat="43.4119" lon="6.51001">
        <ele>330.83</ele>
        <time>2016-04-12T10:51:13Z</time>
      </trkpt>
      <trkpt lat="43.41191" lon="6.51002">
        <ele>330.83</ele>
        <time>2016-04-12T10:51:47Z</time>
      </trkpt>
      <trkpt lat="43.41191" lon="6.51002">
        <ele>331.31</ele>
        <time>2016-04-12T10:52:21Z</time>
      </trkpt>
      <trkpt lat="43.4119" lon="6.51002">
        <ele>331.31</ele>
        <time>2016-04-12T10:52:59Z</time>
      </trkpt>
      <trkpt lat="43.4119" lon="6.51001">
        <ele>331.31</ele>
        <time>2016-04-12T10:53:38Z</time>
      </trkpt>
      <trkpt lat="43.4119" lon="6.51001">
        <ele>331.31</ele>
        <time>2016-04-12T10:54:15Z</time>
      </trkpt>
      <trkpt lat="43.4119" lon="6.51001">
        <ele>331.31</ele>
        <time>2016-04-12T10:54:50Z</time>
      </trkpt>
      <trkpt lat="43.4119" lon="6.51001">
        <ele>331.31</ele>
        <time>2016-04-12T10:55:26Z</time>
      </trkpt>
      <trkpt lat="43.4119" lon="6.51001">
        <ele>331.31</ele>
        <time>2016-04-12T10:56:02Z</time>
      </trkpt>
      <trkpt lat="43.41188" lon="6.51009">
        <ele>331.79</ele>
        <time>2016-04-12T10:56:15Z</time>
      </trkpt>
      <trkpt lat="43.41186" lon="6.51016">
        <ele>331.31</ele>
        <time>2016-04-12T10:56:26Z</time>
      </trkpt>
      <trkpt lat="43.41187" lon="6.51019">
        <ele>331.31</ele>
        <time>2016-04-12T10:56:39Z</time>
      </trkpt>
      <trkpt lat="43.41189" lon="6.51016">
        <ele>331.31</ele>
        <time>2016-04-12T10:56:48Z</time>
      </trkpt>
      <trkpt lat="43.4119" lon="6.51011">
        <ele>332.27</ele>
        <time>2016-04-12T10:57:01Z</time>
      </trkpt>
      <trkpt lat="43.4119" lon="6.51009">
        <ele>332.75</ele>
        <time>2016-04-12T10:57:19Z</time>
      </trkpt>
      <trkpt lat="43.41191" lon="6.51008">
        <ele>332.27</ele>
        <time>2016-04-12T10:57:27Z</time>
      </trkpt>
      <trkpt lat="43.41191" lon="6.51008">
        <ele>331.79</ele>
        <time>2016-04-12T10:57:37Z</time>
      </trkpt>
      <trkpt lat="43.41188" lon="6.51007">
        <ele>332.75</ele>
        <time>2016-04-12T10:57:57Z</time>
      </trkpt>
      <trkpt lat="43.41188" lon="6.51008">
        <ele>332.75</ele>
        <time>2016-04-12T10:58:31Z</time>
      </trkpt>
      <trkpt lat="43.41188" lon="6.51009">
        <ele>332.75</ele>
        <time>2016-04-12T10:58:52Z</time>
      </trkpt>
      <trkpt lat="43.4119" lon="6.51008">
        <ele>332.75</ele>
        <time>2016-04-12T10:59:06Z</time>
      </trkpt>
      <trkpt lat="43.41189" lon="6.51008">
        <ele>332.75</ele>
        <time>2016-04-12T10:59:30Z</time>
      </trkpt>
      <trkpt lat="43.4119" lon="6.51008">
        <ele>332.75</ele>
        <time>2016-04-12T11:00:05Z</time>
      </trkpt>
      <trkpt lat="43.41189" lon="6.51008">
        <ele>332.27</ele>
        <time>2016-04-12T11:00:32Z</time>
      </trkpt>
      <trkpt lat="43.41189" lon="6.51007">
        <ele>332.75</ele>
        <time>2016-04-12T11:00:54Z</time>
      </trkpt>
      <trkpt lat="43.41189" lon="6.51007">
        <ele>332.27</ele>
        <time>2016-04-12T11:01:21Z</time>
      </trkpt>
      <trkpt lat="43.41189" lon="6.51008">
        <ele>332.75</ele>
        <time>2016-04-12T11:02:02Z</time>
      </trkpt>
      <trkpt lat="43.41189" lon="6.51008">
        <ele>332.75</ele>
        <time>2016-04-12T11:02:36Z</time>
      </trkpt>
      <trkpt lat="43.41189" lon="6.51008">
        <ele>332.27</ele>
        <time>2016-04-12T11:02:56Z</time>
      </trkpt>
      <trkpt lat="43.41189" lon="6.51007">
        <ele>332.75</ele>
        <time>2016-04-12T11:03:17Z</time>
      </trkpt>
      <trkpt lat="43.41189" lon="6.51007">
        <ele>332.75</ele>
        <time>2016-04-12T11:03:39Z</time>
      </trkpt>
      <trkpt lat="43.41189" lon="6.51006">
        <ele>332.75</ele>
        <time>2016-04-12T11:04:03Z</time>
      </trkpt>
      <trkpt lat="43.41189" lon="6.51006">
        <ele>332.75</ele>
        <time>2016-04-12T11:04:22Z</time>
      </trkpt>
      <trkpt lat="43.41189" lon="6.51006">
        <ele>332.75</ele>
        <time>2016-04-12T11:04:46Z</time>
      </trkpt>
      <trkpt lat="43.41189" lon="6.51006">
        <ele>332.27</ele>
        <time>2016-04-12T11:05:22Z</time>
      </trkpt>
      <trkpt lat="43.41189" lon="6.51005">
        <ele>332.27</ele>
        <time>2016-04-12T11:05:58Z</time>
      </trkpt>
      <trkpt lat="43.41188" lon="6.51005">
        <ele>332.27</ele>
        <time>2016-04-12T11:06:19Z</time>
      </trkpt>
      <trkpt lat="43.41189" lon="6.51005">
        <ele>332.75</ele>
        <time>2016-04-12T11:06:57Z</time>
      </trkpt>
      <trkpt lat="43.41188" lon="6.51004">
        <ele>332.27</ele>
        <time>2016-04-12T11:07:11Z</time>
      </trkpt>
      <trkpt lat="43.41188" lon="6.51004">
        <ele>332.27</ele>
        <time>2016-04-12T11:07:32Z</time>
      </trkpt>
      <trkpt lat="43.41189" lon="6.51004">
        <ele>332.27</ele>
        <time>2016-04-12T11:08:06Z</time>
      </trkpt>
      <trkpt lat="43.41189" lon="6.51004">
        <ele>331.79</ele>
        <time>2016-04-12T11:08:30Z</time>
      </trkpt>
      <trkpt lat="43.41188" lon="6.51004">
        <ele>332.27</ele>
        <time>2016-04-12T11:08:55Z</time>
      </trkpt>
      <trkpt lat="43.41188" lon="6.51004">
        <ele>331.79</ele>
        <time>2016-04-12T11:09:21Z</time>
      </trkpt>
      <trkpt lat="43.41189" lon="6.51006">
        <ele>331.79</ele>
        <time>2016-04-12T11:09:42Z</time>
      </trkpt>
      <trkpt lat="43.41187" lon="6.51008">
        <ele>331.79</ele>
        <time>2016-04-12T11:09:49Z</time>
      </trkpt>
      <trkpt lat="43.41189" lon="6.51014">
        <ele>331.31</ele>
        <time>2016-04-12T11:10:01Z</time>
      </trkpt>
      <trkpt lat="43.41191" lon="6.51016">
        <ele>331.31</ele>
        <time>2016-04-12T11:10:08Z</time>
      </trkpt>
      <trkpt lat="43.41191" lon="6.51017">
        <ele>331.31</ele>
        <time>2016-04-12T11:10:23Z</time>
      </trkpt>
      <trkpt lat="43.41192" lon="6.51012">
        <ele>331.79</ele>
        <time>2016-04-12T11:10:27Z</time>
      </trkpt>
      <trkpt lat="43.41192" lon="6.51009">
        <ele>331.79</ele>
        <time>2016-04-12T11:10:42Z</time>
      </trkpt>
      <trkpt lat="43.41193" lon="6.51008">
        <ele>331.31</ele>
        <time>2016-04-12T11:11:05Z</time>
      </trkpt>
      <trkpt lat="43.41199" lon="6.51005">
        <ele>330.83</ele>
        <time>2016-04-12T11:11:12Z</time>
      </trkpt>
      <trkpt lat="43.41203" lon="6.51001">
        <ele>330.83</ele>
        <time>2016-04-12T11:11:17Z</time>
      </trkpt>
      <trkpt lat="43.41211" lon="6.50987">
        <ele>330.35</ele>
        <time>2016-04-12T11:11:28Z</time>
      </trkpt>
      <trkpt lat="43.41218" lon="6.50973">
        <ele>330.35</ele>
        <time>2016-04-12T11:11:40Z</time>
      </trkpt>
      <trkpt lat="43.4122" lon="6.50971">
        <ele>330.83</ele>
        <time>2016-04-12T11:11:42Z</time>
      </trkpt>
      <trkpt lat="43.4123" lon="6.50958">
        <ele>330.83</ele>
        <time>2016-04-12T11:11:55Z</time>
      </trkpt>
      <trkpt lat="43.4123" lon="6.50946">
        <ele>331.79</ele>
        <time>2016-04-12T11:12:08Z</time>
      </trkpt>
      <trkpt lat="43.4123" lon="6.50946">
        <ele>332.27</ele>
        <time>2016-04-12T11:12:15Z</time>
      </trkpt>
      <trkpt lat="43.41234" lon="6.50944">
        <ele>330.83</ele>
        <time>2016-04-12T11:12:19Z</time>
      </trkpt>
      <trkpt lat="43.41237" lon="6.50944">
        <ele>331.31</ele>
        <time>2016-04-12T11:12:23Z</time>
      </trkpt>
      <trkpt lat="43.41237" lon="6.50941">
        <ele>331.31</ele>
        <time>2016-04-12T11:12:26Z</time>
      </trkpt>
      <trkpt lat="43.41237" lon="6.50933">
        <ele>331.31</ele>
        <time>2016-04-12T11:12:44Z</time>
      </trkpt>
      <trkpt lat="43.41237" lon="6.50932">
        <ele>331.31</ele>
        <time>2016-04-12T11:12:52Z</time>
      </trkpt>
      <trkpt lat="43.41239" lon="6.50925">
        <ele>330.83</ele>
        <time>2016-04-12T11:12:57Z</time>
      </trkpt>
      <trkpt lat="43.41234" lon="6.50917">
        <ele>330.83</ele>
        <time>2016-04-12T11:13:06Z</time>
      </trkpt>
      <trkpt lat="43.41231" lon="6.50917">
        <ele>330.83</ele>
        <time>2016-04-12T11:13:08Z</time>
      </trkpt>
      <trkpt lat="43.41224" lon="6.50925">
        <ele>331.31</ele>
        <time>2016-04-12T11:13:22Z</time>
      </trkpt>
      <trkpt lat="43.41223" lon="6.50925">
        <ele>331.31</ele>
        <time>2016-04-12T11:13:26Z</time>
      </trkpt>
      <trkpt lat="43.41222" lon="6.50932">
        <ele>331.31</ele>
        <time>2016-04-12T11:13:39Z</time>
      </trkpt>
      <trkpt lat="43.41222" lon="6.5094">
        <ele>331.31</ele>
        <time>2016-04-12T11:13:50Z</time>
      </trkpt>
      <trkpt lat="43.41222" lon="6.50943">
        <ele>331.31</ele>
        <time>2016-04-12T11:14:03Z</time>
      </trkpt>
      <trkpt lat="43.41224" lon="6.50944">
        <ele>331.31</ele>
        <time>2016-04-12T11:14:16Z</time>
      </trkpt>
      <trkpt lat="43.41223" lon="6.50947">
        <ele>331.79</ele>
        <time>2016-04-12T11:14:35Z</time>
      </trkpt>
      <trkpt lat="43.41226" lon="6.50948">
        <ele>331.79</ele>
        <time>2016-04-12T11:15:03Z</time>
      </trkpt>
      <trkpt lat="43.41226" lon="6.50948">
        <ele>331.79</ele>
        <time>2016-04-12T11:15:25Z</time>
      </trkpt>
      <trkpt lat="43.41226" lon="6.50948">
        <ele>331.31</ele>
        <time>2016-04-12T11:15:45Z</time>
      </trkpt>
      <trkpt lat="43.41227" lon="6.50947">
        <ele>331.79</ele>
        <time>2016-04-12T11:16:09Z</time>
      </trkpt>
      <trkpt lat="43.41226" lon="6.50947">
        <ele>331.79</ele>
        <time>2016-04-12T11:16:27Z</time>
      </trkpt>
      <trkpt lat="43.41227" lon="6.50947">
        <ele>331.79</ele>
        <time>2016-04-12T11:16:45Z</time>
      </trkpt>
      <trkpt lat="43.41226" lon="6.50946">
        <ele>332.27</ele>
        <time>2016-04-12T11:17:01Z</time>
      </trkpt>
      <trkpt lat="43.41224" lon="6.5095">
        <ele>331.79</ele>
        <time>2016-04-12T11:17:14Z</time>
      </trkpt>
      <trkpt lat="43.41224" lon="6.50956">
        <ele>331.31</ele>
        <time>2016-04-12T11:17:25Z</time>
      </trkpt>
      <trkpt lat="43.41224" lon="6.50956">
        <ele>331.31</ele>
        <time>2016-04-12T11:17:29Z</time>
      </trkpt>
      <trkpt lat="43.41229" lon="6.50951">
        <ele>331.31</ele>
        <time>2016-04-12T11:17:41Z</time>
      </trkpt>
      <trkpt lat="43.41229" lon="6.50951">
        <ele>331.31</ele>
        <time>2016-04-12T11:17:44Z</time>
      </trkpt>
      <trkpt lat="43.41231" lon="6.5095">
        <ele>331.31</ele>
        <time>2016-04-12T11:17:47Z</time>
      </trkpt>
      <trkpt lat="43.41236" lon="6.50945">
        <ele>331.31</ele>
        <time>2016-04-12T11:17:59Z</time>
      </trkpt>
      <trkpt lat="43.4124" lon="6.50935">
        <ele>331.31</ele>
        <time>2016-04-12T11:18:13Z</time>
      </trkpt>
      <trkpt lat="43.4124" lon="6.50936">
        <ele>331.79</ele>
        <time>2016-04-12T11:18:34Z</time>
      </trkpt>
      <trkpt lat="43.41242" lon="6.50944">
        <ele>330.83</ele>
        <time>2016-04-12T11:18:49Z</time>
      </trkpt>
      <trkpt lat="43.41239" lon="6.50947">
        <ele>331.31</ele>
        <time>2016-04-12T11:19:02Z</time>
      </trkpt>
      <trkpt lat="43.41238" lon="6.50945">
        <ele>331.79</ele>
        <time>2016-04-12T11:19:07Z</time>
      </trkpt>
      <trkpt lat="43.41234" lon="6.50941">
        <ele>331.31</ele>
        <time>2016-04-12T11:19:11Z</time>
      </trkpt>
      <trkpt lat="43.41233" lon="6.50934">
        <ele>331.79</ele>
        <time>2016-04-12T11:19:23Z</time>
      </trkpt>
      <trkpt lat="43.41233" lon="6.5093">
        <ele>332.27</ele>
        <time>2016-04-12T11:19:36Z</time>
      </trkpt>
      <trkpt lat="43.41229" lon="6.50927">
        <ele>332.75</ele>
        <time>2016-04-12T11:19:47Z</time>
      </trkpt>
      <trkpt lat="43.41226" lon="6.50932">
        <ele>331.79</ele>
        <time>2016-04-12T11:19:57Z</time>
      </trkpt>
      <trkpt lat="43.41227" lon="6.50937">
        <ele>332.27</ele>
        <time>2016-04-12T11:20:09Z</time>
      </trkpt>
      <trkpt lat="43.41229" lon="6.50948">
        <ele>331.79</ele>
        <time>2016-04-12T11:20:22Z</time>
      </trkpt>
      <trkpt lat="43.41227" lon="6.50948">
        <ele>332.27</ele>
        <time>2016-04-12T11:20:34Z</time>
      </trkpt>
      <trkpt lat="43.41224" lon="6.50948">
        <ele>332.75</ele>
        <time>2016-04-12T11:20:48Z</time>
      </trkpt>
      <trkpt lat="43.41224" lon="6.50949">
        <ele>332.27</ele>
        <time>2016-04-12T11:21:02Z</time>
      </trkpt>
      <trkpt lat="43.41224" lon="6.50949">
        <ele>332.75</ele>
        <time>2016-04-12T11:21:23Z</time>
      </trkpt>
      <trkpt lat="43.41225" lon="6.5095">
        <ele>332.27</ele>
        <time>2016-04-12T11:21:38Z</time>
      </trkpt>
      <trkpt lat="43.41224" lon="6.50951">
        <ele>332.75</ele>
        <time>2016-04-12T11:21:54Z</time>
      </trkpt>
      <trkpt lat="43.41226" lon="6.50954">
        <ele>331.79</ele>
        <time>2016-04-12T11:22:01Z</time>
      </trkpt>
      <trkpt lat="43.41231" lon="6.50949">
        <ele>331.79</ele>
        <time>2016-04-12T11:22:11Z</time>
      </trkpt>
      <trkpt lat="43.41229" lon="6.50952">
        <ele>331.79</ele>
        <time>2016-04-12T11:22:21Z</time>
      </trkpt>
      <trkpt lat="43.41224" lon="6.50958">
        <ele>331.79</ele>
        <time>2016-04-12T11:22:26Z</time>
      </trkpt>
      <trkpt lat="43.41219" lon="6.50965">
        <ele>331.31</ele>
        <time>2016-04-12T11:22:36Z</time>
      </trkpt>
      <trkpt lat="43.41217" lon="6.50967">
        <ele>331.31</ele>
        <time>2016-04-12T11:22:38Z</time>
      </trkpt>
      <trkpt lat="43.41216" lon="6.50978">
        <ele>331.31</ele>
        <time>2016-04-12T11:22:51Z</time>
      </trkpt>
      <trkpt lat="43.41216" lon="6.50978">
        <ele>331.31</ele>
        <time>2016-04-12T11:22:54Z</time>
      </trkpt>
      <trkpt lat="43.41211" lon="6.50979">
        <ele>331.31</ele>
        <time>2016-04-12T11:23:00Z</time>
      </trkpt>
      <trkpt lat="43.41203" lon="6.50992">
        <ele>331.31</ele>
        <time>2016-04-12T11:23:14Z</time>
      </trkpt>
      <trkpt lat="43.41198" lon="6.51004">
        <ele>331.79</ele>
        <time>2016-04-12T11:23:26Z</time>
      </trkpt>
      <trkpt lat="43.41193" lon="6.51004">
        <ele>332.27</ele>
        <time>2016-04-12T11:23:35Z</time>
      </trkpt>
      <trkpt lat="43.4119" lon="6.51008">
        <ele>332.27</ele>
        <time>2016-04-12T11:23:48Z</time>
      </trkpt>
      <trkpt lat="43.4119" lon="6.51008">
        <ele>332.27</ele>
        <time>2016-04-12T11:24:12Z</time>
      </trkpt>
      <trkpt lat="43.41191" lon="6.51009">
        <ele>332.27</ele>
        <time>2016-04-12T11:24:41Z</time>
      </trkpt>
      <trkpt lat="43.41191" lon="6.51009">
        <ele>332.75</ele>
        <time>2016-04-12T11:25:09Z</time>
      </trkpt>
      <trkpt lat="43.41191" lon="6.51009">
        <ele>332.75</ele>
        <time>2016-04-12T11:25:35Z</time>
      </trkpt>
      <trkpt lat="43.41191" lon="6.51009">
        <ele>332.75</ele>
        <time>2016-04-12T11:25:53Z</time>
      </trkpt>
      <trkpt lat="43.41191" lon="6.51009">
        <ele>332.75</ele>
        <time>2016-04-12T11:26:12Z</time>
      </trkpt>
      <trkpt lat="43.41191" lon="6.51009">
        <ele>333.23</ele>
        <time>2016-04-12T11:26:40Z</time>
      </trkpt>
      <trkpt lat="43.41191" lon="6.51011">
        <ele>333.23</ele>
        <time>2016-04-12T11:27:09Z</time>
      </trkpt>
      <trkpt lat="43.4119" lon="6.5101">
        <ele>333.23</ele>
        <time>2016-04-12T11:27:40Z</time>
      </trkpt>
      <trkpt lat="43.41191" lon="6.5101">
        <ele>333.23</ele>
        <time>2016-04-12T11:28:02Z</time>
      </trkpt>
      <trkpt lat="43.41191" lon="6.5101">
        <ele>333.23</ele>
        <time>2016-04-12T11:28:30Z</time>
      </trkpt>
      <trkpt lat="43.41191" lon="6.5101">
        <ele>333.71</ele>
        <time>2016-04-12T11:29:07Z</time>
      </trkpt>
      <trkpt lat="43.41191" lon="6.5101">
        <ele>333.71</ele>
        <time>2016-04-12T11:29:23Z</time>
      </trkpt>
      <trkpt lat="43.41191" lon="6.51009">
        <ele>333.71</ele>
        <time>2016-04-12T11:29:34Z</time>
      </trkpt>
      <trkpt lat="43.4119" lon="6.51011">
        <ele>333.71</ele>
        <time>2016-04-12T11:29:49Z</time>
      </trkpt>
      <trkpt lat="43.41195" lon="6.51017">
        <ele>333.71</ele>
        <time>2016-04-12T11:30:02Z</time>
      </trkpt>
      <trkpt lat="43.41195" lon="6.51018">
        <ele>333.71</ele>
        <time>2016-04-12T11:30:24Z</time>
      </trkpt>
      <trkpt lat="43.41195" lon="6.51018">
        <ele>333.71</ele>
        <time>2016-04-12T11:30:53Z</time>
      </trkpt>
      <trkpt lat="43.41195" lon="6.51018">
        <ele>334.2</ele>
        <time>2016-04-12T11:31:12Z</time>
      </trkpt>
      <trkpt lat="43.41195" lon="6.51018">
        <ele>334.2</ele>
        <time>2016-04-12T11:31:39Z</time>
      </trkpt>
      <trkpt lat="43.41195" lon="6.51018">
        <ele>334.2</ele>
        <time>2016-04-12T11:31:43Z</time>
      </trkpt>
      <trkpt lat="43.41203" lon="6.51022">
        <ele>333.71</ele>
        <time>2016-04-12T11:31:54Z</time>
      </trkpt>
      <trkpt lat="43.41206" lon="6.51024">
        <ele>333.71</ele>
        <time>2016-04-12T11:31:58Z</time>
      </trkpt>
      <trkpt lat="43.41209" lon="6.51025">
        <ele>333.71</ele>
        <time>2016-04-12T11:32:01Z</time>
      </trkpt>
      <trkpt lat="43.41224" lon="6.5103">
        <ele>334.2</ele>
        <time>2016-04-12T11:32:16Z</time>
      </trkpt>
      <trkpt lat="43.41238" lon="6.5103">
        <ele>334.2</ele>
        <time>2016-04-12T11:32:30Z</time>
      </trkpt>
      <trkpt lat="43.41248" lon="6.51029">
        <ele>333.71</ele>
        <time>2016-04-12T11:32:42Z</time>
      </trkpt>
      <trkpt lat="43.41254" lon="6.51027">
        <ele>333.23</ele>
        <time>2016-04-12T11:32:55Z</time>
      </trkpt>
      <trkpt lat="43.41257" lon="6.51026">
        <ele>333.23</ele>
        <time>2016-04-12T11:33:10Z</time>
      </trkpt>
      <trkpt lat="43.41262" lon="6.51027">
        <ele>332.75</ele>
        <time>2016-04-12T11:33:15Z</time>
      </trkpt>
      <trkpt lat="43.4127" lon="6.51025">
        <ele>331.79</ele>
        <time>2016-04-12T11:33:24Z</time>
      </trkpt>
      <trkpt lat="43.41282" lon="6.51021">
        <ele>330.83</ele>
        <time>2016-04-12T11:33:38Z</time>
      </trkpt>
      <trkpt lat="43.41294" lon="6.51018">
        <ele>330.35</ele>
        <time>2016-04-12T11:33:52Z</time>
      </trkpt>
      <trkpt lat="43.41297" lon="6.51018">
        <ele>330.35</ele>
        <time>2016-04-12T11:33:55Z</time>
      </trkpt>
      <trkpt lat="43.41309" lon="6.5101">
        <ele>330.35</ele>
        <time>2016-04-12T11:34:09Z</time>
      </trkpt>
      <trkpt lat="43.41322" lon="6.51">
        <ele>330.35</ele>
        <time>2016-04-12T11:34:22Z</time>
      </trkpt>
      <trkpt lat="43.41335" lon="6.50989">
        <ele>328.91</ele>
        <time>2016-04-12T11:34:36Z</time>
      </trkpt>
      <trkpt lat="43.41343" lon="6.50978">
        <ele>327.47</ele>
        <time>2016-04-12T11:34:48Z</time>
      </trkpt>
      <trkpt lat="43.41344" lon="6.50977">
        <ele>327.47</ele>
        <time>2016-04-12T11:34:49Z</time>
      </trkpt>
      <trkpt lat="43.41351" lon="6.50968">
        <ele>326.5</ele>
        <time>2016-04-12T11:34:59Z</time>
      </trkpt>
      <trkpt lat="43.41352" lon="6.50965">
        <ele>326.02</ele>
        <time>2016-04-12T11:35:02Z</time>
      </trkpt>
      <trkpt lat="43.4136" lon="6.50949">
        <ele>325.54</ele>
        <time>2016-04-12T11:35:16Z</time>
      </trkpt>
      <trkpt lat="43.41365" lon="6.50934">
        <ele>324.58</ele>
        <time>2016-04-12T11:35:29Z</time>
      </trkpt>
      <trkpt lat="43.41366" lon="6.5093">
        <ele>324.1</ele>
        <time>2016-04-12T11:35:32Z</time>
      </trkpt>
      <trkpt lat="43.41366" lon="6.50928">
        <ele>324.1</ele>
        <time>2016-04-12T11:35:34Z</time>
      </trkpt>
      <trkpt lat="43.41369" lon="6.50918">
        <ele>323.14</ele>
        <time>2016-04-12T11:35:42Z</time>
      </trkpt>
      <trkpt lat="43.41372" lon="6.50909">
        <ele>322.18</ele>
        <time>2016-04-12T11:35:51Z</time>
      </trkpt>
      <trkpt lat="43.41375" lon="6.50902">
        <ele>321.7</ele>
        <time>2016-04-12T11:35:57Z</time>
      </trkpt>
      <trkpt lat="43.41381" lon="6.50887">
        <ele>319.78</ele>
        <time>2016-04-12T11:36:11Z</time>
      </trkpt>
      <trkpt lat="43.41382" lon="6.50885">
        <ele>319.3</ele>
        <time>2016-04-12T11:36:13Z</time>
      </trkpt>
      <trkpt lat="43.41386" lon="6.50881">
        <ele>318.81</ele>
        <time>2016-04-12T11:36:18Z</time>
      </trkpt>
      <trkpt lat="43.41395" lon="6.50871">
        <ele>317.37</ele>
        <time>2016-04-12T11:36:31Z</time>
      </trkpt>
      <trkpt lat="43.41404" lon="6.50861">
        <ele>315.93</ele>
        <time>2016-04-12T11:36:42Z</time>
      </trkpt>
      <trkpt lat="43.41414" lon="6.50851">
        <ele>314.49</ele>
        <time>2016-04-12T11:36:55Z</time>
      </trkpt>
      <trkpt lat="43.41415" lon="6.5085">
        <ele>314.01</ele>
        <time>2016-04-12T11:36:56Z</time>
      </trkpt>
      <trkpt lat="43.41416" lon="6.50847">
        <ele>314.01</ele>
        <time>2016-04-12T11:36:58Z</time>
      </trkpt>
      <trkpt lat="43.41427" lon="6.50839">
        <ele>312.09</ele>
        <time>2016-04-12T11:37:14Z</time>
      </trkpt>
      <trkpt lat="43.41435" lon="6.50833">
        <ele>310.16</ele>
        <time>2016-04-12T11:37:25Z</time>
      </trkpt>
      <trkpt lat="43.41439" lon="6.5083">
        <ele>308.72</ele>
        <time>2016-04-12T11:37:30Z</time>
      </trkpt>
      <trkpt lat="43.4144" lon="6.50829">
        <ele>308.72</ele>
        <time>2016-04-12T11:37:32Z</time>
      </trkpt>
      <trkpt lat="43.41451" lon="6.50824">
        <ele>306.32</ele>
        <time>2016-04-12T11:37:45Z</time>
      </trkpt>
      <trkpt lat="43.41461" lon="6.50817">
        <ele>303.91</ele>
        <time>2016-04-12T11:37:58Z</time>
      </trkpt>
      <trkpt lat="43.41472" lon="6.50809">
        <ele>302.47</ele>
        <time>2016-04-12T11:38:11Z</time>
      </trkpt>
      <trkpt lat="43.41476" lon="6.50802">
        <ele>301.03</ele>
        <time>2016-04-12T11:38:28Z</time>
      </trkpt>
      <trkpt lat="43.41476" lon="6.50801">
        <ele>301.03</ele>
        <time>2016-04-12T11:38:32Z</time>
      </trkpt>
      <trkpt lat="43.41481" lon="6.50801">
        <ele>301.51</ele>
        <time>2016-04-12T11:38:38Z</time>
      </trkpt>
      <trkpt lat="43.41493" lon="6.50794">
        <ele>300.07</ele>
        <time>2016-04-12T11:38:51Z</time>
      </trkpt>
      <trkpt lat="43.415" lon="6.5079">
        <ele>300.07</ele>
        <time>2016-04-12T11:38:58Z</time>
      </trkpt>
      <trkpt lat="43.41505" lon="6.50787">
        <ele>299.59</ele>
        <time>2016-04-12T11:39:03Z</time>
      </trkpt>
      <trkpt lat="43.41513" lon="6.50781">
        <ele>299.11</ele>
        <time>2016-04-12T11:39:17Z</time>
      </trkpt>
      <trkpt lat="43.41524" lon="6.50775">
        <ele>297.67</ele>
        <time>2016-04-12T11:39:29Z</time>
      </trkpt>
      <trkpt lat="43.41531" lon="6.50776">
        <ele>297.18</ele>
        <time>2016-04-12T11:39:41Z</time>
      </trkpt>
      <trkpt lat="43.41537" lon="6.5078">
        <ele>296.7</ele>
        <time>2016-04-12T11:39:53Z</time>
      </trkpt>
      <trkpt lat="43.41537" lon="6.50783">
        <ele>296.7</ele>
        <time>2016-04-12T11:39:56Z</time>
      </trkpt>
      <trkpt lat="43.41539" lon="6.50787">
        <ele>296.7</ele>
        <time>2016-04-12T11:40:10Z</time>
      </trkpt>
      <trkpt lat="43.41539" lon="6.50787">
        <ele>296.7</ele>
        <time>2016-04-12T11:40:27Z</time>
      </trkpt>
      <trkpt lat="43.41539" lon="6.50788">
        <ele>296.7</ele>
        <time>2016-04-12T11:40:49Z</time>
      </trkpt>
      <trkpt lat="43.41539" lon="6.50788">
        <ele>296.7</ele>
        <time>2016-04-12T11:41:02Z</time>
      </trkpt>
      <trkpt lat="43.41539" lon="6.50787">
        <ele>296.7</ele>
        <time>2016-04-12T11:41:22Z</time>
      </trkpt>
      <trkpt lat="43.41539" lon="6.50787">
        <ele>296.7</ele>
        <time>2016-04-12T11:41:45Z</time>
      </trkpt>
      <trkpt lat="43.41539" lon="6.50786">
        <ele>296.22</ele>
        <time>2016-04-12T11:42:23Z</time>
      </trkpt>
      <trkpt lat="43.41538" lon="6.50786">
        <ele>296.7</ele>
        <time>2016-04-12T11:42:54Z</time>
      </trkpt>
      <trkpt lat="43.41538" lon="6.50786">
        <ele>296.7</ele>
        <time>2016-04-12T11:43:00Z</time>
      </trkpt>
      <trkpt lat="43.41539" lon="6.50779">
        <ele>296.7</ele>
        <time>2016-04-12T11:43:13Z</time>
      </trkpt>
      <trkpt lat="43.41538" lon="6.50776">
        <ele>296.7</ele>
        <time>2016-04-12T11:43:26Z</time>
      </trkpt>
      <trkpt lat="43.41538" lon="6.50774">
        <ele>296.22</ele>
        <time>2016-04-12T11:43:43Z</time>
      </trkpt>
      <trkpt lat="43.4154" lon="6.50766">
        <ele>296.22</ele>
        <time>2016-04-12T11:43:51Z</time>
      </trkpt>
      <trkpt lat="43.4154" lon="6.50761">
        <ele>295.74</ele>
        <time>2016-04-12T11:44:03Z</time>
      </trkpt>
      <trkpt lat="43.41542" lon="6.50758">
        <ele>295.74</ele>
        <time>2016-04-12T11:44:25Z</time>
      </trkpt>
      <trkpt lat="43.41551" lon="6.5075">
        <ele>294.78</ele>
        <time>2016-04-12T11:44:39Z</time>
      </trkpt>
      <trkpt lat="43.41561" lon="6.50741">
        <ele>293.34</ele>
        <time>2016-04-12T11:44:54Z</time>
      </trkpt>
      <trkpt lat="43.41571" lon="6.50732">
        <ele>291.9</ele>
        <time>2016-04-12T11:45:09Z</time>
      </trkpt>
      <trkpt lat="43.41582" lon="6.50723">
        <ele>289.97</ele>
        <time>2016-04-12T11:45:26Z</time>
      </trkpt>
      <trkpt lat="43.4159" lon="6.50716">
        <ele>288.05</ele>
        <time>2016-04-12T11:45:41Z</time>
      </trkpt>
      <trkpt lat="43.41596" lon="6.50712">
        <ele>286.61</ele>
        <time>2016-04-12T11:45:50Z</time>
      </trkpt>
      <trkpt lat="43.41605" lon="6.50705">
        <ele>284.69</ele>
        <time>2016-04-12T11:46:04Z</time>
      </trkpt>
      <trkpt lat="43.41608" lon="6.50701">
        <ele>283.73</ele>
        <time>2016-04-12T11:46:10Z</time>
      </trkpt>
      <trkpt lat="43.41613" lon="6.50697">
        <ele>282.77</ele>
        <time>2016-04-12T11:46:17Z</time>
      </trkpt>
      <trkpt lat="43.41623" lon="6.50686">
        <ele>281.8</ele>
        <time>2016-04-12T11:46:32Z</time>
      </trkpt>
      <trkpt lat="43.41632" lon="6.50676">
        <ele>278.44</ele>
        <time>2016-04-12T11:46:50Z</time>
      </trkpt>
      <trkpt lat="43.4164" lon="6.50672">
        <ele>277</ele>
        <time>2016-04-12T11:47:03Z</time>
      </trkpt>
      <trkpt lat="43.41649" lon="6.50666">
        <ele>274.59</ele>
        <time>2016-04-12T11:47:16Z</time>
      </trkpt>
      <trkpt lat="43.41658" lon="6.5066">
        <ele>272.19</ele>
        <time>2016-04-12T11:47:30Z</time>
      </trkpt>
      <trkpt lat="43.41664" lon="6.50655">
        <ele>270.75</ele>
        <time>2016-04-12T11:47:39Z</time>
      </trkpt>
      <trkpt lat="43.41673" lon="6.50648">
        <ele>269.31</ele>
        <time>2016-04-12T11:47:53Z</time>
      </trkpt>
      <trkpt lat="43.4168" lon="6.50641">
        <ele>267.86</ele>
        <time>2016-04-12T11:48:06Z</time>
      </trkpt>
      <trkpt lat="43.41688" lon="6.50636">
        <ele>266.42</ele>
        <time>2016-04-12T11:48:17Z</time>
      </trkpt>
      <trkpt lat="43.41694" lon="6.50623">
        <ele>264.98</ele>
        <time>2016-04-12T11:48:31Z</time>
      </trkpt>
      <trkpt lat="43.41697" lon="6.50619">
        <ele>264.98</ele>
        <time>2016-04-12T11:48:35Z</time>
      </trkpt>
      <trkpt lat="43.41706" lon="6.50609">
        <ele>264.02</ele>
        <time>2016-04-12T11:48:50Z</time>
      </trkpt>
      <trkpt lat="43.41718" lon="6.506">
        <ele>262.58</ele>
        <time>2016-04-12T11:49:07Z</time>
      </trkpt>
      <trkpt lat="43.41727" lon="6.50594">
        <ele>262.1</ele>
        <time>2016-04-12T11:49:20Z</time>
      </trkpt>
      <trkpt lat="43.41737" lon="6.50587">
        <ele>261.62</ele>
        <time>2016-04-12T11:49:35Z</time>
      </trkpt>
      <trkpt lat="43.41748" lon="6.50577">
        <ele>261.14</ele>
        <time>2016-04-12T11:49:50Z</time>
      </trkpt>
      <trkpt lat="43.41756" lon="6.50571">
        <ele>261.14</ele>
        <time>2016-04-12T11:50:01Z</time>
      </trkpt>
      <trkpt lat="43.41765" lon="6.50565">
        <ele>261.14</ele>
        <time>2016-04-12T11:50:13Z</time>
      </trkpt>
      <trkpt lat="43.41772" lon="6.50562">
        <ele>260.65</ele>
        <time>2016-04-12T11:50:22Z</time>
      </trkpt>
      <trkpt lat="43.41784" lon="6.50556">
        <ele>260.17</ele>
        <time>2016-04-12T11:50:35Z</time>
      </trkpt>
      <trkpt lat="43.41786" lon="6.50556">
        <ele>259.69</ele>
        <time>2016-04-12T11:50:37Z</time>
      </trkpt>
      <trkpt lat="43.41798" lon="6.50553">
        <ele>259.21</ele>
        <time>2016-04-12T11:50:51Z</time>
      </trkpt>
      <trkpt lat="43.4181" lon="6.50554">
        <ele>258.25</ele>
        <time>2016-04-12T11:51:03Z</time>
      </trkpt>
      <trkpt lat="43.41814" lon="6.50554">
        <ele>257.77</ele>
        <time>2016-04-12T11:51:07Z</time>
      </trkpt>
      <trkpt lat="43.41826" lon="6.50558">
        <ele>256.81</ele>
        <time>2016-04-12T11:51:20Z</time>
      </trkpt>
      <trkpt lat="43.41838" lon="6.50562">
        <ele>255.85</ele>
        <time>2016-04-12T11:51:34Z</time>
      </trkpt>
      <trkpt lat="43.41846" lon="6.50566">
        <ele>255.37</ele>
        <time>2016-04-12T11:51:42Z</time>
      </trkpt>
      <trkpt lat="43.41859" lon="6.50573">
        <ele>254.41</ele>
        <time>2016-04-12T11:51:56Z</time>
      </trkpt>
      <trkpt lat="43.4187" lon="6.50578">
        <ele>252.48</ele>
        <time>2016-04-12T11:52:08Z</time>
      </trkpt>
      <trkpt lat="43.41878" lon="6.50583">
        <ele>252</ele>
        <time>2016-04-12T11:52:17Z</time>
      </trkpt>
      <trkpt lat="43.4188" lon="6.50584">
        <ele>252.48</ele>
        <time>2016-04-12T11:52:19Z</time>
      </trkpt>
      <trkpt lat="43.41892" lon="6.50591">
        <ele>250.56</ele>
        <time>2016-04-12T11:52:33Z</time>
      </trkpt>
      <trkpt lat="43.41906" lon="6.50597">
        <ele>249.6</ele>
        <time>2016-04-12T11:52:47Z</time>
      </trkpt>
      <trkpt lat="43.41919" lon="6.50602">
        <ele>249.12</ele>
        <time>2016-04-12T11:53:01Z</time>
      </trkpt>
      <trkpt lat="43.41925" lon="6.50603">
        <ele>249.12</ele>
        <time>2016-04-12T11:53:09Z</time>
      </trkpt>
      <trkpt lat="43.4193" lon="6.50604">
        <ele>248.64</ele>
        <time>2016-04-12T11:53:14Z</time>
      </trkpt>
      <trkpt lat="43.41944" lon="6.50606">
        <ele>248.64</ele>
        <time>2016-04-12T11:53:28Z</time>
      </trkpt>
      <trkpt lat="43.41956" lon="6.50608">
        <ele>248.64</ele>
        <time>2016-04-12T11:53:41Z</time>
      </trkpt>
      <trkpt lat="43.41968" lon="6.50609">
        <ele>248.64</ele>
        <time>2016-04-12T11:53:53Z</time>
      </trkpt>
      <trkpt lat="43.4198" lon="6.50614">
        <ele>249.12</ele>
        <time>2016-04-12T11:54:05Z</time>
      </trkpt>
      <trkpt lat="43.41982" lon="6.50614">
        <ele>249.6</ele>
        <time>2016-04-12T11:54:07Z</time>
      </trkpt>
      <trkpt lat="43.41995" lon="6.50616">
        <ele>250.08</ele>
        <time>2016-04-12T11:54:20Z</time>
      </trkpt>
      <trkpt lat="43.42006" lon="6.5061">
        <ele>250.56</ele>
        <time>2016-04-12T11:54:33Z</time>
      </trkpt>
      <trkpt lat="43.42019" lon="6.5061">
        <ele>252.48</ele>
        <time>2016-04-12T11:54:47Z</time>
      </trkpt>
      <trkpt lat="43.42028" lon="6.50609">
        <ele>253.93</ele>
        <time>2016-04-12T11:54:57Z</time>
      </trkpt>
      <trkpt lat="43.42031" lon="6.50612">
        <ele>254.41</ele>
        <time>2016-04-12T11:55:01Z</time>
      </trkpt>
      <trkpt lat="43.42036" lon="6.50617">
        <ele>255.85</ele>
        <time>2016-04-12T11:55:08Z</time>
      </trkpt>
      <trkpt lat="43.42038" lon="6.50617">
        <ele>255.85</ele>
        <time>2016-04-12T11:55:10Z</time>
      </trkpt>
      <trkpt lat="43.42047" lon="6.50619">
        <ele>255.85</ele>
        <time>2016-04-12T11:55:19Z</time>
      </trkpt>
      <trkpt lat="43.4205" lon="6.5062">
        <ele>256.33</ele>
        <time>2016-04-12T11:55:22Z</time>
      </trkpt>
      <trkpt lat="43.42061" lon="6.5062">
        <ele>256.33</ele>
        <time>2016-04-12T11:55:36Z</time>
      </trkpt>
      <trkpt lat="43.42073" lon="6.50617">
        <ele>256.33</ele>
        <time>2016-04-12T11:55:49Z</time>
      </trkpt>
      <trkpt lat="43.42085" lon="6.50613">
        <ele>256.33</ele>
        <time>2016-04-12T11:56:03Z</time>
      </trkpt>
      <trkpt lat="43.42091" lon="6.50607">
        <ele>255.85</ele>
        <time>2016-04-12T11:56:14Z</time>
      </trkpt>
      <trkpt lat="43.42096" lon="6.50598">
        <ele>254.41</ele>
        <time>2016-04-12T11:56:24Z</time>
      </trkpt>
      <trkpt lat="43.421" lon="6.50582">
        <ele>252.96</ele>
        <time>2016-04-12T11:56:37Z</time>
      </trkpt>
      <trkpt lat="43.42103" lon="6.50568">
        <ele>251.52</ele>
        <time>2016-04-12T11:56:52Z</time>
      </trkpt>
      <trkpt lat="43.42104" lon="6.50562">
        <ele>251.04</ele>
        <time>2016-04-12T11:56:57Z</time>
      </trkpt>
      <trkpt lat="43.42107" lon="6.50551">
        <ele>250.08</ele>
        <time>2016-04-12T11:57:07Z</time>
      </trkpt>
      <trkpt lat="43.42107" lon="6.5054">
        <ele>248.64</ele>
        <time>2016-04-12T11:57:16Z</time>
      </trkpt>
      <trkpt lat="43.42104" lon="6.50533">
        <ele>247.68</ele>
        <time>2016-04-12T11:57:32Z</time>
      </trkpt>
      <trkpt lat="43.42104" lon="6.50533">
        <ele>247.68</ele>
        <time>2016-04-12T11:57:50Z</time>
      </trkpt>
      <trkpt lat="43.42106" lon="6.50532">
        <ele>247.2</ele>
        <time>2016-04-12T11:58:06Z</time>
      </trkpt>
      <trkpt lat="43.42108" lon="6.5053">
        <ele>246.72</ele>
        <time>2016-04-12T11:58:15Z</time>
      </trkpt>
      <trkpt lat="43.4211" lon="6.50527">
        <ele>246.23</ele>
        <time>2016-04-12T11:58:18Z</time>
      </trkpt>
      <trkpt lat="43.42113" lon="6.50516">
        <ele>245.75</ele>
        <time>2016-04-12T11:58:27Z</time>
      </trkpt>
      <trkpt lat="43.42115" lon="6.5051">
        <ele>245.27</ele>
        <time>2016-04-12T11:58:32Z</time>
      </trkpt>
      <trkpt lat="43.42115" lon="6.50487">
        <ele>244.79</ele>
        <time>2016-04-12T11:58:48Z</time>
      </trkpt>
      <trkpt lat="43.42112" lon="6.50477">
        <ele>244.79</ele>
        <time>2016-04-12T11:59:00Z</time>
      </trkpt>
      <trkpt lat="43.42114" lon="6.50462">
        <ele>244.31</ele>
        <time>2016-04-12T11:59:14Z</time>
      </trkpt>
      <trkpt lat="43.42113" lon="6.50444">
        <ele>243.83</ele>
        <time>2016-04-12T11:59:27Z</time>
      </trkpt>
      <trkpt lat="43.42113" lon="6.50428">
        <ele>242.39</ele>
        <time>2016-04-12T11:59:40Z</time>
      </trkpt>
      <trkpt lat="43.42109" lon="6.50408">
        <ele>239.99</ele>
        <time>2016-04-12T11:59:55Z</time>
      </trkpt>
      <trkpt lat="43.42102" lon="6.5039">
        <ele>237.58</ele>
        <time>2016-04-12T12:00:10Z</time>
      </trkpt>
      <trkpt lat="43.42093" lon="6.50374">
        <ele>235.18</ele>
        <time>2016-04-12T12:00:25Z</time>
      </trkpt>
      <trkpt lat="43.42091" lon="6.50371">
        <ele>234.22</ele>
        <time>2016-04-12T12:00:29Z</time>
      </trkpt>
      <trkpt lat="43.42084" lon="6.50361">
        <ele>232.78</ele>
        <time>2016-04-12T12:00:40Z</time>
      </trkpt>
      <trkpt lat="43.4208" lon="6.50355">
        <ele>232.3</ele>
        <time>2016-04-12T12:00:46Z</time>
      </trkpt>
      <trkpt lat="43.42076" lon="6.50356">
        <ele>231.81</ele>
        <time>2016-04-12T12:01:01Z</time>
      </trkpt>
      <trkpt lat="43.42075" lon="6.50351">
        <ele>230.85</ele>
        <time>2016-04-12T12:01:11Z</time>
      </trkpt>
      <trkpt lat="43.4207" lon="6.50342">
        <ele>230.37</ele>
        <time>2016-04-12T12:01:23Z</time>
      </trkpt>
      <trkpt lat="43.42063" lon="6.50332">
        <ele>229.41</ele>
        <time>2016-04-12T12:01:36Z</time>
      </trkpt>
      <trkpt lat="43.42047" lon="6.50312">
        <ele>228.45</ele>
        <time>2016-04-12T12:01:52Z</time>
      </trkpt>
      <trkpt lat="43.42043" lon="6.50306">
        <ele>227.97</ele>
        <time>2016-04-12T12:01:57Z</time>
      </trkpt>
      <trkpt lat="43.42034" lon="6.5029">
        <ele>226.05</ele>
        <time>2016-04-12T12:02:11Z</time>
      </trkpt>
      <trkpt lat="43.42028" lon="6.50275">
        <ele>223.64</ele>
        <time>2016-04-12T12:02:23Z</time>
      </trkpt>
      <trkpt lat="43.42021" lon="6.5026">
        <ele>221.72</ele>
        <time>2016-04-12T12:02:37Z</time>
      </trkpt>
      <trkpt lat="43.42012" lon="6.50248">
        <ele>220.28</ele>
        <time>2016-04-12T12:02:48Z</time>
      </trkpt>
      <trkpt lat="43.42011" lon="6.50246">
        <ele>220.28</ele>
        <time>2016-04-12T12:02:50Z</time>
      </trkpt>
      <trkpt lat="43.42007" lon="6.50239">
        <ele>219.8</ele>
        <time>2016-04-12T12:02:56Z</time>
      </trkpt>
      <trkpt lat="43.42004" lon="6.50235">
        <ele>218.84</ele>
        <time>2016-04-12T12:03:01Z</time>
      </trkpt>
      <trkpt lat="43.42" lon="6.50221">
        <ele>217.4</ele>
        <time>2016-04-12T12:03:15Z</time>
      </trkpt>
      <trkpt lat="43.41999" lon="6.5022">
        <ele>217.4</ele>
        <time>2016-04-12T12:03:16Z</time>
      </trkpt>
      <trkpt lat="43.41995" lon="6.50213">
        <ele>216.43</ele>
        <time>2016-04-12T12:03:22Z</time>
      </trkpt>
      <trkpt lat="43.41992" lon="6.5021">
        <ele>215.95</ele>
        <time>2016-04-12T12:03:25Z</time>
      </trkpt>
      <trkpt lat="43.41988" lon="6.50199">
        <ele>214.03</ele>
        <time>2016-04-12T12:03:34Z</time>
      </trkpt>
      <trkpt lat="43.41984" lon="6.50193">
        <ele>213.07</ele>
        <time>2016-04-12T12:03:41Z</time>
      </trkpt>
      <trkpt lat="43.41983" lon="6.5019">
        <ele>212.59</ele>
        <time>2016-04-12T12:03:44Z</time>
      </trkpt>
      <trkpt lat="43.41975" lon="6.50176">
        <ele>209.22</ele>
        <time>2016-04-12T12:03:57Z</time>
      </trkpt>
      <trkpt lat="43.41968" lon="6.50164">
        <ele>206.82</ele>
        <time>2016-04-12T12:04:09Z</time>
      </trkpt>
      <trkpt lat="43.41963" lon="6.50155">
        <ele>204.42</ele>
        <time>2016-04-12T12:04:17Z</time>
      </trkpt>
      <trkpt lat="43.4196" lon="6.50139">
        <ele>202.01</ele>
        <time>2016-04-12T12:04:26Z</time>
      </trkpt>
      <trkpt lat="43.41959" lon="6.50123">
        <ele>201.53</ele>
        <time>2016-04-12T12:04:38Z</time>
      </trkpt>
      <trkpt lat="43.41959" lon="6.50122">
        <ele>201.53</ele>
        <time>2016-04-12T12:04:56Z</time>
      </trkpt>
      <trkpt lat="43.41958" lon="6.50115">
        <ele>201.05</ele>
        <time>2016-04-12T12:05:11Z</time>
      </trkpt>
      <trkpt lat="43.41957" lon="6.50114">
        <ele>201.05</ele>
        <time>2016-04-12T12:05:35Z</time>
      </trkpt>
      <trkpt lat="43.41957" lon="6.50113">
        <ele>201.05</ele>
        <time>2016-04-12T12:05:54Z</time>
      </trkpt>
      <trkpt lat="43.41957" lon="6.50113">
        <ele>201.05</ele>
        <time>2016-04-12T12:06:18Z</time>
      </trkpt>
      <trkpt lat="43.41956" lon="6.50106">
        <ele>201.05</ele>
        <time>2016-04-12T12:06:28Z</time>
      </trkpt>
      <trkpt lat="43.4195" lon="6.50102">
        <ele>201.05</ele>
        <time>2016-04-12T12:06:34Z</time>
      </trkpt>
      <trkpt lat="43.41946" lon="6.50098">
        <ele>201.05</ele>
        <time>2016-04-12T12:06:39Z</time>
      </trkpt>
      <trkpt lat="43.41935" lon="6.50091">
        <ele>200.57</ele>
        <time>2016-04-12T12:06:51Z</time>
      </trkpt>
      <trkpt lat="43.41927" lon="6.50088">
        <ele>200.57</ele>
        <time>2016-04-12T12:06:58Z</time>
      </trkpt>
      <trkpt lat="43.41917" lon="6.50082">
        <ele>200.57</ele>
        <time>2016-04-12T12:07:10Z</time>
      </trkpt>
      <trkpt lat="43.41901" lon="6.50075">
        <ele>200.09</ele>
        <time>2016-04-12T12:07:24Z</time>
      </trkpt>
      <trkpt lat="43.41898" lon="6.50073">
        <ele>200.57</ele>
        <time>2016-04-12T12:07:27Z</time>
      </trkpt>
      <trkpt lat="43.41885" lon="6.50062">
        <ele>200.09</ele>
        <time>2016-04-12T12:07:42Z</time>
      </trkpt>
      <trkpt lat="43.41869" lon="6.5005">
        <ele>200.09</ele>
        <time>2016-04-12T12:07:58Z</time>
      </trkpt>
      <trkpt lat="43.41857" lon="6.50037">
        <ele>199.61</ele>
        <time>2016-04-12T12:08:12Z</time>
      </trkpt>
      <trkpt lat="43.41852" lon="6.50027">
        <ele>200.09</ele>
        <time>2016-04-12T12:08:21Z</time>
      </trkpt>
      <trkpt lat="43.41842" lon="6.50009">
        <ele>199.13</ele>
        <time>2016-04-12T12:08:36Z</time>
      </trkpt>
      <trkpt lat="43.41832" lon="6.49993">
        <ele>198.65</ele>
        <time>2016-04-12T12:08:50Z</time>
      </trkpt>
      <trkpt lat="43.4183" lon="6.4999">
        <ele>198.65</ele>
        <time>2016-04-12T12:08:53Z</time>
      </trkpt>
      <trkpt lat="43.41829" lon="6.49987">
        <ele>198.65</ele>
        <time>2016-04-12T12:08:55Z</time>
      </trkpt>
      <trkpt lat="43.41828" lon="6.49984">
        <ele>198.65</ele>
        <time>2016-04-12T12:08:58Z</time>
      </trkpt>
      <trkpt lat="43.41821" lon="6.49963">
        <ele>198.17</ele>
        <time>2016-04-12T12:09:13Z</time>
      </trkpt>
      <trkpt lat="43.41819" lon="6.49958">
        <ele>198.17</ele>
        <time>2016-04-12T12:09:17Z</time>
      </trkpt>
      <trkpt lat="43.41816" lon="6.49946">
        <ele>198.17</ele>
        <time>2016-04-12T12:09:26Z</time>
      </trkpt>
      <trkpt lat="43.41816" lon="6.49923">
        <ele>198.17</ele>
        <time>2016-04-12T12:09:42Z</time>
      </trkpt>
      <trkpt lat="43.4182" lon="6.49906">
        <ele>197.69</ele>
        <time>2016-04-12T12:09:55Z</time>
      </trkpt>
      <trkpt lat="43.41814" lon="6.49889">
        <ele>196.73</ele>
        <time>2016-04-12T12:10:07Z</time>
      </trkpt>
      <trkpt lat="43.41812" lon="6.49887">
        <ele>196.73</ele>
        <time>2016-04-12T12:10:09Z</time>
      </trkpt>
      <trkpt lat="43.41804" lon="6.49877">
        <ele>196.25</ele>
        <time>2016-04-12T12:10:19Z</time>
      </trkpt>
      <trkpt lat="43.41803" lon="6.49873">
        <ele>195.77</ele>
        <time>2016-04-12T12:10:22Z</time>
      </trkpt>
      <trkpt lat="43.41798" lon="6.49866">
        <ele>195.28</ele>
        <time>2016-04-12T12:10:29Z</time>
      </trkpt>
      <trkpt lat="43.41796" lon="6.49863">
        <ele>194.8</ele>
        <time>2016-04-12T12:10:32Z</time>
      </trkpt>
      <trkpt lat="43.41787" lon="6.49849">
        <ele>193.84</ele>
        <time>2016-04-12T12:10:45Z</time>
      </trkpt>
      <trkpt lat="43.41779" lon="6.49839">
        <ele>193.36</ele>
        <time>2016-04-12T12:10:55Z</time>
      </trkpt>
      <trkpt lat="43.41772" lon="6.49828">
        <ele>192.88</ele>
        <time>2016-04-12T12:11:05Z</time>
      </trkpt>
      <trkpt lat="43.41764" lon="6.49813">
        <ele>191.44</ele>
        <time>2016-04-12T12:11:18Z</time>
      </trkpt>
      <trkpt lat="43.41753" lon="6.49796">
        <ele>190.48</ele>
        <time>2016-04-12T12:11:33Z</time>
      </trkpt>
      <trkpt lat="43.41743" lon="6.49781">
        <ele>189.52</ele>
        <time>2016-04-12T12:11:47Z</time>
      </trkpt>
      <trkpt lat="43.41733" lon="6.49766">
        <ele>188.08</ele>
        <time>2016-04-12T12:12:02Z</time>
      </trkpt>
      <trkpt lat="43.41731" lon="6.49762">
        <ele>188.08</ele>
        <time>2016-04-12T12:12:06Z</time>
      </trkpt>
      <trkpt lat="43.41722" lon="6.49745">
        <ele>188.08</ele>
        <time>2016-04-12T12:12:21Z</time>
      </trkpt>
      <trkpt lat="43.41718" lon="6.49726">
        <ele>186.63</ele>
        <time>2016-04-12T12:12:35Z</time>
      </trkpt>
      <trkpt lat="43.41719" lon="6.49707">
        <ele>185.19</ele>
        <time>2016-04-12T12:12:49Z</time>
      </trkpt>
      <trkpt lat="43.41722" lon="6.4969">
        <ele>184.71</ele>
        <time>2016-04-12T12:13:01Z</time>
      </trkpt>
      <trkpt lat="43.41726" lon="6.49672">
        <ele>184.23</ele>
        <time>2016-04-12T12:13:15Z</time>
      </trkpt>
      <trkpt lat="43.41738" lon="6.49668">
        <ele>184.23</ele>
        <time>2016-04-12T12:13:30Z</time>
      </trkpt>
      <trkpt lat="43.41744" lon="6.49672">
        <ele>183.75</ele>
        <time>2016-04-12T12:13:41Z</time>
      </trkpt>
      <trkpt lat="43.41747" lon="6.49675">
        <ele>183.75</ele>
        <time>2016-04-12T12:13:45Z</time>
      </trkpt>
      <trkpt lat="43.41748" lon="6.49675">
        <ele>183.75</ele>
        <time>2016-04-12T12:13:47Z</time>
      </trkpt>
      <trkpt lat="43.41753" lon="6.49678">
        <ele>183.75</ele>
        <time>2016-04-12T12:13:52Z</time>
      </trkpt>
      <trkpt lat="43.41764" lon="6.49691">
        <ele>183.75</ele>
        <time>2016-04-12T12:14:06Z</time>
      </trkpt>
      <trkpt lat="43.41771" lon="6.49699">
        <ele>183.27</ele>
        <time>2016-04-12T12:14:15Z</time>
      </trkpt>
      <trkpt lat="43.41781" lon="6.49713">
        <ele>183.27</ele>
        <time>2016-04-12T12:14:29Z</time>
      </trkpt>
      <trkpt lat="43.41793" lon="6.49725">
        <ele>183.27</ele>
        <time>2016-04-12T12:14:43Z</time>
      </trkpt>
      <trkpt lat="43.41805" lon="6.49738">
        <ele>182.79</ele>
        <time>2016-04-12T12:14:57Z</time>
      </trkpt>
      <trkpt lat="43.41809" lon="6.49744">
        <ele>182.79</ele>
        <time>2016-04-12T12:15:03Z</time>
      </trkpt>
      <trkpt lat="43.41811" lon="6.49748">
        <ele>183.27</ele>
        <time>2016-04-12T12:15:07Z</time>
      </trkpt>
      <trkpt lat="43.41826" lon="6.49762">
        <ele>182.79</ele>
        <time>2016-04-12T12:15:23Z</time>
      </trkpt>
      <trkpt lat="43.4183" lon="6.49768">
        <ele>182.79</ele>
        <time>2016-04-12T12:15:29Z</time>
      </trkpt>
      <trkpt lat="43.41844" lon="6.4978">
        <ele>182.31</ele>
        <time>2016-04-12T12:15:44Z</time>
      </trkpt>
      <trkpt lat="43.41853" lon="6.49796">
        <ele>182.31</ele>
        <time>2016-04-12T12:15:58Z</time>
      </trkpt>
      <trkpt lat="43.41857" lon="6.49813">
        <ele>182.31</ele>
        <time>2016-04-12T12:16:11Z</time>
      </trkpt>
      <trkpt lat="43.41858" lon="6.49818">
        <ele>181.83</ele>
        <time>2016-04-12T12:16:27Z</time>
      </trkpt>
      <trkpt lat="43.41859" lon="6.49818">
        <ele>182.31</ele>
        <time>2016-04-12T12:16:53Z</time>
      </trkpt>
      <trkpt lat="43.41859" lon="6.49819">
        <ele>182.31</ele>
        <time>2016-04-12T12:17:22Z</time>
      </trkpt>
      <trkpt lat="43.4186" lon="6.4982">
        <ele>182.31</ele>
        <time>2016-04-12T12:17:46Z</time>
      </trkpt>
      <trkpt lat="43.4186" lon="6.49821">
        <ele>182.79</ele>
        <time>2016-04-12T12:18:22Z</time>
      </trkpt>
      <trkpt lat="43.4186" lon="6.49822">
        <ele>181.83</ele>
        <time>2016-04-12T12:18:52Z</time>
      </trkpt>
      <trkpt lat="43.4186" lon="6.4982">
        <ele>181.83</ele>
        <time>2016-04-12T12:19:21Z</time>
      </trkpt>
      <trkpt lat="43.41857" lon="6.49827">
        <ele>181.83</ele>
        <time>2016-04-12T12:19:34Z</time>
      </trkpt>
      <trkpt lat="43.41854" lon="6.49843">
        <ele>181.83</ele>
        <time>2016-04-12T12:19:47Z</time>
      </trkpt>
      <trkpt lat="43.41854" lon="6.49851">
        <ele>181.83</ele>
        <time>2016-04-12T12:19:53Z</time>
      </trkpt>
      <trkpt lat="43.41854" lon="6.49856">
        <ele>181.83</ele>
        <time>2016-04-12T12:19:57Z</time>
      </trkpt>
      <trkpt lat="43.41856" lon="6.49867">
        <ele>181.35</ele>
        <time>2016-04-12T12:20:05Z</time>
      </trkpt>
      <trkpt lat="43.41856" lon="6.4987">
        <ele>181.35</ele>
        <time>2016-04-12T12:20:07Z</time>
      </trkpt>
      <trkpt lat="43.4187" lon="6.49882">
        <ele>181.35</ele>
        <time>2016-04-12T12:20:23Z</time>
      </trkpt>
      <trkpt lat="43.4188" lon="6.49887">
        <ele>180.87</ele>
        <time>2016-04-12T12:20:34Z</time>
      </trkpt>
      <trkpt lat="43.41894" lon="6.49894">
        <ele>180.87</ele>
        <time>2016-04-12T12:20:48Z</time>
      </trkpt>
      <trkpt lat="43.41907" lon="6.49905">
        <ele>180.87</ele>
        <time>2016-04-12T12:21:03Z</time>
      </trkpt>
      <trkpt lat="43.41916" lon="6.49917">
        <ele>180.38</ele>
        <time>2016-04-12T12:21:16Z</time>
      </trkpt>
      <trkpt lat="43.41922" lon="6.49928">
        <ele>180.38</ele>
        <time>2016-04-12T12:21:29Z</time>
      </trkpt>
      <trkpt lat="43.41924" lon="6.49929">
        <ele>180.38</ele>
        <time>2016-04-12T12:21:44Z</time>
      </trkpt>
      <trkpt lat="43.41924" lon="6.4993">
        <ele>180.38</ele>
        <time>2016-04-12T12:21:52Z</time>
      </trkpt>
      <trkpt lat="43.4193" lon="6.49939">
        <ele>180.38</ele>
        <time>2016-04-12T12:22:00Z</time>
      </trkpt>
      <trkpt lat="43.41943" lon="6.49953">
        <ele>180.38</ele>
        <time>2016-04-12T12:22:16Z</time>
      </trkpt>
      <trkpt lat="43.41952" lon="6.4996">
        <ele>179.9</ele>
        <time>2016-04-12T12:22:26Z</time>
      </trkpt>
      <trkpt lat="43.41964" lon="6.49969">
        <ele>179.9</ele>
        <time>2016-04-12T12:22:39Z</time>
      </trkpt>
      <trkpt lat="43.41973" lon="6.49974">
        <ele>179.9</ele>
        <time>2016-04-12T12:22:47Z</time>
      </trkpt>
      <trkpt lat="43.41989" lon="6.49986">
        <ele>179.42</ele>
        <time>2016-04-12T12:23:04Z</time>
      </trkpt>
      <trkpt lat="43.41998" lon="6.50001">
        <ele>179.42</ele>
        <time>2016-04-12T12:23:18Z</time>
      </trkpt>
      <trkpt lat="43.41999" lon="6.50003">
        <ele>179.42</ele>
        <time>2016-04-12T12:23:19Z</time>
      </trkpt>
      <trkpt lat="43.42004" lon="6.50018">
        <ele>179.42</ele>
        <time>2016-04-12T12:23:33Z</time>
      </trkpt>
      <trkpt lat="43.42009" lon="6.50034">
        <ele>179.42</ele>
        <time>2016-04-12T12:23:43Z</time>
      </trkpt>
      <trkpt lat="43.4201" lon="6.50037">
        <ele>179.42</ele>
        <time>2016-04-12T12:23:45Z</time>
      </trkpt>
      <trkpt lat="43.42017" lon="6.50052">
        <ele>178.94</ele>
        <time>2016-04-12T12:23:56Z</time>
      </trkpt>
      <trkpt lat="43.42018" lon="6.50055">
        <ele>179.42</ele>
        <time>2016-04-12T12:23:58Z</time>
      </trkpt>
      <trkpt lat="43.42022" lon="6.50073">
        <ele>178.94</ele>
        <time>2016-04-12T12:24:12Z</time>
      </trkpt>
      <trkpt lat="43.42024" lon="6.50079">
        <ele>178.94</ele>
        <time>2016-04-12T12:24:17Z</time>
      </trkpt>
      <trkpt lat="43.42038" lon="6.50088">
        <ele>178.94</ele>
        <time>2016-04-12T12:24:32Z</time>
      </trkpt>
      <trkpt lat="43.42054" lon="6.50097">
        <ele>178.46</ele>
        <time>2016-04-12T12:24:47Z</time>
      </trkpt>
      <trkpt lat="43.42063" lon="6.5011">
        <ele>177.98</ele>
        <time>2016-04-12T12:25:00Z</time>
      </trkpt>
      <trkpt lat="43.42073" lon="6.50112">
        <ele>177.02</ele>
        <time>2016-04-12T12:25:12Z</time>
      </trkpt>
      <trkpt lat="43.42073" lon="6.50111">
        <ele>177.02</ele>
        <time>2016-04-12T12:25:13Z</time>
      </trkpt>
      <trkpt lat="43.42079" lon="6.50089">
        <ele>176.54</ele>
        <time>2016-04-12T12:25:27Z</time>
      </trkpt>
      <trkpt lat="43.42081" lon="6.50081">
        <ele>176.54</ele>
        <time>2016-04-12T12:25:35Z</time>
      </trkpt>
      <trkpt lat="43.42087" lon="6.50072">
        <ele>176.06</ele>
        <time>2016-04-12T12:25:45Z</time>
      </trkpt>
      <trkpt lat="43.42089" lon="6.50069">
        <ele>175.58</ele>
        <time>2016-04-12T12:25:55Z</time>
      </trkpt>
      <trkpt lat="43.42085" lon="6.50067">
        <ele>175.58</ele>
        <time>2016-04-12T12:26:01Z</time>
      </trkpt>
      <trkpt lat="43.42087" lon="6.50065">
        <ele>175.58</ele>
        <time>2016-04-12T12:26:06Z</time>
      </trkpt>
      <trkpt lat="43.42089" lon="6.50064">
        <ele>175.58</ele>
        <time>2016-04-12T12:26:08Z</time>
      </trkpt>
      <trkpt lat="43.42091" lon="6.50062">
        <ele>175.58</ele>
        <time>2016-04-12T12:26:10Z</time>
      </trkpt>
      <trkpt lat="43.42098" lon="6.50057">
        <ele>175.1</ele>
        <time>2016-04-12T12:26:18Z</time>
      </trkpt>
      <trkpt lat="43.42111" lon="6.50044">
        <ele>174.14</ele>
        <time>2016-04-12T12:26:31Z</time>
      </trkpt>
      <trkpt lat="43.42121" lon="6.50031">
        <ele>173.66</ele>
        <time>2016-04-12T12:26:44Z</time>
      </trkpt>
      <trkpt lat="43.42123" lon="6.50028">
        <ele>173.17</ele>
        <time>2016-04-12T12:26:47Z</time>
      </trkpt>
      <trkpt lat="43.42132" lon="6.50025">
        <ele>173.17</ele>
        <time>2016-04-12T12:27:03Z</time>
      </trkpt>
      <trkpt lat="43.42132" lon="6.50024">
        <ele>172.69</ele>
        <time>2016-04-12T12:27:21Z</time>
      </trkpt>
      <trkpt lat="43.42136" lon="6.50025">
        <ele>172.69</ele>
        <time>2016-04-12T12:27:41Z</time>
      </trkpt>
      <trkpt lat="43.42137" lon="6.50026">
        <ele>172.69</ele>
        <time>2016-04-12T12:27:44Z</time>
      </trkpt>
      <trkpt lat="43.42138" lon="6.50028">
        <ele>172.69</ele>
        <time>2016-04-12T12:27:46Z</time>
      </trkpt>
      <trkpt lat="43.42146" lon="6.50033">
        <ele>172.69</ele>
        <time>2016-04-12T12:28:01Z</time>
      </trkpt>
      <trkpt lat="43.42147" lon="6.50035">
        <ele>172.69</ele>
        <time>2016-04-12T12:28:18Z</time>
      </trkpt>
      <trkpt lat="43.42147" lon="6.50035">
        <ele>173.66</ele>
        <time>2016-04-12T12:28:23Z</time>
      </trkpt>
      <trkpt lat="43.4215" lon="6.50038">
        <ele>172.69</ele>
        <time>2016-04-12T12:28:29Z</time>
      </trkpt>
      <trkpt lat="43.42155" lon="6.50049">
        <ele>172.21</ele>
        <time>2016-04-12T12:28:39Z</time>
      </trkpt>
      <trkpt lat="43.42155" lon="6.50055">
        <ele>172.21</ele>
        <time>2016-04-12T12:28:44Z</time>
      </trkpt>
      <trkpt lat="43.42158" lon="6.50063">
        <ele>172.21</ele>
        <time>2016-04-12T12:28:52Z</time>
      </trkpt>
      <trkpt lat="43.4216" lon="6.50069">
        <ele>172.21</ele>
        <time>2016-04-12T12:28:57Z</time>
      </trkpt>
      <trkpt lat="43.42164" lon="6.50078">
        <ele>172.21</ele>
        <time>2016-04-12T12:29:04Z</time>
      </trkpt>
      <trkpt lat="43.42166" lon="6.50083">
        <ele>172.21</ele>
        <time>2016-04-12T12:29:08Z</time>
      </trkpt>
      <trkpt lat="43.42177" lon="6.501">
        <ele>171.73</ele>
        <time>2016-04-12T12:29:24Z</time>
      </trkpt>
      <trkpt lat="43.42182" lon="6.50103">
        <ele>172.21</ele>
        <time>2016-04-12T12:29:29Z</time>
      </trkpt>
      <trkpt lat="43.42194" lon="6.50115">
        <ele>171.73</ele>
        <time>2016-04-12T12:29:43Z</time>
      </trkpt>
      <trkpt lat="43.42208" lon="6.50127">
        <ele>171.25</ele>
        <time>2016-04-12T12:29:58Z</time>
      </trkpt>
      <trkpt lat="43.42222" lon="6.50138">
        <ele>170.77</ele>
        <time>2016-04-12T12:30:13Z</time>
      </trkpt>
      <trkpt lat="43.42238" lon="6.5015">
        <ele>170.77</ele>
        <time>2016-04-12T12:30:29Z</time>
      </trkpt>
      <trkpt lat="43.42246" lon="6.50163">
        <ele>170.29</ele>
        <time>2016-04-12T12:30:41Z</time>
      </trkpt>
      <trkpt lat="43.42255" lon="6.50181">
        <ele>170.29</ele>
        <time>2016-04-12T12:30:56Z</time>
      </trkpt>
      <trkpt lat="43.42258" lon="6.50192">
        <ele>170.29</ele>
        <time>2016-04-12T12:31:04Z</time>
      </trkpt>
      <trkpt lat="43.42257" lon="6.5021">
        <ele>169.81</ele>
        <time>2016-04-12T12:31:17Z</time>
      </trkpt>
      <trkpt lat="43.42258" lon="6.5022">
        <ele>170.29</ele>
        <time>2016-04-12T12:31:24Z</time>
      </trkpt>
      <trkpt lat="43.42262" lon="6.5023">
        <ele>170.29</ele>
        <time>2016-04-12T12:31:32Z</time>
      </trkpt>
      <trkpt lat="43.42272" lon="6.50249">
        <ele>169.81</ele>
        <time>2016-04-12T12:31:47Z</time>
      </trkpt>
      <trkpt lat="43.42275" lon="6.50265">
        <ele>169.33</ele>
        <time>2016-04-12T12:32:00Z</time>
      </trkpt>
      <trkpt lat="43.42278" lon="6.50278">
        <ele>169.33</ele>
        <time>2016-04-12T12:32:16Z</time>
      </trkpt>
      <trkpt lat="43.42278" lon="6.5028">
        <ele>169.33</ele>
        <time>2016-04-12T12:32:17Z</time>
      </trkpt>
      <trkpt lat="43.42275" lon="6.50286">
        <ele>168.85</ele>
        <time>2016-04-12T12:32:22Z</time>
      </trkpt>
      <trkpt lat="43.42273" lon="6.50292">
        <ele>168.85</ele>
        <time>2016-04-12T12:32:27Z</time>
      </trkpt>
      <trkpt lat="43.42274" lon="6.50296">
        <ele>168.85</ele>
        <time>2016-04-12T12:32:29Z</time>
      </trkpt>
      <trkpt lat="43.42286" lon="6.50312">
        <ele>169.33</ele>
        <time>2016-04-12T12:32:43Z</time>
      </trkpt>
      <trkpt lat="43.42286" lon="6.50329">
        <ele>168.85</ele>
        <time>2016-04-12T12:32:56Z</time>
      </trkpt>
      <trkpt lat="43.42284" lon="6.50346">
        <ele>168.85</ele>
        <time>2016-04-12T12:33:07Z</time>
      </trkpt>
      <trkpt lat="43.42282" lon="6.50351">
        <ele>168.37</ele>
        <time>2016-04-12T12:33:11Z</time>
      </trkpt>
      <trkpt lat="43.42283" lon="6.50357">
        <ele>168.37</ele>
        <time>2016-04-12T12:33:15Z</time>
      </trkpt>
      <trkpt lat="43.42285" lon="6.50361">
        <ele>168.37</ele>
        <time>2016-04-12T12:33:18Z</time>
      </trkpt>
      <trkpt lat="43.42288" lon="6.50363">
        <ele>168.37</ele>
        <time>2016-04-12T12:33:21Z</time>
      </trkpt>
      <trkpt lat="43.42292" lon="6.5036">
        <ele>168.37</ele>
        <time>2016-04-12T12:33:26Z</time>
      </trkpt>
      <trkpt lat="43.42298" lon="6.50359">
        <ele>168.37</ele>
        <time>2016-04-12T12:33:32Z</time>
      </trkpt>
      <trkpt lat="43.42311" lon="6.50345">
        <ele>167.89</ele>
        <time>2016-04-12T12:33:45Z</time>
      </trkpt>
      <trkpt lat="43.42319" lon="6.50336">
        <ele>167.41</ele>
        <time>2016-04-12T12:33:53Z</time>
      </trkpt>
      <trkpt lat="43.42322" lon="6.50332">
        <ele>167.41</ele>
        <time>2016-04-12T12:33:57Z</time>
      </trkpt>
      <trkpt lat="43.42333" lon="6.50321">
        <ele>166.93</ele>
        <time>2016-04-12T12:34:10Z</time>
      </trkpt>
      <trkpt lat="43.42334" lon="6.50318">
        <ele>166.93</ele>
        <time>2016-04-12T12:34:13Z</time>
      </trkpt>
      <trkpt lat="43.42336" lon="6.50293">
        <ele>165.96</ele>
        <time>2016-04-12T12:34:30Z</time>
      </trkpt>
      <trkpt lat="43.42339" lon="6.50286">
        <ele>165.96</ele>
        <time>2016-04-12T12:34:35Z</time>
      </trkpt>
      <trkpt lat="43.42349" lon="6.50276">
        <ele>165.48</ele>
        <time>2016-04-12T12:34:48Z</time>
      </trkpt>
      <trkpt lat="43.42352" lon="6.50273">
        <ele>165.48</ele>
        <time>2016-04-12T12:34:52Z</time>
      </trkpt>
      <trkpt lat="43.42356" lon="6.50267">
        <ele>165</ele>
        <time>2016-04-12T12:34:58Z</time>
      </trkpt>
      <trkpt lat="43.42362" lon="6.50259">
        <ele>165</ele>
        <time>2016-04-12T12:35:15Z</time>
      </trkpt>
      <trkpt lat="43.42361" lon="6.50258">
        <ele>165</ele>
        <time>2016-04-12T12:35:33Z</time>
      </trkpt>
      <trkpt lat="43.42361" lon="6.50257">
        <ele>165</ele>
        <time>2016-04-12T12:35:54Z</time>
      </trkpt>
      <trkpt lat="43.42361" lon="6.50257">
        <ele>164.52</ele>
        <time>2016-04-12T12:36:15Z</time>
      </trkpt>
      <trkpt lat="43.42361" lon="6.50257">
        <ele>164.52</ele>
        <time>2016-04-12T12:36:42Z</time>
      </trkpt>
      <trkpt lat="43.42362" lon="6.50256">
        <ele>164.52</ele>
        <time>2016-04-12T12:37:03Z</time>
      </trkpt>
      <trkpt lat="43.42362" lon="6.50256">
        <ele>164.52</ele>
        <time>2016-04-12T12:37:33Z</time>
      </trkpt>
      <trkpt lat="43.42362" lon="6.50256">
        <ele>164.52</ele>
        <time>2016-04-12T12:38:03Z</time>
      </trkpt>
      <trkpt lat="43.42362" lon="6.50256">
        <ele>164.52</ele>
        <time>2016-04-12T12:38:41Z</time>
      </trkpt>
      <trkpt lat="43.42363" lon="6.50256">
        <ele>164.04</ele>
        <time>2016-04-12T12:39:06Z</time>
      </trkpt>
      <trkpt lat="43.42362" lon="6.50256">
        <ele>164.52</ele>
        <time>2016-04-12T12:39:23Z</time>
      </trkpt>
      <trkpt lat="43.42363" lon="6.50255">
        <ele>164.04</ele>
        <time>2016-04-12T12:39:58Z</time>
      </trkpt>
      <trkpt lat="43.42362" lon="6.50256">
        <ele>164.04</ele>
        <time>2016-04-12T12:40:32Z</time>
      </trkpt>
      <trkpt lat="43.42362" lon="6.50256">
        <ele>164.04</ele>
        <time>2016-04-12T12:41:03Z</time>
      </trkpt>
      <trkpt lat="43.42362" lon="6.50256">
        <ele>164.04</ele>
        <time>2016-04-12T12:41:39Z</time>
      </trkpt>
      <trkpt lat="43.42362" lon="6.50256">
        <ele>164.04</ele>
        <time>2016-04-12T12:42:06Z</time>
      </trkpt>
      <trkpt lat="43.42362" lon="6.50256">
        <ele>164.04</ele>
        <time>2016-04-12T12:42:34Z</time>
      </trkpt>
      <trkpt lat="43.42362" lon="6.50257">
        <ele>164.04</ele>
        <time>2016-04-12T12:42:50Z</time>
      </trkpt>
      <trkpt lat="43.42362" lon="6.50256">
        <ele>164.04</ele>
        <time>2016-04-12T12:43:16Z</time>
      </trkpt>
      <trkpt lat="43.42361" lon="6.50256">
        <ele>164.04</ele>
        <time>2016-04-12T12:43:49Z</time>
      </trkpt>
      <trkpt lat="43.42361" lon="6.50256">
        <ele>164.04</ele>
        <time>2016-04-12T12:44:20Z</time>
      </trkpt>
      <trkpt lat="43.4236" lon="6.50256">
        <ele>163.56</ele>
        <time>2016-04-12T12:44:59Z</time>
      </trkpt>
      <trkpt lat="43.42361" lon="6.50256">
        <ele>163.56</ele>
        <time>2016-04-12T12:45:24Z</time>
      </trkpt>
      <trkpt lat="43.42361" lon="6.50256">
        <ele>164.04</ele>
        <time>2016-04-12T12:45:48Z</time>
      </trkpt>
      <trkpt lat="43.42361" lon="6.50256">
        <ele>163.56</ele>
        <time>2016-04-12T12:46:09Z</time>
      </trkpt>
      <trkpt lat="43.42361" lon="6.50256">
        <ele>164.04</ele>
        <time>2016-04-12T12:46:48Z</time>
      </trkpt>
      <trkpt lat="43.42361" lon="6.50256">
        <ele>163.56</ele>
        <time>2016-04-12T12:47:17Z</time>
      </trkpt>
      <trkpt lat="43.42361" lon="6.50255">
        <ele>163.56</ele>
        <time>2016-04-12T12:47:52Z</time>
      </trkpt>
      <trkpt lat="43.42361" lon="6.50256">
        <ele>163.56</ele>
        <time>2016-04-12T12:48:17Z</time>
      </trkpt>
      <trkpt lat="43.42361" lon="6.50256">
        <ele>163.56</ele>
        <time>2016-04-12T12:48:44Z</time>
      </trkpt>
      <trkpt lat="43.42361" lon="6.50256">
        <ele>163.56</ele>
        <time>2016-04-12T12:49:11Z</time>
      </trkpt>
      <trkpt lat="43.42361" lon="6.50256">
        <ele>163.56</ele>
        <time>2016-04-12T12:49:30Z</time>
      </trkpt>
      <trkpt lat="43.42361" lon="6.50257">
        <ele>163.56</ele>
        <time>2016-04-12T12:49:47Z</time>
      </trkpt>
      <trkpt lat="43.42364" lon="6.50255">
        <ele>163.56</ele>
        <time>2016-04-12T12:49:59Z</time>
      </trkpt>
      <trkpt lat="43.42366" lon="6.50255">
        <ele>163.56</ele>
        <time>2016-04-12T12:50:01Z</time>
      </trkpt>
      <trkpt lat="43.42373" lon="6.50245">
        <ele>163.08</ele>
        <time>2016-04-12T12:50:12Z</time>
      </trkpt>
      <trkpt lat="43.42375" lon="6.5024">
        <ele>163.08</ele>
        <time>2016-04-12T12:50:15Z</time>
      </trkpt>
      <trkpt lat="43.42377" lon="6.50227">
        <ele>162.6</ele>
        <time>2016-04-12T12:50:27Z</time>
      </trkpt>
      <trkpt lat="43.42379" lon="6.50217">
        <ele>162.12</ele>
        <time>2016-04-12T12:50:44Z</time>
      </trkpt>
      <trkpt lat="43.4238" lon="6.5021">
        <ele>162.12</ele>
        <time>2016-04-12T12:50:50Z</time>
      </trkpt>
      <trkpt lat="43.42382" lon="6.50204">
        <ele>162.12</ele>
        <time>2016-04-12T12:50:54Z</time>
      </trkpt>
      <trkpt lat="43.42386" lon="6.50189">
        <ele>161.64</ele>
        <time>2016-04-12T12:51:06Z</time>
      </trkpt>
      <trkpt lat="43.42391" lon="6.50172">
        <ele>161.16</ele>
        <time>2016-04-12T12:51:18Z</time>
      </trkpt>
      <trkpt lat="43.42396" lon="6.50152">
        <ele>161.16</ele>
        <time>2016-04-12T12:51:31Z</time>
      </trkpt>
      <trkpt lat="43.42397" lon="6.50143">
        <ele>161.16</ele>
        <time>2016-04-12T12:51:37Z</time>
      </trkpt>
      <trkpt lat="43.42396" lon="6.50131">
        <ele>160.68</ele>
        <time>2016-04-12T12:51:44Z</time>
      </trkpt>
      <trkpt lat="43.42399" lon="6.50115">
        <ele>160.68</ele>
        <time>2016-04-12T12:51:55Z</time>
      </trkpt>
      <trkpt lat="43.42414" lon="6.5011">
        <ele>160.2</ele>
        <time>2016-04-12T12:52:10Z</time>
      </trkpt>
      <trkpt lat="43.4243" lon="6.50114">
        <ele>158.27</ele>
        <time>2016-04-12T12:52:26Z</time>
      </trkpt>
      <trkpt lat="43.42438" lon="6.50119">
        <ele>158.27</ele>
        <time>2016-04-12T12:52:34Z</time>
      </trkpt>
      <trkpt lat="43.42451" lon="6.50133">
        <ele>156.83</ele>
        <time>2016-04-12T12:52:49Z</time>
      </trkpt>
      <trkpt lat="43.42454" lon="6.50136">
        <ele>156.35</ele>
        <time>2016-04-12T12:52:53Z</time>
      </trkpt>
      <trkpt lat="43.42466" lon="6.50144">
        <ele>155.87</ele>
        <time>2016-04-12T12:53:06Z</time>
      </trkpt>
      <trkpt lat="43.42478" lon="6.50148">
        <ele>154.91</ele>
        <time>2016-04-12T12:53:20Z</time>
      </trkpt>
      <trkpt lat="43.42493" lon="6.50155">
        <ele>154.43</ele>
        <time>2016-04-12T12:53:38Z</time>
      </trkpt>
      <trkpt lat="43.42493" lon="6.50156">
        <ele>154.43</ele>
        <time>2016-04-12T12:53:39Z</time>
      </trkpt>
      <trkpt lat="43.42495" lon="6.50161">
        <ele>154.43</ele>
        <time>2016-04-12T12:53:43Z</time>
      </trkpt>
      <trkpt lat="43.42501" lon="6.50175">
        <ele>153.95</ele>
        <time>2016-04-12T12:53:56Z</time>
      </trkpt>
      <trkpt lat="43.42502" lon="6.50178">
        <ele>153.95</ele>
        <time>2016-04-12T12:53:58Z</time>
      </trkpt>
      <trkpt lat="43.42505" lon="6.50184">
        <ele>153.47</ele>
        <time>2016-04-12T12:54:04Z</time>
      </trkpt>
      <trkpt lat="43.4251" lon="6.50202">
        <ele>153.47</ele>
        <time>2016-04-12T12:54:18Z</time>
      </trkpt>
      <trkpt lat="43.42524" lon="6.50212">
        <ele>152.99</ele>
        <time>2016-04-12T12:54:34Z</time>
      </trkpt>
      <trkpt lat="43.42525" lon="6.50215">
        <ele>152.51</ele>
        <time>2016-04-12T12:54:37Z</time>
      </trkpt>
      <trkpt lat="43.42527" lon="6.50218">
        <ele>152.51</ele>
        <time>2016-04-12T12:54:39Z</time>
      </trkpt>
      <trkpt lat="43.42532" lon="6.5023">
        <ele>151.54</ele>
        <time>2016-04-12T12:54:50Z</time>
      </trkpt>
      <trkpt lat="43.42537" lon="6.50233">
        <ele>151.54</ele>
        <time>2016-04-12T12:54:56Z</time>
      </trkpt>
      <trkpt lat="43.42553" lon="6.50234">
        <ele>151.06</ele>
        <time>2016-04-12T12:55:11Z</time>
      </trkpt>
      <trkpt lat="43.42558" lon="6.50234">
        <ele>150.58</ele>
        <time>2016-04-12T12:55:17Z</time>
      </trkpt>
      <trkpt lat="43.42562" lon="6.50234">
        <ele>150.58</ele>
        <time>2016-04-12T12:55:20Z</time>
      </trkpt>
      <trkpt lat="43.42577" lon="6.50235">
        <ele>149.62</ele>
        <time>2016-04-12T12:55:34Z</time>
      </trkpt>
      <trkpt lat="43.42585" lon="6.50238">
        <ele>149.14</ele>
        <time>2016-04-12T12:55:44Z</time>
      </trkpt>
      <trkpt lat="43.426" lon="6.50249">
        <ele>147.7</ele>
        <time>2016-04-12T12:56:02Z</time>
      </trkpt>
      <trkpt lat="43.42601" lon="6.50257">
        <ele>147.22</ele>
        <time>2016-04-12T12:56:15Z</time>
      </trkpt>
      <trkpt lat="43.42598" lon="6.50266">
        <ele>146.74</ele>
        <time>2016-04-12T12:56:25Z</time>
      </trkpt>
      <trkpt lat="43.42594" lon="6.50284">
        <ele>145.78</ele>
        <time>2016-04-12T12:56:40Z</time>
      </trkpt>
      <trkpt lat="43.42592" lon="6.50292">
        <ele>145.3</ele>
        <time>2016-04-12T12:56:46Z</time>
      </trkpt>
      <trkpt lat="43.42592" lon="6.50308">
        <ele>145.3</ele>
        <time>2016-04-12T12:56:58Z</time>
      </trkpt>
      <trkpt lat="43.42595" lon="6.5032">
        <ele>144.82</ele>
        <time>2016-04-12T12:57:07Z</time>
      </trkpt>
      <trkpt lat="43.42597" lon="6.50324">
        <ele>144.34</ele>
        <time>2016-04-12T12:57:10Z</time>
      </trkpt>
      <trkpt lat="43.42602" lon="6.50333">
        <ele>143.85</ele>
        <time>2016-04-12T12:57:19Z</time>
      </trkpt>
      <trkpt lat="43.42614" lon="6.50346">
        <ele>143.37</ele>
        <time>2016-04-12T12:57:35Z</time>
      </trkpt>
      <trkpt lat="43.42615" lon="6.50347">
        <ele>143.37</ele>
        <time>2016-04-12T12:57:37Z</time>
      </trkpt>
      <trkpt lat="43.42621" lon="6.50351">
        <ele>143.37</ele>
        <time>2016-04-12T12:57:43Z</time>
      </trkpt>
      <trkpt lat="43.42629" lon="6.50357">
        <ele>142.89</ele>
        <time>2016-04-12T12:57:53Z</time>
      </trkpt>
      <trkpt lat="43.4263" lon="6.50358">
        <ele>142.41</ele>
        <time>2016-04-12T12:57:55Z</time>
      </trkpt>
      <trkpt lat="43.42637" lon="6.50367">
        <ele>141.93</ele>
        <time>2016-04-12T12:58:04Z</time>
      </trkpt>
      <trkpt lat="43.4264" lon="6.5037">
        <ele>141.93</ele>
        <time>2016-04-12T12:58:09Z</time>
      </trkpt>
      <trkpt lat="43.42643" lon="6.50374">
        <ele>141.45</ele>
        <time>2016-04-12T12:58:13Z</time>
      </trkpt>
      <trkpt lat="43.42648" lon="6.5038">
        <ele>140.97</ele>
        <time>2016-04-12T12:58:20Z</time>
      </trkpt>
      <trkpt lat="43.42654" lon="6.50387">
        <ele>140.49</ele>
        <time>2016-04-12T12:58:28Z</time>
      </trkpt>
      <trkpt lat="43.42663" lon="6.50402">
        <ele>139.53</ele>
        <time>2016-04-12T12:58:43Z</time>
      </trkpt>
      <trkpt lat="43.42665" lon="6.50407">
        <ele>139.53</ele>
        <time>2016-04-12T12:58:47Z</time>
      </trkpt>
      <trkpt lat="43.42666" lon="6.50419">
        <ele>138.57</ele>
        <time>2016-04-12T12:58:56Z</time>
      </trkpt>
      <trkpt lat="43.42668" lon="6.50429">
        <ele>138.57</ele>
        <time>2016-04-12T12:59:03Z</time>
      </trkpt>
      <trkpt lat="43.42671" lon="6.50439">
        <ele>137.61</ele>
        <time>2016-04-12T12:59:15Z</time>
      </trkpt>
      <trkpt lat="43.42674" lon="6.50451">
        <ele>137.13</ele>
        <time>2016-04-12T12:59:26Z</time>
      </trkpt>
      <trkpt lat="43.42674" lon="6.50459">
        <ele>136.64</ele>
        <time>2016-04-12T12:59:32Z</time>
      </trkpt>
      <trkpt lat="43.42675" lon="6.50462">
        <ele>136.64</ele>
        <time>2016-04-12T12:59:34Z</time>
      </trkpt>
      <trkpt lat="43.42675" lon="6.50474">
        <ele>135.68</ele>
        <time>2016-04-12T12:59:43Z</time>
      </trkpt>
      <trkpt lat="43.42676" lon="6.50477">
        <ele>135.2</ele>
        <time>2016-04-12T12:59:45Z</time>
      </trkpt>
      <trkpt lat="43.42677" lon="6.50485">
        <ele>134.72</ele>
        <time>2016-04-12T12:59:51Z</time>
      </trkpt>
      <trkpt lat="43.42686" lon="6.50496">
        <ele>134.72</ele>
        <time>2016-04-12T13:00:02Z</time>
      </trkpt>
      <trkpt lat="43.42701" lon="6.50506">
        <ele>133.76</ele>
        <time>2016-04-12T13:00:17Z</time>
      </trkpt>
      <trkpt lat="43.4271" lon="6.5052">
        <ele>132.32</ele>
        <time>2016-04-12T13:00:30Z</time>
      </trkpt>
      <trkpt lat="43.42716" lon="6.5053">
        <ele>131.84</ele>
        <time>2016-04-12T13:00:39Z</time>
      </trkpt>
      <trkpt lat="43.4272" lon="6.50533">
        <ele>131.36</ele>
        <time>2016-04-12T13:00:43Z</time>
      </trkpt>
      <trkpt lat="43.42737" lon="6.50538">
        <ele>130.88</ele>
        <time>2016-04-12T13:00:57Z</time>
      </trkpt>
      <trkpt lat="43.42754" lon="6.50535">
        <ele>128.95</ele>
        <time>2016-04-12T13:01:13Z</time>
      </trkpt>
      <trkpt lat="43.42768" lon="6.5053">
        <ele>128.47</ele>
        <time>2016-04-12T13:01:28Z</time>
      </trkpt>
      <trkpt lat="43.42776" lon="6.5053">
        <ele>127.51</ele>
        <time>2016-04-12T13:01:36Z</time>
      </trkpt>
      <trkpt lat="43.42779" lon="6.50531">
        <ele>127.51</ele>
        <time>2016-04-12T13:01:39Z</time>
      </trkpt>
      <trkpt lat="43.42793" lon="6.50538">
        <ele>127.03</ele>
        <time>2016-04-12T13:01:53Z</time>
      </trkpt>
      <trkpt lat="43.42795" lon="6.5054">
        <ele>126.55</ele>
        <time>2016-04-12T13:01:56Z</time>
      </trkpt>
      <trkpt lat="43.42798" lon="6.50542">
        <ele>126.07</ele>
        <time>2016-04-12T13:02:00Z</time>
      </trkpt>
      <trkpt lat="43.42813" lon="6.50548">
        <ele>124.63</ele>
        <time>2016-04-12T13:02:15Z</time>
      </trkpt>
      <trkpt lat="43.42824" lon="6.50553">
        <ele>123.67</ele>
        <time>2016-04-12T13:02:29Z</time>
      </trkpt>
      <trkpt lat="43.42838" lon="6.50556">
        <ele>122.71</ele>
        <time>2016-04-12T13:02:42Z</time>
      </trkpt>
      <trkpt lat="43.4285" lon="6.50561">
        <ele>121.74</ele>
        <time>2016-04-12T13:02:56Z</time>
      </trkpt>
      <trkpt lat="43.42866" lon="6.50569">
        <ele>119.82</ele>
        <time>2016-04-12T13:03:14Z</time>
      </trkpt>
      <trkpt lat="43.42882" lon="6.50571">
        <ele>118.38</ele>
        <time>2016-04-12T13:03:31Z</time>
      </trkpt>
      <trkpt lat="43.42896" lon="6.50572">
        <ele>116.94</ele>
        <time>2016-04-12T13:03:45Z</time>
      </trkpt>
      <trkpt lat="43.42915" lon="6.50566">
        <ele>115.98</ele>
        <time>2016-04-12T13:04:03Z</time>
      </trkpt>
      <trkpt lat="43.42917" lon="6.50566">
        <ele>115.98</ele>
        <time>2016-04-12T13:04:05Z</time>
      </trkpt>
      <trkpt lat="43.42926" lon="6.50565">
        <ele>114.53</ele>
        <time>2016-04-12T13:04:15Z</time>
      </trkpt>
      <trkpt lat="43.4294" lon="6.50572">
        <ele>113.57</ele>
        <time>2016-04-12T13:04:30Z</time>
      </trkpt>
      <trkpt lat="43.4294" lon="6.50572">
        <ele>113.09</ele>
        <time>2016-04-12T13:04:31Z</time>
      </trkpt>
      <trkpt lat="43.42944" lon="6.50575">
        <ele>113.09</ele>
        <time>2016-04-12T13:04:34Z</time>
      </trkpt>
      <trkpt lat="43.4295" lon="6.5058">
        <ele>111.65</ele>
        <time>2016-04-12T13:04:42Z</time>
      </trkpt>
      <trkpt lat="43.42954" lon="6.50582">
        <ele>111.17</ele>
        <time>2016-04-12T13:04:46Z</time>
      </trkpt>
      <trkpt lat="43.42964" lon="6.50588">
        <ele>110.69</ele>
        <time>2016-04-12T13:04:56Z</time>
      </trkpt>
      <trkpt lat="43.42966" lon="6.50591">
        <ele>110.21</ele>
        <time>2016-04-12T13:04:59Z</time>
      </trkpt>
      <trkpt lat="43.42974" lon="6.50598">
        <ele>109.73</ele>
        <time>2016-04-12T13:05:06Z</time>
      </trkpt>
      <trkpt lat="43.42975" lon="6.50601">
        <ele>109.25</ele>
        <time>2016-04-12T13:05:09Z</time>
      </trkpt>
      <trkpt lat="43.42978" lon="6.50603">
        <ele>109.25</ele>
        <time>2016-04-12T13:05:11Z</time>
      </trkpt>
      <trkpt lat="43.42983" lon="6.50611">
        <ele>108.29</ele>
        <time>2016-04-12T13:05:19Z</time>
      </trkpt>
      <trkpt lat="43.42985" lon="6.50615">
        <ele>108.29</ele>
        <time>2016-04-12T13:05:22Z</time>
      </trkpt>
      <trkpt lat="43.42987" lon="6.50616">
        <ele>108.29</ele>
        <time>2016-04-12T13:05:24Z</time>
      </trkpt>
      <trkpt lat="43.42995" lon="6.50633">
        <ele>104.44</ele>
        <time>2016-04-12T13:05:38Z</time>
      </trkpt>
      <trkpt lat="43.42996" lon="6.50634">
        <ele>107.81</ele>
        <time>2016-04-12T13:05:39Z</time>
      </trkpt>
      <trkpt lat="43.42997" lon="6.50638">
        <ele>102.04</ele>
        <time>2016-04-12T13:05:42Z</time>
      </trkpt>
      <trkpt lat="43.42998" lon="6.5064">
        <ele>108.77</ele>
        <time>2016-04-12T13:05:43Z</time>
      </trkpt>
      <trkpt lat="43.42998" lon="6.50642">
        <ele>104.44</ele>
        <time>2016-04-12T13:05:44Z</time>
      </trkpt>
      <trkpt lat="43.43" lon="6.50661">
        <ele>103.96</ele>
        <time>2016-04-12T13:05:58Z</time>
      </trkpt>
      <trkpt lat="43.43" lon="6.50664">
        <ele>103.96</ele>
        <time>2016-04-12T13:06:00Z</time>
      </trkpt>
      <trkpt lat="43.43" lon="6.50671">
        <ele>103.96</ele>
        <time>2016-04-12T13:06:04Z</time>
      </trkpt>
      <trkpt lat="43.43001" lon="6.50689">
        <ele>103.48</ele>
        <time>2016-04-12T13:06:15Z</time>
      </trkpt>
      <trkpt lat="43.43001" lon="6.50695">
        <ele>103.48</ele>
        <time>2016-04-12T13:06:19Z</time>
      </trkpt>
      <trkpt lat="43.4301" lon="6.50713">
        <ele>101.56</ele>
        <time>2016-04-12T13:06:33Z</time>
      </trkpt>
      <trkpt lat="43.43017" lon="6.50721">
        <ele>100.6</ele>
        <time>2016-04-12T13:06:41Z</time>
      </trkpt>
      <trkpt lat="43.43024" lon="6.50731">
        <ele>99.63</ele>
        <time>2016-04-12T13:06:51Z</time>
      </trkpt>
      <trkpt lat="43.43027" lon="6.50736">
        <ele>99.15</ele>
        <time>2016-04-12T13:06:55Z</time>
      </trkpt>
      <trkpt lat="43.43035" lon="6.5075">
        <ele>96.75</ele>
        <time>2016-04-12T13:07:08Z</time>
      </trkpt>
      <trkpt lat="43.43045" lon="6.50764">
        <ele>95.31</ele>
        <time>2016-04-12T13:07:21Z</time>
      </trkpt>
      <trkpt lat="43.4305" lon="6.50773">
        <ele>94.35</ele>
        <time>2016-04-12T13:07:28Z</time>
      </trkpt>
      <trkpt lat="43.43053" lon="6.50781">
        <ele>93.39</ele>
        <time>2016-04-12T13:07:34Z</time>
      </trkpt>
      <trkpt lat="43.43058" lon="6.50801">
        <ele>91.46</ele>
        <time>2016-04-12T13:07:48Z</time>
      </trkpt>
      <trkpt lat="43.43061" lon="6.50814">
        <ele>90.5</ele>
        <time>2016-04-12T13:07:58Z</time>
      </trkpt>
      <trkpt lat="43.43062" lon="6.5084">
        <ele>88.58</ele>
        <time>2016-04-12T13:08:14Z</time>
      </trkpt>
      <trkpt lat="43.43054" lon="6.50851">
        <ele>88.1</ele>
        <time>2016-04-12T13:08:26Z</time>
      </trkpt>
      <trkpt lat="43.43051" lon="6.50852">
        <ele>87.62</ele>
        <time>2016-04-12T13:08:31Z</time>
      </trkpt>
      <trkpt lat="43.43051" lon="6.50851">
        <ele>88.1</ele>
        <time>2016-04-12T13:08:33Z</time>
      </trkpt>
      <trkpt lat="43.43051" lon="6.5085">
        <ele>87.14</ele>
        <time>2016-04-12T13:08:49Z</time>
      </trkpt>
      <trkpt lat="43.43047" lon="6.5085">
        <ele>86.66</ele>
        <time>2016-04-12T13:09:04Z</time>
      </trkpt>
      <trkpt lat="43.43047" lon="6.5085">
        <ele>86.66</ele>
        <time>2016-04-12T13:09:22Z</time>
      </trkpt>
      <trkpt lat="43.43046" lon="6.50845">
        <ele>86.66</ele>
        <time>2016-04-12T13:09:38Z</time>
      </trkpt>
      <trkpt lat="43.43042" lon="6.50841">
        <ele>86.18</ele>
        <time>2016-04-12T13:09:45Z</time>
      </trkpt>
      <trkpt lat="43.43036" lon="6.50833">
        <ele>85.69</ele>
        <time>2016-04-12T13:09:56Z</time>
      </trkpt>
      <trkpt lat="43.43027" lon="6.50822">
        <ele>85.21</ele>
        <time>2016-04-12T13:10:09Z</time>
      </trkpt>
      <trkpt lat="43.43017" lon="6.50813">
        <ele>84.25</ele>
        <time>2016-04-12T13:10:21Z</time>
      </trkpt>
      <trkpt lat="43.43007" lon="6.50804">
        <ele>83.29</ele>
        <time>2016-04-12T13:10:34Z</time>
      </trkpt>
      <trkpt lat="43.43004" lon="6.50803">
        <ele>83.29</ele>
        <time>2016-04-12T13:10:38Z</time>
      </trkpt>
      <trkpt lat="43.43002" lon="6.50801">
        <ele>83.29</ele>
        <time>2016-04-12T13:10:41Z</time>
      </trkpt>
      <trkpt lat="43.42985" lon="6.50793">
        <ele>82.81</ele>
        <time>2016-04-12T13:10:57Z</time>
      </trkpt>
      <trkpt lat="43.4298" lon="6.50791">
        <ele>82.81</ele>
        <time>2016-04-12T13:11:03Z</time>
      </trkpt>
      <trkpt lat="43.42968" lon="6.50787">
        <ele>82.81</ele>
        <time>2016-04-12T13:11:17Z</time>
      </trkpt>
      <trkpt lat="43.42958" lon="6.50781">
        <ele>81.85</ele>
        <time>2016-04-12T13:11:28Z</time>
      </trkpt>
      <trkpt lat="43.42942" lon="6.5077">
        <ele>80.89</ele>
        <time>2016-04-12T13:11:44Z</time>
      </trkpt>
      <trkpt lat="43.42933" lon="6.50769">
        <ele>80.89</ele>
        <time>2016-04-12T13:11:51Z</time>
      </trkpt>
      <trkpt lat="43.42918" lon="6.50766">
        <ele>80.41</ele>
        <time>2016-04-12T13:12:04Z</time>
      </trkpt>
      <trkpt lat="43.42902" lon="6.50765">
        <ele>79.45</ele>
        <time>2016-04-12T13:12:18Z</time>
      </trkpt>
      <trkpt lat="43.42895" lon="6.50763">
        <ele>78.48</ele>
        <time>2016-04-12T13:12:26Z</time>
      </trkpt>
      <trkpt lat="43.42876" lon="6.50765">
        <ele>77.04</ele>
        <time>2016-04-12T13:12:40Z</time>
      </trkpt>
      <trkpt lat="43.42874" lon="6.50766">
        <ele>77.52</ele>
        <time>2016-04-12T13:12:42Z</time>
      </trkpt>
      <trkpt lat="43.42864" lon="6.50769">
        <ele>77.04</ele>
        <time>2016-04-12T13:12:51Z</time>
      </trkpt>
      <trkpt lat="43.42847" lon="6.50766">
        <ele>76.56</ele>
        <time>2016-04-12T13:13:06Z</time>
      </trkpt>
      <trkpt lat="43.42835" lon="6.50761">
        <ele>75.6</ele>
        <time>2016-04-12T13:13:17Z</time>
      </trkpt>
      <trkpt lat="43.4283" lon="6.50757">
        <ele>75.12</ele>
        <time>2016-04-12T13:13:23Z</time>
      </trkpt>
      <trkpt lat="43.42815" lon="6.50746">
        <ele>75.12</ele>
        <time>2016-04-12T13:13:36Z</time>
      </trkpt>
      <trkpt lat="43.42803" lon="6.50744">
        <ele>75.12</ele>
        <time>2016-04-12T13:13:46Z</time>
      </trkpt>
      <trkpt lat="43.4279" lon="6.50743">
        <ele>74.16</ele>
        <time>2016-04-12T13:13:58Z</time>
      </trkpt>
      <trkpt lat="43.4279" lon="6.50744">
        <ele>74.16</ele>
        <time>2016-04-12T13:13:59Z</time>
      </trkpt>
      <trkpt lat="43.42779" lon="6.50747">
        <ele>73.68</ele>
        <time>2016-04-12T13:14:06Z</time>
      </trkpt>
      <trkpt lat="43.42763" lon="6.50741">
        <ele>72.24</ele>
        <time>2016-04-12T13:14:19Z</time>
      </trkpt>
      <trkpt lat="43.42755" lon="6.50756">
        <ele>71.27</ele>
        <time>2016-04-12T13:14:32Z</time>
      </trkpt>
      <trkpt lat="43.42759" lon="6.50762">
        <ele>71.76</ele>
        <time>2016-04-12T13:14:39Z</time>
      </trkpt>
      <trkpt lat="43.4277" lon="6.50769">
        <ele>71.27</ele>
        <time>2016-04-12T13:14:50Z</time>
      </trkpt>
      <trkpt lat="43.42776" lon="6.50776">
        <ele>71.27</ele>
        <time>2016-04-12T13:14:57Z</time>
      </trkpt>
      <trkpt lat="43.42787" lon="6.50783">
        <ele>70.79</ele>
        <time>2016-04-12T13:15:08Z</time>
      </trkpt>
      <trkpt lat="43.42792" lon="6.50788">
        <ele>70.31</ele>
        <time>2016-04-12T13:15:14Z</time>
      </trkpt>
      <trkpt lat="43.42803" lon="6.50803">
        <ele>69.35</ele>
        <time>2016-04-12T13:15:28Z</time>
      </trkpt>
      <trkpt lat="43.42803" lon="6.50803">
        <ele>69.35</ele>
        <time>2016-04-12T13:15:29Z</time>
      </trkpt>
      <trkpt lat="43.42806" lon="6.50806">
        <ele>69.35</ele>
        <time>2016-04-12T13:15:32Z</time>
      </trkpt>
      <trkpt lat="43.42807" lon="6.50814">
        <ele>69.35</ele>
        <time>2016-04-12T13:15:37Z</time>
      </trkpt>
      <trkpt lat="43.42815" lon="6.50826">
        <ele>68.39</ele>
        <time>2016-04-12T13:15:46Z</time>
      </trkpt>
      <trkpt lat="43.42825" lon="6.50834">
        <ele>68.87</ele>
        <time>2016-04-12T13:15:55Z</time>
      </trkpt>
      <trkpt lat="43.42829" lon="6.50837">
        <ele>68.39</ele>
        <time>2016-04-12T13:15:59Z</time>
      </trkpt>
      <trkpt lat="43.42833" lon="6.50842">
        <ele>68.39</ele>
        <time>2016-04-12T13:16:03Z</time>
      </trkpt>
      <trkpt lat="43.42836" lon="6.50845">
        <ele>67.91</ele>
        <time>2016-04-12T13:16:06Z</time>
      </trkpt>
      <trkpt lat="43.42841" lon="6.50855">
        <ele>67.43</ele>
        <time>2016-04-12T13:16:15Z</time>
      </trkpt>
      <trkpt lat="43.42842" lon="6.5086">
        <ele>66.95</ele>
        <time>2016-04-12T13:16:21Z</time>
      </trkpt>
      <trkpt lat="43.42848" lon="6.50865">
        <ele>66.95</ele>
        <time>2016-04-12T13:16:33Z</time>
      </trkpt>
      <trkpt lat="43.42848" lon="6.50864">
        <ele>66.95</ele>
        <time>2016-04-12T13:16:52Z</time>
      </trkpt>
      <trkpt lat="43.42852" lon="6.50864">
        <ele>66.47</ele>
        <time>2016-04-12T13:17:10Z</time>
      </trkpt>
      <trkpt lat="43.42866" lon="6.50866">
        <ele>64.55</ele>
        <time>2016-04-12T13:17:25Z</time>
      </trkpt>
      <trkpt lat="43.42872" lon="6.50863">
        <ele>64.07</ele>
        <time>2016-04-12T13:17:31Z</time>
      </trkpt>
      <trkpt lat="43.42881" lon="6.50862">
        <ele>63.58</ele>
        <time>2016-04-12T13:17:37Z</time>
      </trkpt>
      <trkpt lat="43.42887" lon="6.50861">
        <ele>62.62</ele>
        <time>2016-04-12T13:17:46Z</time>
      </trkpt>
      <trkpt lat="43.42897" lon="6.50865">
        <ele>61.66</ele>
        <time>2016-04-12T13:17:57Z</time>
      </trkpt>
      <trkpt lat="43.42899" lon="6.50866">
        <ele>61.18</ele>
        <time>2016-04-12T13:18:00Z</time>
      </trkpt>
      <trkpt lat="43.42908" lon="6.50869">
        <ele>60.7</ele>
        <time>2016-04-12T13:18:07Z</time>
      </trkpt>
      <trkpt lat="43.42914" lon="6.50874">
        <ele>60.22</ele>
        <time>2016-04-12T13:18:15Z</time>
      </trkpt>
      <trkpt lat="43.4292" lon="6.50879">
        <ele>59.26</ele>
        <time>2016-04-12T13:18:22Z</time>
      </trkpt>
      <trkpt lat="43.42925" lon="6.50888">
        <ele>58.78</ele>
        <time>2016-04-12T13:18:30Z</time>
      </trkpt>
      <trkpt lat="43.42928" lon="6.50891">
        <ele>58.78</ele>
        <time>2016-04-12T13:18:34Z</time>
      </trkpt>
      <trkpt lat="43.42939" lon="6.50898">
        <ele>57.82</ele>
        <time>2016-04-12T13:18:45Z</time>
      </trkpt>
      <trkpt lat="43.42942" lon="6.509">
        <ele>57.34</ele>
        <time>2016-04-12T13:18:47Z</time>
      </trkpt>
      <trkpt lat="43.42949" lon="6.50908">
        <ele>56.86</ele>
        <time>2016-04-12T13:18:55Z</time>
      </trkpt>
      <trkpt lat="43.4295" lon="6.50912">
        <ele>56.37</ele>
        <time>2016-04-12T13:18:58Z</time>
      </trkpt>
      <trkpt lat="43.42955" lon="6.50918">
        <ele>55.89</ele>
        <time>2016-04-12T13:19:03Z</time>
      </trkpt>
      <trkpt lat="43.42963" lon="6.50934">
        <ele>54.45</ele>
        <time>2016-04-12T13:19:17Z</time>
      </trkpt>
      <trkpt lat="43.42965" lon="6.50935">
        <ele>54.45</ele>
        <time>2016-04-12T13:19:18Z</time>
      </trkpt>
      <trkpt lat="43.42968" lon="6.50938">
        <ele>53.97</ele>
        <time>2016-04-12T13:19:21Z</time>
      </trkpt>
      <trkpt lat="43.4297" lon="6.50941">
        <ele>53.49</ele>
        <time>2016-04-12T13:19:24Z</time>
      </trkpt>
      <trkpt lat="43.42973" lon="6.50945">
        <ele>53.49</ele>
        <time>2016-04-12T13:19:28Z</time>
      </trkpt>
      <trkpt lat="43.42975" lon="6.50953">
        <ele>52.53</ele>
        <time>2016-04-12T13:19:33Z</time>
      </trkpt>
      <trkpt lat="43.42981" lon="6.50959">
        <ele>52.05</ele>
        <time>2016-04-12T13:19:39Z</time>
      </trkpt>
      <trkpt lat="43.42983" lon="6.50964">
        <ele>52.05</ele>
        <time>2016-04-12T13:19:43Z</time>
      </trkpt>
      <trkpt lat="43.42988" lon="6.5098">
        <ele>51.09</ele>
        <time>2016-04-12T13:19:55Z</time>
      </trkpt>
      <trkpt lat="43.4299" lon="6.50982">
        <ele>50.61</ele>
        <time>2016-04-12T13:19:57Z</time>
      </trkpt>
      <trkpt lat="43.42995" lon="6.51006">
        <ele>49.16</ele>
        <time>2016-04-12T13:20:13Z</time>
      </trkpt>
      <trkpt lat="43.42995" lon="6.51013">
        <ele>48.68</ele>
        <time>2016-04-12T13:20:18Z</time>
      </trkpt>
      <trkpt lat="43.42995" lon="6.51024">
        <ele>47.72</ele>
        <time>2016-04-12T13:20:25Z</time>
      </trkpt>
      <trkpt lat="43.42997" lon="6.51034">
        <ele>47.24</ele>
        <time>2016-04-12T13:20:31Z</time>
      </trkpt>
      <trkpt lat="43.42998" lon="6.51044">
        <ele>46.76</ele>
        <time>2016-04-12T13:20:37Z</time>
      </trkpt>
      <trkpt lat="43.43003" lon="6.51062">
        <ele>45.32</ele>
        <time>2016-04-12T13:20:50Z</time>
      </trkpt>
      <trkpt lat="43.43002" lon="6.51074">
        <ele>44.36</ele>
        <time>2016-04-12T13:20:58Z</time>
      </trkpt>
      <trkpt lat="43.43002" lon="6.51077">
        <ele>43.88</ele>
        <time>2016-04-12T13:21:00Z</time>
      </trkpt>
      <trkpt lat="43.43004" lon="6.51098">
        <ele>42.92</ele>
        <time>2016-04-12T13:21:13Z</time>
      </trkpt>
      <trkpt lat="43.43004" lon="6.51103">
        <ele>42.44</ele>
        <time>2016-04-12T13:21:16Z</time>
      </trkpt>
      <trkpt lat="43.43" lon="6.51118">
        <ele>41.47</ele>
        <time>2016-04-12T13:21:29Z</time>
      </trkpt>
      <trkpt lat="43.42993" lon="6.51138">
        <ele>40.51</ele>
        <time>2016-04-12T13:21:42Z</time>
      </trkpt>
      <trkpt lat="43.42996" lon="6.51143">
        <ele>40.03</ele>
        <time>2016-04-12T13:21:55Z</time>
      </trkpt>
      <trkpt lat="43.42997" lon="6.51142">
        <ele>40.99</ele>
        <time>2016-04-12T13:22:12Z</time>
      </trkpt>
      <trkpt lat="43.42996" lon="6.51142">
        <ele>40.99</ele>
        <time>2016-04-12T13:22:30Z</time>
      </trkpt>
      <trkpt lat="43.42998" lon="6.51144">
        <ele>40.99</ele>
        <time>2016-04-12T13:22:49Z</time>
      </trkpt>
      <trkpt lat="43.42998" lon="6.51145">
        <ele>40.51</ele>
        <time>2016-04-12T13:23:06Z</time>
      </trkpt>
      <trkpt lat="43.42996" lon="6.51146">
        <ele>40.99</ele>
        <time>2016-04-12T13:23:39Z</time>
      </trkpt>
      <trkpt lat="43.42996" lon="6.51147">
        <ele>40.99</ele>
        <time>2016-04-12T13:24:05Z</time>
      </trkpt>
      <trkpt lat="43.42996" lon="6.51146">
        <ele>40.99</ele>
        <time>2016-04-12T13:24:34Z</time>
      </trkpt>
      <trkpt lat="43.42997" lon="6.51145">
        <ele>40.99</ele>
        <time>2016-04-12T13:24:49Z</time>
      </trkpt>
      <trkpt lat="43.42996" lon="6.51144">
        <ele>41.47</ele>
        <time>2016-04-12T13:25:06Z</time>
      </trkpt>
      <trkpt lat="43.42997" lon="6.51144">
        <ele>42.44</ele>
        <time>2016-04-12T13:25:15Z</time>
      </trkpt>
      <trkpt lat="43.42997" lon="6.51144">
        <ele>39.55</ele>
        <time>2016-04-12T13:25:27Z</time>
      </trkpt>
    </trkseg>
  </trk>
</gpx>